<?xml version="1.0" encoding="UTF-8" standalone="no" ?>
<gpx xmlns="http://www.topografix.com/GPX/1/1" xmlns:xsi="http://www.w3.org/2001/XMLSchema-instance" xsi:schemaLocation="http://www.topografix.com/GPX/1/1 http://www.topografix.com/GPX/1/1/gpx.xsd" version="1.1" creator="VisuGPX - https://www.visugpx.com">
  <metadata>
    <name>Mont d\'or Steph 1</name>
    <desc><![CDATA[Mont d\'or Steph 1]]></desc>
  </metadata>
  <trk>
    <name><![CDATA[ACTIVE LOG080638]]></name>
    <trkseg>
      <trkpt lat="45.84034" lon="4.8495">
        <ele>143.058</ele>
        <time>2015-05-23T06:06:38Z</time>
      </trkpt>
    </trkseg>
  </trk>
  <trk>
    <name><![CDATA[ACTIVE LOG080704]]></name>
    <trkseg>
      <trkpt lat="45.84034" lon="4.8495">
        <ele>142.772</ele>
        <time>2015-05-23T06:07:02Z</time>
      </trkpt>
      <trkpt lat="45.84034" lon="4.8495">
        <ele>141.911</ele>
        <time>2015-05-23T06:07:17Z</time>
      </trkpt>
      <trkpt lat="45.84034" lon="4.8495">
        <ele>143.483</ele>
        <time>2015-05-23T06:07:19Z</time>
      </trkpt>
    </trkseg>
  </trk>
  <trk>
    <name><![CDATA[ACTIVE LOG080904]]></name>
    <trkseg>
      <trkpt lat="45.84028" lon="4.84924">
        <ele>143.362</ele>
        <time>2015-05-23T06:09:04Z</time>
      </trkpt>
      <trkpt lat="45.84038" lon="4.84947">
        <ele>142.535</ele>
        <time>2015-05-23T06:10:06Z</time>
      </trkpt>
      <trkpt lat="45.84041" lon="4.84943">
        <ele>143.729</ele>
        <time>2015-05-23T06:10:15Z</time>
      </trkpt>
      <trkpt lat="45.84039" lon="4.84921">
        <ele>143.053</ele>
        <time>2015-05-23T06:10:21Z</time>
      </trkpt>
      <trkpt lat="45.8404" lon="4.8489">
        <ele>141.832</ele>
        <time>2015-05-23T06:10:32Z</time>
      </trkpt>
      <trkpt lat="45.84044" lon="4.84875">
        <ele>141.861</ele>
        <time>2015-05-23T06:10:37Z</time>
      </trkpt>
      <trkpt lat="45.84047" lon="4.84865">
        <ele>141.94</ele>
        <time>2015-05-23T06:10:40Z</time>
      </trkpt>
      <trkpt lat="45.84045" lon="4.84857">
        <ele>142.17</ele>
        <time>2015-05-23T06:10:44Z</time>
      </trkpt>
      <trkpt lat="45.84024" lon="4.84841">
        <ele>148.386</ele>
        <time>2015-05-23T06:10:47Z</time>
      </trkpt>
      <trkpt lat="45.84009" lon="4.8483">
        <ele>156.006</ele>
        <time>2015-05-23T06:10:50Z</time>
      </trkpt>
      <trkpt lat="45.84" lon="4.84823">
        <ele>159.813</ele>
        <time>2015-05-23T06:10:52Z</time>
      </trkpt>
      <trkpt lat="45.83991" lon="4.84817">
        <ele>163.54</ele>
        <time>2015-05-23T06:10:54Z</time>
      </trkpt>
      <trkpt lat="45.83981" lon="4.84811">
        <ele>167.105</ele>
        <time>2015-05-23T06:10:56Z</time>
      </trkpt>
      <trkpt lat="45.8397" lon="4.84804">
        <ele>170.954</ele>
        <time>2015-05-23T06:10:58Z</time>
      </trkpt>
      <trkpt lat="45.8396" lon="4.84797">
        <ele>174.051</ele>
        <time>2015-05-23T06:11:00Z</time>
      </trkpt>
      <trkpt lat="45.83954" lon="4.84793">
        <ele>175.368</ele>
        <time>2015-05-23T06:11:01Z</time>
      </trkpt>
      <trkpt lat="45.83937" lon="4.8478">
        <ele>180.551</ele>
        <time>2015-05-23T06:11:05Z</time>
      </trkpt>
      <trkpt lat="45.83921" lon="4.84768">
        <ele>184.224</ele>
        <time>2015-05-23T06:11:09Z</time>
      </trkpt>
      <trkpt lat="45.83905" lon="4.84757">
        <ele>188.404</ele>
        <time>2015-05-23T06:11:13Z</time>
      </trkpt>
      <trkpt lat="45.83891" lon="4.84746">
        <ele>192.093</ele>
        <time>2015-05-23T06:11:18Z</time>
      </trkpt>
      <trkpt lat="45.8388" lon="4.84738">
        <ele>195.447</ele>
        <time>2015-05-23T06:11:22Z</time>
      </trkpt>
      <trkpt lat="45.83868" lon="4.84729">
        <ele>198.526</ele>
        <time>2015-05-23T06:11:26Z</time>
      </trkpt>
      <trkpt lat="45.83856" lon="4.8472">
        <ele>201.651</ele>
        <time>2015-05-23T06:11:30Z</time>
      </trkpt>
      <trkpt lat="45.83841" lon="4.84711">
        <ele>204.726</ele>
        <time>2015-05-23T06:11:35Z</time>
      </trkpt>
      <trkpt lat="45.83812" lon="4.84691">
        <ele>207.885</ele>
        <time>2015-05-23T06:11:46Z</time>
      </trkpt>
      <trkpt lat="45.8378" lon="4.8468">
        <ele>208.121</ele>
        <time>2015-05-23T06:11:51Z</time>
      </trkpt>
      <trkpt lat="45.83766" lon="4.84675">
        <ele>209.002</ele>
        <time>2015-05-23T06:11:54Z</time>
      </trkpt>
      <trkpt lat="45.83688" lon="4.84672">
        <ele>208.322</ele>
        <time>2015-05-23T06:12:08Z</time>
      </trkpt>
      <trkpt lat="45.83656" lon="4.8468">
        <ele>205.604</ele>
        <time>2015-05-23T06:12:13Z</time>
      </trkpt>
      <trkpt lat="45.83615" lon="4.84698">
        <ele>202.371</ele>
        <time>2015-05-23T06:12:19Z</time>
      </trkpt>
      <trkpt lat="45.83594" lon="4.84707">
        <ele>201.081</ele>
        <time>2015-05-23T06:12:22Z</time>
      </trkpt>
      <trkpt lat="45.83538" lon="4.84733">
        <ele>197.122</ele>
        <time>2015-05-23T06:12:30Z</time>
      </trkpt>
      <trkpt lat="45.83514" lon="4.84744">
        <ele>195.204</ele>
        <time>2015-05-23T06:12:34Z</time>
      </trkpt>
      <trkpt lat="45.83506" lon="4.84748">
        <ele>194.437</ele>
        <time>2015-05-23T06:12:36Z</time>
      </trkpt>
      <trkpt lat="45.83497" lon="4.84716">
        <ele>193.418</ele>
        <time>2015-05-23T06:12:40Z</time>
      </trkpt>
      <trkpt lat="45.83501" lon="4.84696">
        <ele>193.375</ele>
        <time>2015-05-23T06:12:43Z</time>
      </trkpt>
      <trkpt lat="45.83506" lon="4.8467">
        <ele>193.133</ele>
        <time>2015-05-23T06:12:47Z</time>
      </trkpt>
      <trkpt lat="45.835" lon="4.84657">
        <ele>191.943</ele>
        <time>2015-05-23T06:12:52Z</time>
      </trkpt>
      <trkpt lat="45.83438" lon="4.84648">
        <ele>188.474</ele>
        <time>2015-05-23T06:13:03Z</time>
      </trkpt>
      <trkpt lat="45.83415" lon="4.84645">
        <ele>187.398</ele>
        <time>2015-05-23T06:13:07Z</time>
      </trkpt>
      <trkpt lat="45.83404" lon="4.84659">
        <ele>187.017</ele>
        <time>2015-05-23T06:13:11Z</time>
      </trkpt>
      <trkpt lat="45.83401" lon="4.84723">
        <ele>187.776</ele>
        <time>2015-05-23T06:13:22Z</time>
      </trkpt>
      <trkpt lat="45.83399" lon="4.84749">
        <ele>188.521</ele>
        <time>2015-05-23T06:13:28Z</time>
      </trkpt>
      <trkpt lat="45.83389" lon="4.84749">
        <ele>188.56</ele>
        <time>2015-05-23T06:13:31Z</time>
      </trkpt>
      <trkpt lat="45.83382" lon="4.84746">
        <ele>188.954</ele>
        <time>2015-05-23T06:13:33Z</time>
      </trkpt>
      <trkpt lat="45.83308" lon="4.84748">
        <ele>187.076</ele>
        <time>2015-05-23T06:13:46Z</time>
      </trkpt>
      <trkpt lat="45.83275" lon="4.84732">
        <ele>186.888</ele>
        <time>2015-05-23T06:13:47Z</time>
      </trkpt>
      <trkpt lat="45.83271" lon="4.84746">
        <ele>187.069</ele>
        <time>2015-05-23T06:13:50Z</time>
      </trkpt>
      <trkpt lat="45.83279" lon="4.84755">
        <ele>187.073</ele>
        <time>2015-05-23T06:13:53Z</time>
      </trkpt>
      <trkpt lat="45.8327" lon="4.8477">
        <ele>186.885</ele>
        <time>2015-05-23T06:13:57Z</time>
      </trkpt>
      <trkpt lat="45.83246" lon="4.84841">
        <ele>189.351</ele>
        <time>2015-05-23T06:14:07Z</time>
      </trkpt>
      <trkpt lat="45.8322" lon="4.84854">
        <ele>190.115</ele>
        <time>2015-05-23T06:14:12Z</time>
      </trkpt>
      <trkpt lat="45.83164" lon="4.84798">
        <ele>193.689</ele>
        <time>2015-05-23T06:14:28Z</time>
      </trkpt>
      <trkpt lat="45.83117" lon="4.84749">
        <ele>191.381</ele>
        <time>2015-05-23T06:14:40Z</time>
      </trkpt>
      <trkpt lat="45.83097" lon="4.84706">
        <ele>190</ele>
        <time>2015-05-23T06:14:48Z</time>
      </trkpt>
      <trkpt lat="45.83072" lon="4.847">
        <ele>189.39</ele>
        <time>2015-05-23T06:14:50Z</time>
      </trkpt>
      <trkpt lat="45.83022" lon="4.84655">
        <ele>192.068</ele>
        <time>2015-05-23T06:15:02Z</time>
      </trkpt>
      <trkpt lat="45.82979" lon="4.84609">
        <ele>192.858</ele>
        <time>2015-05-23T06:15:22Z</time>
      </trkpt>
      <trkpt lat="45.82979" lon="4.84609">
        <ele>192.223</ele>
        <time>2015-05-23T06:16:03Z</time>
      </trkpt>
      <trkpt lat="45.82979" lon="4.84609">
        <ele>192.214</ele>
        <time>2015-05-23T06:16:07Z</time>
      </trkpt>
      <trkpt lat="45.82953" lon="4.8459">
        <ele>191.52</ele>
        <time>2015-05-23T06:16:22Z</time>
      </trkpt>
      <trkpt lat="45.82953" lon="4.8459">
        <ele>191.783</ele>
        <time>2015-05-23T06:16:35Z</time>
      </trkpt>
      <trkpt lat="45.82953" lon="4.8459">
        <ele>192.191</ele>
        <time>2015-05-23T06:16:39Z</time>
      </trkpt>
      <trkpt lat="45.82911" lon="4.8458">
        <ele>194.073</ele>
        <time>2015-05-23T06:16:52Z</time>
      </trkpt>
      <trkpt lat="45.82854" lon="4.84581">
        <ele>196.96</ele>
        <time>2015-05-23T06:17:09Z</time>
      </trkpt>
      <trkpt lat="45.82762" lon="4.84622">
        <ele>195.013</ele>
        <time>2015-05-23T06:17:27Z</time>
      </trkpt>
      <trkpt lat="45.82744" lon="4.84628">
        <ele>194.712</ele>
        <time>2015-05-23T06:17:30Z</time>
      </trkpt>
      <trkpt lat="45.82676" lon="4.84614">
        <ele>195.553</ele>
        <time>2015-05-23T06:17:44Z</time>
      </trkpt>
      <trkpt lat="45.82627" lon="4.84594">
        <ele>197.283</ele>
        <time>2015-05-23T06:17:58Z</time>
      </trkpt>
      <trkpt lat="45.82626" lon="4.84558">
        <ele>199.062</ele>
        <time>2015-05-23T06:18:02Z</time>
      </trkpt>
      <trkpt lat="45.82616" lon="4.8452">
        <ele>202.187</ele>
        <time>2015-05-23T06:18:11Z</time>
      </trkpt>
      <trkpt lat="45.82615" lon="4.84516">
        <ele>202.183</ele>
        <time>2015-05-23T06:18:12Z</time>
      </trkpt>
      <trkpt lat="45.8261" lon="4.84502">
        <ele>205.454</ele>
        <time>2015-05-23T06:18:22Z</time>
      </trkpt>
      <trkpt lat="45.82596" lon="4.84471">
        <ele>207.019</ele>
        <time>2015-05-23T06:18:28Z</time>
      </trkpt>
      <trkpt lat="45.8259" lon="4.84457">
        <ele>208.39</ele>
        <time>2015-05-23T06:18:35Z</time>
      </trkpt>
      <trkpt lat="45.82587" lon="4.84452">
        <ele>209.776</ele>
        <time>2015-05-23T06:18:43Z</time>
      </trkpt>
      <trkpt lat="45.82583" lon="4.84443">
        <ele>210.604</ele>
        <time>2015-05-23T06:18:47Z</time>
      </trkpt>
      <trkpt lat="45.82581" lon="4.84438">
        <ele>212.174</ele>
        <time>2015-05-23T06:18:52Z</time>
      </trkpt>
      <trkpt lat="45.82581" lon="4.84438">
        <ele>215.287</ele>
        <time>2015-05-23T06:19:11Z</time>
      </trkpt>
      <trkpt lat="45.82567" lon="4.84401">
        <ele>218.728</ele>
        <time>2015-05-23T06:19:22Z</time>
      </trkpt>
      <trkpt lat="45.82566" lon="4.844">
        <ele>218.725</ele>
        <time>2015-05-23T06:19:23Z</time>
      </trkpt>
      <trkpt lat="45.82558" lon="4.84372">
        <ele>222.074</ele>
        <time>2015-05-23T06:19:39Z</time>
      </trkpt>
      <trkpt lat="45.82556" lon="4.84366">
        <ele>223.391</ele>
        <time>2015-05-23T06:19:42Z</time>
      </trkpt>
      <trkpt lat="45.82553" lon="4.84348">
        <ele>225.626</ele>
        <time>2015-05-23T06:19:49Z</time>
      </trkpt>
      <trkpt lat="45.82553" lon="4.84346">
        <ele>226.189</ele>
        <time>2015-05-23T06:19:50Z</time>
      </trkpt>
      <trkpt lat="45.82552" lon="4.84339">
        <ele>226.748</ele>
        <time>2015-05-23T06:19:53Z</time>
      </trkpt>
      <trkpt lat="45.82551" lon="4.8433">
        <ele>228.435</ele>
        <time>2015-05-23T06:19:56Z</time>
      </trkpt>
      <trkpt lat="45.82551" lon="4.84327">
        <ele>228.439</ele>
        <time>2015-05-23T06:19:57Z</time>
      </trkpt>
      <trkpt lat="45.82551" lon="4.84298">
        <ele>231.72</ele>
        <time>2015-05-23T06:20:08Z</time>
      </trkpt>
      <trkpt lat="45.82552" lon="4.84264">
        <ele>234.742</ele>
        <time>2015-05-23T06:20:22Z</time>
      </trkpt>
      <trkpt lat="45.82553" lon="4.84243">
        <ele>235.847</ele>
        <time>2015-05-23T06:20:30Z</time>
      </trkpt>
      <trkpt lat="45.82553" lon="4.84203">
        <ele>238.991</ele>
        <time>2015-05-23T06:20:45Z</time>
      </trkpt>
      <trkpt lat="45.82548" lon="4.84156">
        <ele>242.162</ele>
        <time>2015-05-23T06:21:00Z</time>
      </trkpt>
      <trkpt lat="45.82544" lon="4.84113">
        <ele>245.918</ele>
        <time>2015-05-23T06:21:15Z</time>
      </trkpt>
      <trkpt lat="45.82544" lon="4.84081">
        <ele>248.081</ele>
        <time>2015-05-23T06:21:26Z</time>
      </trkpt>
      <trkpt lat="45.82547" lon="4.84032">
        <ele>251.598</ele>
        <time>2015-05-23T06:21:41Z</time>
      </trkpt>
      <trkpt lat="45.82552" lon="4.83985">
        <ele>253.804</ele>
        <time>2015-05-23T06:21:59Z</time>
      </trkpt>
      <trkpt lat="45.82555" lon="4.83918">
        <ele>255.77</ele>
        <time>2015-05-23T06:22:12Z</time>
      </trkpt>
      <trkpt lat="45.82557" lon="4.83886">
        <ele>259.155</ele>
        <time>2015-05-23T06:22:21Z</time>
      </trkpt>
      <trkpt lat="45.82557" lon="4.83882">
        <ele>259.149</ele>
        <time>2015-05-23T06:22:22Z</time>
      </trkpt>
      <trkpt lat="45.82573" lon="4.83834">
        <ele>260.13</ele>
        <time>2015-05-23T06:22:37Z</time>
      </trkpt>
      <trkpt lat="45.82569" lon="4.83784">
        <ele>263.384</ele>
        <time>2015-05-23T06:22:51Z</time>
      </trkpt>
      <trkpt lat="45.82559" lon="4.83731">
        <ele>266.714</ele>
        <time>2015-05-23T06:23:05Z</time>
      </trkpt>
      <trkpt lat="45.82559" lon="4.83726">
        <ele>266.711</ele>
        <time>2015-05-23T06:23:06Z</time>
      </trkpt>
      <trkpt lat="45.82553" lon="4.83668">
        <ele>270.616</ele>
        <time>2015-05-23T06:23:21Z</time>
      </trkpt>
      <trkpt lat="45.82552" lon="4.83664">
        <ele>270.612</ele>
        <time>2015-05-23T06:23:22Z</time>
      </trkpt>
      <trkpt lat="45.82554" lon="4.83604">
        <ele>273.654</ele>
        <time>2015-05-23T06:23:37Z</time>
      </trkpt>
      <trkpt lat="45.8257" lon="4.83536">
        <ele>276.462</ele>
        <time>2015-05-23T06:23:54Z</time>
      </trkpt>
      <trkpt lat="45.82573" lon="4.8352">
        <ele>277.217</ele>
        <time>2015-05-23T06:24:00Z</time>
      </trkpt>
      <trkpt lat="45.82595" lon="4.83444">
        <ele>280.347</ele>
        <time>2015-05-23T06:24:19Z</time>
      </trkpt>
      <trkpt lat="45.82604" lon="4.83392">
        <ele>283.022</ele>
        <time>2015-05-23T06:24:33Z</time>
      </trkpt>
      <trkpt lat="45.82609" lon="4.83335">
        <ele>286.703</ele>
        <time>2015-05-23T06:24:49Z</time>
      </trkpt>
      <trkpt lat="45.82611" lon="4.83294">
        <ele>289.793</ele>
        <time>2015-05-23T06:25:02Z</time>
      </trkpt>
      <trkpt lat="45.82613" lon="4.83254">
        <ele>293</ele>
        <time>2015-05-23T06:25:16Z</time>
      </trkpt>
      <trkpt lat="45.82614" lon="4.83231">
        <ele>296.163</ele>
        <time>2015-05-23T06:25:24Z</time>
      </trkpt>
      <trkpt lat="45.82614" lon="4.83228">
        <ele>296.158</ele>
        <time>2015-05-23T06:25:25Z</time>
      </trkpt>
      <trkpt lat="45.82615" lon="4.83217">
        <ele>297.416</ele>
        <time>2015-05-23T06:25:29Z</time>
      </trkpt>
      <trkpt lat="45.82617" lon="4.83181">
        <ele>300.599</ele>
        <time>2015-05-23T06:25:42Z</time>
      </trkpt>
      <trkpt lat="45.82617" lon="4.8316">
        <ele>302.524</ele>
        <time>2015-05-23T06:25:50Z</time>
      </trkpt>
      <trkpt lat="45.82617" lon="4.83146">
        <ele>304.111</ele>
        <time>2015-05-23T06:25:55Z</time>
      </trkpt>
      <trkpt lat="45.82617" lon="4.83126">
        <ele>306.369</ele>
        <time>2015-05-23T06:26:02Z</time>
      </trkpt>
      <trkpt lat="45.82617" lon="4.83102">
        <ele>309.451</ele>
        <time>2015-05-23T06:26:19Z</time>
      </trkpt>
      <trkpt lat="45.82611" lon="4.8307">
        <ele>311.516</ele>
        <time>2015-05-23T06:26:25Z</time>
      </trkpt>
      <trkpt lat="45.8261" lon="4.83042">
        <ele>314.924</ele>
        <time>2015-05-23T06:26:37Z</time>
      </trkpt>
      <trkpt lat="45.8261" lon="4.83039">
        <ele>315.444</ele>
        <time>2015-05-23T06:26:38Z</time>
      </trkpt>
      <trkpt lat="45.8261" lon="4.83035">
        <ele>316.18</ele>
        <time>2015-05-23T06:26:41Z</time>
      </trkpt>
      <trkpt lat="45.8261" lon="4.83031">
        <ele>316.706</ele>
        <time>2015-05-23T06:26:43Z</time>
      </trkpt>
      <trkpt lat="45.82609" lon="4.83011">
        <ele>320.547</ele>
        <time>2015-05-23T06:26:52Z</time>
      </trkpt>
      <trkpt lat="45.82608" lon="4.83005">
        <ele>321.738</ele>
        <time>2015-05-23T06:26:55Z</time>
      </trkpt>
      <trkpt lat="45.82606" lon="4.82996">
        <ele>322.492</ele>
        <time>2015-05-23T06:27:00Z</time>
      </trkpt>
      <trkpt lat="45.82606" lon="4.82994">
        <ele>323.372</ele>
        <time>2015-05-23T06:27:05Z</time>
      </trkpt>
      <trkpt lat="45.82602" lon="4.82976">
        <ele>324.122</ele>
        <time>2015-05-23T06:27:10Z</time>
      </trkpt>
      <trkpt lat="45.82582" lon="4.82958">
        <ele>327.118</ele>
        <time>2015-05-23T06:27:24Z</time>
      </trkpt>
      <trkpt lat="45.82552" lon="4.82943">
        <ele>329.652</ele>
        <time>2015-05-23T06:27:41Z</time>
      </trkpt>
      <trkpt lat="45.82547" lon="4.8294">
        <ele>330.032</ele>
        <time>2015-05-23T06:27:44Z</time>
      </trkpt>
      <trkpt lat="45.8254" lon="4.82931">
        <ele>330.982</ele>
        <time>2015-05-23T06:27:48Z</time>
      </trkpt>
      <trkpt lat="45.82547" lon="4.82909">
        <ele>334.148</ele>
        <time>2015-05-23T06:28:00Z</time>
      </trkpt>
      <trkpt lat="45.82555" lon="4.82891">
        <ele>337.508</ele>
        <time>2015-05-23T06:28:10Z</time>
      </trkpt>
      <trkpt lat="45.82556" lon="4.82859">
        <ele>340.967</ele>
        <time>2015-05-23T06:28:24Z</time>
      </trkpt>
      <trkpt lat="45.82548" lon="4.82826">
        <ele>344.136</ele>
        <time>2015-05-23T06:28:40Z</time>
      </trkpt>
      <trkpt lat="45.82543" lon="4.82808">
        <ele>347.137</ele>
        <time>2015-05-23T06:28:49Z</time>
      </trkpt>
      <trkpt lat="45.82541" lon="4.82804">
        <ele>347.948</ele>
        <time>2015-05-23T06:28:51Z</time>
      </trkpt>
      <trkpt lat="45.8254" lon="4.82802">
        <ele>347.875</ele>
        <time>2015-05-23T06:28:52Z</time>
      </trkpt>
      <trkpt lat="45.82536" lon="4.82777">
        <ele>351.219</ele>
        <time>2015-05-23T06:29:03Z</time>
      </trkpt>
      <trkpt lat="45.82534" lon="4.82762">
        <ele>352.824</ele>
        <time>2015-05-23T06:29:10Z</time>
      </trkpt>
      <trkpt lat="45.82528" lon="4.82734">
        <ele>356.576</ele>
        <time>2015-05-23T06:29:24Z</time>
      </trkpt>
      <trkpt lat="45.82525" lon="4.82712">
        <ele>360.136</ele>
        <time>2015-05-23T06:29:34Z</time>
      </trkpt>
      <trkpt lat="45.82525" lon="4.82712">
        <ele>360.135</ele>
        <time>2015-05-23T06:29:35Z</time>
      </trkpt>
      <trkpt lat="45.82561" lon="4.82709">
        <ele>362.944</ele>
        <time>2015-05-23T06:29:53Z</time>
      </trkpt>
      <trkpt lat="45.82575" lon="4.82714">
        <ele>364.359</ele>
        <time>2015-05-23T06:30:00Z</time>
      </trkpt>
      <trkpt lat="45.82619" lon="4.8273">
        <ele>366.186</ele>
        <time>2015-05-23T06:30:20Z</time>
      </trkpt>
      <trkpt lat="45.82627" lon="4.82733">
        <ele>367.363</ele>
        <time>2015-05-23T06:30:28Z</time>
      </trkpt>
      <trkpt lat="45.82643" lon="4.82748">
        <ele>367.317</ele>
        <time>2015-05-23T06:30:32Z</time>
      </trkpt>
      <trkpt lat="45.82661" lon="4.8277">
        <ele>368.927</ele>
        <time>2015-05-23T06:30:42Z</time>
      </trkpt>
      <trkpt lat="45.82674" lon="4.82789">
        <ele>370.007</ele>
        <time>2015-05-23T06:30:50Z</time>
      </trkpt>
      <trkpt lat="45.82692" lon="4.82831">
        <ele>370.022</ele>
        <time>2015-05-23T06:30:59Z</time>
      </trkpt>
      <trkpt lat="45.82706" lon="4.82853">
        <ele>370.645</ele>
        <time>2015-05-23T06:31:04Z</time>
      </trkpt>
      <trkpt lat="45.8273" lon="4.82876">
        <ele>370.57</ele>
        <time>2015-05-23T06:31:09Z</time>
      </trkpt>
      <trkpt lat="45.82743" lon="4.8288">
        <ele>370.321</ele>
        <time>2015-05-23T06:31:11Z</time>
      </trkpt>
      <trkpt lat="45.82797" lon="4.82889">
        <ele>370.159</ele>
        <time>2015-05-23T06:31:19Z</time>
      </trkpt>
      <trkpt lat="45.82839" lon="4.82883">
        <ele>368.021</ele>
        <time>2015-05-23T06:31:25Z</time>
      </trkpt>
      <trkpt lat="45.82863" lon="4.8288">
        <ele>367.479</ele>
        <time>2015-05-23T06:31:28Z</time>
      </trkpt>
      <trkpt lat="45.82878" lon="4.82878">
        <ele>367.151</ele>
        <time>2015-05-23T06:31:30Z</time>
      </trkpt>
      <trkpt lat="45.82899" lon="4.8287">
        <ele>365.465</ele>
        <time>2015-05-23T06:31:33Z</time>
      </trkpt>
      <trkpt lat="45.82924" lon="4.82854">
        <ele>365.613</ele>
        <time>2015-05-23T06:31:37Z</time>
      </trkpt>
      <trkpt lat="45.8296" lon="4.8283">
        <ele>363.273</ele>
        <time>2015-05-23T06:31:43Z</time>
      </trkpt>
      <trkpt lat="45.82982" lon="4.82805">
        <ele>360.631</ele>
        <time>2015-05-23T06:31:47Z</time>
      </trkpt>
      <trkpt lat="45.82982" lon="4.82805">
        <ele>359.916</ele>
        <time>2015-05-23T06:31:49Z</time>
      </trkpt>
      <trkpt lat="45.8303" lon="4.82738">
        <ele>359.068</ele>
        <time>2015-05-23T06:32:00Z</time>
      </trkpt>
      <trkpt lat="45.83033" lon="4.82733">
        <ele>358.649</ele>
        <time>2015-05-23T06:32:01Z</time>
      </trkpt>
      <trkpt lat="45.83045" lon="4.82707">
        <ele>358.079</ele>
        <time>2015-05-23T06:32:05Z</time>
      </trkpt>
      <trkpt lat="45.83073" lon="4.82658">
        <ele>357.518</ele>
        <time>2015-05-23T06:32:13Z</time>
      </trkpt>
      <trkpt lat="45.83104" lon="4.82617">
        <ele>356.574</ele>
        <time>2015-05-23T06:32:20Z</time>
      </trkpt>
      <trkpt lat="45.83112" lon="4.82601">
        <ele>355.997</ele>
        <time>2015-05-23T06:32:22Z</time>
      </trkpt>
      <trkpt lat="45.83121" lon="4.82576">
        <ele>354.661</ele>
        <time>2015-05-23T06:32:25Z</time>
      </trkpt>
      <trkpt lat="45.83136" lon="4.8252">
        <ele>355.22</ele>
        <time>2015-05-23T06:32:32Z</time>
      </trkpt>
      <trkpt lat="45.83139" lon="4.82468">
        <ele>356.037</ele>
        <time>2015-05-23T06:32:41Z</time>
      </trkpt>
      <trkpt lat="45.83134" lon="4.82404">
        <ele>357.224</ele>
        <time>2015-05-23T06:32:52Z</time>
      </trkpt>
      <trkpt lat="45.83137" lon="4.82342">
        <ele>359.802</ele>
        <time>2015-05-23T06:33:02Z</time>
      </trkpt>
      <trkpt lat="45.83131" lon="4.8228">
        <ele>361.246</ele>
        <time>2015-05-23T06:33:14Z</time>
      </trkpt>
      <trkpt lat="45.83127" lon="4.82263">
        <ele>362.929</ele>
        <time>2015-05-23T06:33:21Z</time>
      </trkpt>
      <trkpt lat="45.83125" lon="4.82242">
        <ele>365.268</ele>
        <time>2015-05-23T06:33:29Z</time>
      </trkpt>
      <trkpt lat="45.8312" lon="4.82217">
        <ele>368.032</ele>
        <time>2015-05-23T06:33:38Z</time>
      </trkpt>
      <trkpt lat="45.8311" lon="4.82183">
        <ele>370.503</ele>
        <time>2015-05-23T06:33:51Z</time>
      </trkpt>
      <trkpt lat="45.83104" lon="4.82167">
        <ele>371.329</ele>
        <time>2015-05-23T06:33:56Z</time>
      </trkpt>
      <trkpt lat="45.83089" lon="4.82141">
        <ele>372.642</ele>
        <time>2015-05-23T06:34:05Z</time>
      </trkpt>
      <trkpt lat="45.83081" lon="4.82129">
        <ele>374.477</ele>
        <time>2015-05-23T06:34:10Z</time>
      </trkpt>
      <trkpt lat="45.83075" lon="4.82122">
        <ele>376.945</ele>
        <time>2015-05-23T06:34:15Z</time>
      </trkpt>
      <trkpt lat="45.83066" lon="4.8211">
        <ele>380.255</ele>
        <time>2015-05-23T06:34:23Z</time>
      </trkpt>
      <trkpt lat="45.83048" lon="4.82086">
        <ele>383.445</ele>
        <time>2015-05-23T06:34:37Z</time>
      </trkpt>
      <trkpt lat="45.83032" lon="4.82063">
        <ele>386.52</ele>
        <time>2015-05-23T06:34:51Z</time>
      </trkpt>
      <trkpt lat="45.83029" lon="4.82061">
        <ele>387.252</ele>
        <time>2015-05-23T06:34:53Z</time>
      </trkpt>
      <trkpt lat="45.8301" lon="4.82041">
        <ele>389.937</ele>
        <time>2015-05-23T06:35:06Z</time>
      </trkpt>
      <trkpt lat="45.83" lon="4.82028">
        <ele>388.936</ele>
        <time>2015-05-23T06:35:15Z</time>
      </trkpt>
      <trkpt lat="45.83" lon="4.82028">
        <ele>388.544</ele>
        <time>2015-05-23T06:35:16Z</time>
      </trkpt>
      <trkpt lat="45.82999" lon="4.81971">
        <ele>389.125</ele>
        <time>2015-05-23T06:35:25Z</time>
      </trkpt>
      <trkpt lat="45.82999" lon="4.8197">
        <ele>389.462</ele>
        <time>2015-05-23T06:35:28Z</time>
      </trkpt>
      <trkpt lat="45.83007" lon="4.81956">
        <ele>392</ele>
        <time>2015-05-23T06:35:39Z</time>
      </trkpt>
      <trkpt lat="45.83011" lon="4.81949">
        <ele>392.464</ele>
        <time>2015-05-23T06:35:43Z</time>
      </trkpt>
      <trkpt lat="45.83015" lon="4.81937">
        <ele>393.253</ele>
        <time>2015-05-23T06:35:48Z</time>
      </trkpt>
      <trkpt lat="45.83017" lon="4.81929">
        <ele>394.383</ele>
        <time>2015-05-23T06:35:50Z</time>
      </trkpt>
      <trkpt lat="45.8301" lon="4.81899">
        <ele>393.464</ele>
        <time>2015-05-23T06:35:58Z</time>
      </trkpt>
      <trkpt lat="45.82995" lon="4.81842">
        <ele>395.337</ele>
        <time>2015-05-23T06:36:13Z</time>
      </trkpt>
      <trkpt lat="45.82984" lon="4.81803">
        <ele>397.653</ele>
        <time>2015-05-23T06:36:27Z</time>
      </trkpt>
      <trkpt lat="45.82981" lon="4.81795">
        <ele>399.09</ele>
        <time>2015-05-23T06:36:31Z</time>
      </trkpt>
      <trkpt lat="45.82979" lon="4.81792">
        <ele>400.839</ele>
        <time>2015-05-23T06:36:34Z</time>
      </trkpt>
      <trkpt lat="45.8297" lon="4.81781">
        <ele>403.607</ele>
        <time>2015-05-23T06:36:41Z</time>
      </trkpt>
      <trkpt lat="45.82963" lon="4.81768">
        <ele>405.71</ele>
        <time>2015-05-23T06:36:49Z</time>
      </trkpt>
      <trkpt lat="45.82951" lon="4.8175">
        <ele>409.098</ele>
        <time>2015-05-23T06:37:01Z</time>
      </trkpt>
      <trkpt lat="45.82949" lon="4.81749">
        <ele>410.405</ele>
        <time>2015-05-23T06:37:04Z</time>
      </trkpt>
      <trkpt lat="45.82949" lon="4.81749">
        <ele>411.54</ele>
        <time>2015-05-23T06:37:32Z</time>
      </trkpt>
      <trkpt lat="45.82949" lon="4.81749">
        <ele>411.815</ele>
        <time>2015-05-23T06:38:36Z</time>
      </trkpt>
      <trkpt lat="45.82949" lon="4.81749">
        <ele>413.283</ele>
        <time>2015-05-23T06:39:16Z</time>
      </trkpt>
      <trkpt lat="45.82949" lon="4.81749">
        <ele>414.251</ele>
        <time>2015-05-23T06:39:25Z</time>
      </trkpt>
      <trkpt lat="45.82948" lon="4.81748">
        <ele>416.751</ele>
        <time>2015-05-23T06:39:36Z</time>
      </trkpt>
      <trkpt lat="45.82948" lon="4.81748">
        <ele>418.623</ele>
        <time>2015-05-23T06:39:50Z</time>
      </trkpt>
      <trkpt lat="45.82948" lon="4.81748">
        <ele>421.095</ele>
        <time>2015-05-23T06:40:03Z</time>
      </trkpt>
      <trkpt lat="45.82948" lon="4.81748">
        <ele>422.266</ele>
        <time>2015-05-23T06:40:19Z</time>
      </trkpt>
      <trkpt lat="45.82948" lon="4.81748">
        <ele>424.068</ele>
        <time>2015-05-23T06:40:28Z</time>
      </trkpt>
      <trkpt lat="45.82948" lon="4.81748">
        <ele>425.659</ele>
        <time>2015-05-23T06:40:30Z</time>
      </trkpt>
      <trkpt lat="45.82948" lon="4.81748">
        <ele>428.204</ele>
        <time>2015-05-23T06:40:46Z</time>
      </trkpt>
      <trkpt lat="45.82948" lon="4.81748">
        <ele>430.468</ele>
        <time>2015-05-23T06:41:01Z</time>
      </trkpt>
      <trkpt lat="45.82948" lon="4.81748">
        <ele>432.285</ele>
        <time>2015-05-23T06:41:18Z</time>
      </trkpt>
      <trkpt lat="45.82948" lon="4.81748">
        <ele>432.687</ele>
        <time>2015-05-23T06:41:38Z</time>
      </trkpt>
      <trkpt lat="45.82904" lon="4.81791">
        <ele>434.743</ele>
        <time>2015-05-23T06:41:53Z</time>
      </trkpt>
      <trkpt lat="45.8289" lon="4.8178">
        <ele>437.271</ele>
        <time>2015-05-23T06:42:07Z</time>
      </trkpt>
      <trkpt lat="45.82876" lon="4.81767">
        <ele>440.034</ele>
        <time>2015-05-23T06:42:20Z</time>
      </trkpt>
      <trkpt lat="45.82862" lon="4.81752">
        <ele>442.354</ele>
        <time>2015-05-23T06:42:31Z</time>
      </trkpt>
      <trkpt lat="45.82845" lon="4.81735">
        <ele>444.947</ele>
        <time>2015-05-23T06:42:45Z</time>
      </trkpt>
      <trkpt lat="45.8283" lon="4.81721">
        <ele>446.61</ele>
        <time>2015-05-23T06:43:01Z</time>
      </trkpt>
      <trkpt lat="45.82828" lon="4.8172">
        <ele>447.038</ele>
        <time>2015-05-23T06:43:02Z</time>
      </trkpt>
      <trkpt lat="45.82814" lon="4.81709">
        <ele>448.136</ele>
        <time>2015-05-23T06:43:15Z</time>
      </trkpt>
      <trkpt lat="45.82789" lon="4.81686">
        <ele>449.973</ele>
        <time>2015-05-23T06:43:26Z</time>
      </trkpt>
      <trkpt lat="45.82785" lon="4.81669">
        <ele>451.006</ele>
        <time>2015-05-23T06:43:29Z</time>
      </trkpt>
      <trkpt lat="45.82779" lon="4.81652">
        <ele>451.712</ele>
        <time>2015-05-23T06:43:34Z</time>
      </trkpt>
      <trkpt lat="45.82768" lon="4.81608">
        <ele>453.186</ele>
        <time>2015-05-23T06:43:46Z</time>
      </trkpt>
      <trkpt lat="45.82757" lon="4.81546">
        <ele>452.471</ele>
        <time>2015-05-23T06:43:57Z</time>
      </trkpt>
      <trkpt lat="45.82754" lon="4.81513">
        <ele>451.102</ele>
        <time>2015-05-23T06:44:01Z</time>
      </trkpt>
      <trkpt lat="45.82754" lon="4.81513">
        <ele>450.052</ele>
        <time>2015-05-23T06:44:02Z</time>
      </trkpt>
      <trkpt lat="45.82761" lon="4.8146">
        <ele>448.288</ele>
        <time>2015-05-23T06:44:05Z</time>
      </trkpt>
      <trkpt lat="45.82768" lon="4.81438">
        <ele>446.766</ele>
        <time>2015-05-23T06:44:07Z</time>
      </trkpt>
      <trkpt lat="45.82773" lon="4.81412">
        <ele>441.827</ele>
        <time>2015-05-23T06:44:09Z</time>
      </trkpt>
      <trkpt lat="45.82773" lon="4.81404">
        <ele>441.827</ele>
        <time>2015-05-23T06:44:10Z</time>
      </trkpt>
      <trkpt lat="45.82773" lon="4.81397">
        <ele>439.744</ele>
        <time>2015-05-23T06:44:12Z</time>
      </trkpt>
      <trkpt lat="45.82773" lon="4.81397">
        <ele>438.134</ele>
        <time>2015-05-23T06:44:14Z</time>
      </trkpt>
      <trkpt lat="45.82772" lon="4.81385">
        <ele>436.971</ele>
        <time>2015-05-23T06:44:16Z</time>
      </trkpt>
      <trkpt lat="45.82772" lon="4.81385">
        <ele>437.7</ele>
        <time>2015-05-23T06:44:20Z</time>
      </trkpt>
      <trkpt lat="45.8278" lon="4.81348">
        <ele>437.34</ele>
        <time>2015-05-23T06:44:24Z</time>
      </trkpt>
      <trkpt lat="45.82786" lon="4.81317">
        <ele>437.226</ele>
        <time>2015-05-23T06:44:28Z</time>
      </trkpt>
      <trkpt lat="45.82774" lon="4.81278">
        <ele>435.004</ele>
        <time>2015-05-23T06:44:34Z</time>
      </trkpt>
      <trkpt lat="45.82769" lon="4.81277">
        <ele>433.651</ele>
        <time>2015-05-23T06:44:35Z</time>
      </trkpt>
      <trkpt lat="45.82758" lon="4.81276">
        <ele>432.998</ele>
        <time>2015-05-23T06:44:37Z</time>
      </trkpt>
      <trkpt lat="45.82735" lon="4.81274">
        <ele>432.045</ele>
        <time>2015-05-23T06:44:41Z</time>
      </trkpt>
      <trkpt lat="45.82704" lon="4.81252">
        <ele>429.693</ele>
        <time>2015-05-23T06:44:47Z</time>
      </trkpt>
      <trkpt lat="45.82695" lon="4.81237">
        <ele>428.309</ele>
        <time>2015-05-23T06:44:49Z</time>
      </trkpt>
      <trkpt lat="45.82688" lon="4.81225">
        <ele>426.507</ele>
        <time>2015-05-23T06:44:51Z</time>
      </trkpt>
      <trkpt lat="45.82679" lon="4.81209">
        <ele>424.159</ele>
        <time>2015-05-23T06:44:54Z</time>
      </trkpt>
      <trkpt lat="45.82672" lon="4.81197">
        <ele>422.719</ele>
        <time>2015-05-23T06:44:56Z</time>
      </trkpt>
      <trkpt lat="45.82668" lon="4.81192">
        <ele>420.767</ele>
        <time>2015-05-23T06:44:57Z</time>
      </trkpt>
      <trkpt lat="45.82652" lon="4.81181">
        <ele>416.343</ele>
        <time>2015-05-23T06:45:00Z</time>
      </trkpt>
      <trkpt lat="45.82646" lon="4.81177">
        <ele>416.34</ele>
        <time>2015-05-23T06:45:01Z</time>
      </trkpt>
      <trkpt lat="45.82635" lon="4.81166">
        <ele>413.275</ele>
        <time>2015-05-23T06:45:03Z</time>
      </trkpt>
      <trkpt lat="45.82628" lon="4.81153">
        <ele>410.73</ele>
        <time>2015-05-23T06:45:05Z</time>
      </trkpt>
      <trkpt lat="45.82625" lon="4.81146">
        <ele>407.517</ele>
        <time>2015-05-23T06:45:06Z</time>
      </trkpt>
      <trkpt lat="45.82621" lon="4.81133">
        <ele>404.942</ele>
        <time>2015-05-23T06:45:08Z</time>
      </trkpt>
      <trkpt lat="45.82619" lon="4.81116">
        <ele>402.491</ele>
        <time>2015-05-23T06:45:10Z</time>
      </trkpt>
      <trkpt lat="45.82616" lon="4.81093">
        <ele>400.999</ele>
        <time>2015-05-23T06:45:12Z</time>
      </trkpt>
      <trkpt lat="45.82613" lon="4.81072">
        <ele>397.513</ele>
        <time>2015-05-23T06:45:14Z</time>
      </trkpt>
      <trkpt lat="45.82611" lon="4.81055">
        <ele>394.974</ele>
        <time>2015-05-23T06:45:17Z</time>
      </trkpt>
      <trkpt lat="45.82611" lon="4.81051">
        <ele>393.367</ele>
        <time>2015-05-23T06:45:19Z</time>
      </trkpt>
      <trkpt lat="45.82613" lon="4.80992">
        <ele>393.298</ele>
        <time>2015-05-23T06:45:28Z</time>
      </trkpt>
      <trkpt lat="45.82613" lon="4.80992">
        <ele>392.438</ele>
        <time>2015-05-23T06:45:41Z</time>
      </trkpt>
      <trkpt lat="45.82613" lon="4.80992">
        <ele>392.331</ele>
        <time>2015-05-23T06:45:59Z</time>
      </trkpt>
      <trkpt lat="45.8262" lon="4.81037">
        <ele>393.41</ele>
        <time>2015-05-23T06:46:06Z</time>
      </trkpt>
      <trkpt lat="45.82636" lon="4.81019">
        <ele>394.443</ele>
        <time>2015-05-23T06:46:19Z</time>
      </trkpt>
      <trkpt lat="45.82658" lon="4.81008">
        <ele>395.831</ele>
        <time>2015-05-23T06:46:26Z</time>
      </trkpt>
      <trkpt lat="45.82691" lon="4.80998">
        <ele>398.328</ele>
        <time>2015-05-23T06:46:43Z</time>
      </trkpt>
      <trkpt lat="45.82723" lon="4.80999">
        <ele>401.556</ele>
        <time>2015-05-23T06:46:58Z</time>
      </trkpt>
      <trkpt lat="45.82769" lon="4.80991">
        <ele>403.228</ele>
        <time>2015-05-23T06:47:17Z</time>
      </trkpt>
      <trkpt lat="45.82806" lon="4.80975">
        <ele>405.781</ele>
        <time>2015-05-23T06:47:34Z</time>
      </trkpt>
      <trkpt lat="45.82836" lon="4.80957">
        <ele>407.585</ele>
        <time>2015-05-23T06:47:49Z</time>
      </trkpt>
      <trkpt lat="45.82849" lon="4.80899">
        <ele>409.212</ele>
        <time>2015-05-23T06:48:07Z</time>
      </trkpt>
      <trkpt lat="45.82869" lon="4.80874">
        <ele>412.338</ele>
        <time>2015-05-23T06:48:23Z</time>
      </trkpt>
      <trkpt lat="45.82883" lon="4.8085">
        <ele>415.057</ele>
        <time>2015-05-23T06:48:41Z</time>
      </trkpt>
      <trkpt lat="45.82894" lon="4.80834">
        <ele>418.266</ele>
        <time>2015-05-23T06:48:53Z</time>
      </trkpt>
      <trkpt lat="45.82913" lon="4.80808">
        <ele>421.426</ele>
        <time>2015-05-23T06:49:10Z</time>
      </trkpt>
      <trkpt lat="45.82917" lon="4.80803">
        <ele>422.692</ele>
        <time>2015-05-23T06:49:13Z</time>
      </trkpt>
      <trkpt lat="45.82939" lon="4.8077">
        <ele>426.248</ele>
        <time>2015-05-23T06:49:30Z</time>
      </trkpt>
      <trkpt lat="45.82967" lon="4.80733">
        <ele>428.815</ele>
        <time>2015-05-23T06:49:52Z</time>
      </trkpt>
      <trkpt lat="45.82999" lon="4.80701">
        <ele>431.83</ele>
        <time>2015-05-23T06:50:12Z</time>
      </trkpt>
      <trkpt lat="45.83028" lon="4.80668">
        <ele>434.865</ele>
        <time>2015-05-23T06:50:31Z</time>
      </trkpt>
      <trkpt lat="45.83056" lon="4.80638">
        <ele>438.491</ele>
        <time>2015-05-23T06:50:51Z</time>
      </trkpt>
      <trkpt lat="45.83072" lon="4.80616">
        <ele>441.748</ele>
        <time>2015-05-23T06:51:05Z</time>
      </trkpt>
      <trkpt lat="45.83083" lon="4.80596">
        <ele>442.723</ele>
        <time>2015-05-23T06:51:16Z</time>
      </trkpt>
      <trkpt lat="45.8309" lon="4.80583">
        <ele>444.828</ele>
        <time>2015-05-23T06:51:23Z</time>
      </trkpt>
      <trkpt lat="45.83109" lon="4.80547">
        <ele>448.411</ele>
        <time>2015-05-23T06:51:40Z</time>
      </trkpt>
      <trkpt lat="45.83127" lon="4.8052">
        <ele>449.221</ele>
        <time>2015-05-23T06:51:57Z</time>
      </trkpt>
      <trkpt lat="45.83158" lon="4.80477">
        <ele>451.723</ele>
        <time>2015-05-23T06:52:18Z</time>
      </trkpt>
      <trkpt lat="45.83164" lon="4.80468">
        <ele>453.085</ele>
        <time>2015-05-23T06:52:22Z</time>
      </trkpt>
      <trkpt lat="45.83174" lon="4.80455">
        <ele>454.319</ele>
        <time>2015-05-23T06:52:30Z</time>
      </trkpt>
      <trkpt lat="45.8319" lon="4.80434">
        <ele>457.008</ele>
        <time>2015-05-23T06:52:44Z</time>
      </trkpt>
      <trkpt lat="45.83209" lon="4.80409">
        <ele>460.618</ele>
        <time>2015-05-23T06:52:59Z</time>
      </trkpt>
      <trkpt lat="45.8323" lon="4.8038">
        <ele>463.642</ele>
        <time>2015-05-23T06:53:15Z</time>
      </trkpt>
      <trkpt lat="45.83237" lon="4.80358">
        <ele>466.694</ele>
        <time>2015-05-23T06:53:27Z</time>
      </trkpt>
      <trkpt lat="45.83241" lon="4.80346">
        <ele>467.778</ele>
        <time>2015-05-23T06:53:34Z</time>
      </trkpt>
      <trkpt lat="45.83242" lon="4.80342">
        <ele>468.642</ele>
        <time>2015-05-23T06:53:39Z</time>
      </trkpt>
      <trkpt lat="45.83248" lon="4.80322">
        <ele>472.223</ele>
        <time>2015-05-23T06:53:54Z</time>
      </trkpt>
      <trkpt lat="45.83255" lon="4.8029">
        <ele>472.42</ele>
        <time>2015-05-23T06:53:59Z</time>
      </trkpt>
      <trkpt lat="45.8325" lon="4.80288">
        <ele>473.099</ele>
        <time>2015-05-23T06:54:03Z</time>
      </trkpt>
      <trkpt lat="45.83218" lon="4.80278">
        <ele>475.464</ele>
        <time>2015-05-23T06:54:23Z</time>
      </trkpt>
      <trkpt lat="45.83186" lon="4.80273">
        <ele>478.56</ele>
        <time>2015-05-23T06:54:41Z</time>
      </trkpt>
      <trkpt lat="45.83166" lon="4.80275">
        <ele>481.583</ele>
        <time>2015-05-23T06:54:54Z</time>
      </trkpt>
      <trkpt lat="45.83154" lon="4.80277">
        <ele>483.366</ele>
        <time>2015-05-23T06:55:02Z</time>
      </trkpt>
      <trkpt lat="45.83119" lon="4.80286">
        <ele>486.652</ele>
        <time>2015-05-23T06:55:16Z</time>
      </trkpt>
      <trkpt lat="45.83117" lon="4.80286">
        <ele>486.662</ele>
        <time>2015-05-23T06:55:17Z</time>
      </trkpt>
      <trkpt lat="45.83102" lon="4.80281">
        <ele>486.834</ele>
        <time>2015-05-23T06:55:19Z</time>
      </trkpt>
      <trkpt lat="45.83089" lon="4.80239">
        <ele>490.274</ele>
        <time>2015-05-23T06:55:34Z</time>
      </trkpt>
      <trkpt lat="45.83115" lon="4.80207">
        <ele>493.558</ele>
        <time>2015-05-23T06:55:48Z</time>
      </trkpt>
      <trkpt lat="45.83145" lon="4.8019">
        <ele>496.639</ele>
        <time>2015-05-23T06:56:04Z</time>
      </trkpt>
      <trkpt lat="45.83178" lon="4.80158">
        <ele>498.455</ele>
        <time>2015-05-23T06:56:25Z</time>
      </trkpt>
      <trkpt lat="45.83185" lon="4.80147">
        <ele>500.244</ele>
        <time>2015-05-23T06:56:31Z</time>
      </trkpt>
      <trkpt lat="45.83189" lon="4.80139">
        <ele>501.047</ele>
        <time>2015-05-23T06:56:36Z</time>
      </trkpt>
      <trkpt lat="45.83209" lon="4.80094">
        <ele>502.976</ele>
        <time>2015-05-23T06:56:52Z</time>
      </trkpt>
      <trkpt lat="45.83238" lon="4.80041">
        <ele>505.303</ele>
        <time>2015-05-23T06:57:09Z</time>
      </trkpt>
      <trkpt lat="45.83269" lon="4.80009">
        <ele>508.383</ele>
        <time>2015-05-23T06:57:27Z</time>
      </trkpt>
      <trkpt lat="45.83318" lon="4.79989">
        <ele>511.247</ele>
        <time>2015-05-23T06:57:36Z</time>
      </trkpt>
      <trkpt lat="45.83376" lon="4.79969">
        <ele>514.944</ele>
        <time>2015-05-23T06:57:57Z</time>
      </trkpt>
      <trkpt lat="45.83366" lon="4.79952">
        <ele>514.32</ele>
        <time>2015-05-23T06:58:04Z</time>
      </trkpt>
      <trkpt lat="45.83327" lon="4.79986">
        <ele>512.695</ele>
        <time>2015-05-23T06:58:14Z</time>
      </trkpt>
      <trkpt lat="45.83308" lon="4.79991">
        <ele>512.982</ele>
        <time>2015-05-23T06:58:19Z</time>
      </trkpt>
      <trkpt lat="45.83295" lon="4.79995">
        <ele>512.335</ele>
        <time>2015-05-23T06:58:24Z</time>
      </trkpt>
      <trkpt lat="45.83291" lon="4.79996">
        <ele>512.018</ele>
        <time>2015-05-23T06:58:27Z</time>
      </trkpt>
      <trkpt lat="45.83269" lon="4.80009">
        <ele>511.155</ele>
        <time>2015-05-23T06:58:37Z</time>
      </trkpt>
      <trkpt lat="45.83256" lon="4.80001">
        <ele>510.357</ele>
        <time>2015-05-23T06:58:41Z</time>
      </trkpt>
      <trkpt lat="45.83244" lon="4.80012">
        <ele>510.394</ele>
        <time>2015-05-23T06:58:46Z</time>
      </trkpt>
      <trkpt lat="45.83231" lon="4.80028">
        <ele>509.594</ele>
        <time>2015-05-23T06:58:52Z</time>
      </trkpt>
      <trkpt lat="45.83228" lon="4.80032">
        <ele>510.004</ele>
        <time>2015-05-23T06:58:57Z</time>
      </trkpt>
      <trkpt lat="45.83219" lon="4.8003">
        <ele>513.384</ele>
        <time>2015-05-23T06:59:09Z</time>
      </trkpt>
      <trkpt lat="45.83219" lon="4.8003">
        <ele>515.078</ele>
        <time>2015-05-23T06:59:25Z</time>
      </trkpt>
      <trkpt lat="45.83219" lon="4.8003">
        <ele>515.627</ele>
        <time>2015-05-23T06:59:48Z</time>
      </trkpt>
      <trkpt lat="45.83203" lon="4.79993">
        <ele>518.301</ele>
        <time>2015-05-23T07:00:00Z</time>
      </trkpt>
      <trkpt lat="45.83199" lon="4.79987">
        <ele>519.706</ele>
        <time>2015-05-23T07:00:04Z</time>
      </trkpt>
      <trkpt lat="45.83199" lon="4.79987">
        <ele>521.829</ele>
        <time>2015-05-23T07:00:16Z</time>
      </trkpt>
      <trkpt lat="45.83184" lon="4.7996">
        <ele>524.736</ele>
        <time>2015-05-23T07:00:32Z</time>
      </trkpt>
      <trkpt lat="45.83184" lon="4.7996">
        <ele>526.805</ele>
        <time>2015-05-23T07:00:48Z</time>
      </trkpt>
      <trkpt lat="45.83184" lon="4.7996">
        <ele>528.57</ele>
        <time>2015-05-23T07:00:55Z</time>
      </trkpt>
      <trkpt lat="45.83184" lon="4.7996">
        <ele>529.628</ele>
        <time>2015-05-23T07:00:59Z</time>
      </trkpt>
      <trkpt lat="45.83168" lon="4.79938">
        <ele>531.068</ele>
        <time>2015-05-23T07:01:07Z</time>
      </trkpt>
      <trkpt lat="45.83166" lon="4.79934">
        <ele>534.07</ele>
        <time>2015-05-23T07:01:20Z</time>
      </trkpt>
      <trkpt lat="45.83166" lon="4.79934">
        <ele>537.422</ele>
        <time>2015-05-23T07:01:38Z</time>
      </trkpt>
      <trkpt lat="45.83166" lon="4.79934">
        <ele>537.661</ele>
        <time>2015-05-23T07:01:40Z</time>
      </trkpt>
      <trkpt lat="45.83142" lon="4.7993">
        <ele>540.834</ele>
        <time>2015-05-23T07:01:52Z</time>
      </trkpt>
      <trkpt lat="45.83142" lon="4.7993">
        <ele>542.027</ele>
        <time>2015-05-23T07:02:04Z</time>
      </trkpt>
      <trkpt lat="45.83118" lon="4.79928">
        <ele>543.09</ele>
        <time>2015-05-23T07:02:29Z</time>
      </trkpt>
      <trkpt lat="45.83111" lon="4.79928">
        <ele>543.782</ele>
        <time>2015-05-23T07:02:33Z</time>
      </trkpt>
      <trkpt lat="45.83079" lon="4.79932">
        <ele>543.619</ele>
        <time>2015-05-23T07:02:48Z</time>
      </trkpt>
      <trkpt lat="45.83051" lon="4.7994">
        <ele>544.142</ele>
        <time>2015-05-23T07:02:57Z</time>
      </trkpt>
      <trkpt lat="45.83024" lon="4.79947">
        <ele>543.13</ele>
        <time>2015-05-23T07:03:09Z</time>
      </trkpt>
      <trkpt lat="45.83024" lon="4.79947">
        <ele>543.405</ele>
        <time>2015-05-23T07:03:29Z</time>
      </trkpt>
      <trkpt lat="45.83024" lon="4.79947">
        <ele>541.401</ele>
        <time>2015-05-23T07:03:32Z</time>
      </trkpt>
      <trkpt lat="45.83024" lon="4.79947">
        <ele>546.634</ele>
        <time>2015-05-23T07:03:33Z</time>
      </trkpt>
      <trkpt lat="45.83024" lon="4.79947">
        <ele>546.629</ele>
        <time>2015-05-23T07:03:34Z</time>
      </trkpt>
      <trkpt lat="45.83024" lon="4.79947">
        <ele>543.253</ele>
        <time>2015-05-23T07:03:35Z</time>
      </trkpt>
      <trkpt lat="45.83024" lon="4.79947">
        <ele>542.643</ele>
        <time>2015-05-23T07:03:37Z</time>
      </trkpt>
      <trkpt lat="45.83024" lon="4.79947">
        <ele>542.578</ele>
        <time>2015-05-23T07:06:08Z</time>
      </trkpt>
      <trkpt lat="45.83024" lon="4.79947">
        <ele>544.044</ele>
        <time>2015-05-23T07:06:32Z</time>
      </trkpt>
      <trkpt lat="45.83024" lon="4.79947">
        <ele>543.127</ele>
        <time>2015-05-23T07:06:57Z</time>
      </trkpt>
      <trkpt lat="45.82984" lon="4.79969">
        <ele>540.571</ele>
        <time>2015-05-23T07:07:05Z</time>
      </trkpt>
      <trkpt lat="45.82967" lon="4.79981">
        <ele>539.66</ele>
        <time>2015-05-23T07:07:08Z</time>
      </trkpt>
      <trkpt lat="45.82955" lon="4.7999">
        <ele>538.737</ele>
        <time>2015-05-23T07:07:10Z</time>
      </trkpt>
      <trkpt lat="45.82928" lon="4.80012">
        <ele>535.475</ele>
        <time>2015-05-23T07:07:15Z</time>
      </trkpt>
      <trkpt lat="45.82915" lon="4.80022">
        <ele>534.643</ele>
        <time>2015-05-23T07:07:17Z</time>
      </trkpt>
      <trkpt lat="45.82902" lon="4.80034">
        <ele>532.992</ele>
        <time>2015-05-23T07:07:19Z</time>
      </trkpt>
      <trkpt lat="45.82881" lon="4.80058">
        <ele>530.95</ele>
        <time>2015-05-23T07:07:22Z</time>
      </trkpt>
      <trkpt lat="45.82868" lon="4.80073">
        <ele>528.697</ele>
        <time>2015-05-23T07:07:24Z</time>
      </trkpt>
      <trkpt lat="45.82855" lon="4.80097">
        <ele>527.253</ele>
        <time>2015-05-23T07:07:26Z</time>
      </trkpt>
      <trkpt lat="45.8285" lon="4.80118">
        <ele>524.749</ele>
        <time>2015-05-23T07:07:28Z</time>
      </trkpt>
      <trkpt lat="45.82842" lon="4.80126">
        <ele>521.652</ele>
        <time>2015-05-23T07:07:29Z</time>
      </trkpt>
      <trkpt lat="45.82834" lon="4.80132">
        <ele>518.472</ele>
        <time>2015-05-23T07:07:31Z</time>
      </trkpt>
      <trkpt lat="45.82832" lon="4.80133">
        <ele>515.839</ele>
        <time>2015-05-23T07:07:33Z</time>
      </trkpt>
      <trkpt lat="45.82832" lon="4.80133">
        <ele>514.564</ele>
        <time>2015-05-23T07:07:35Z</time>
      </trkpt>
      <trkpt lat="45.82832" lon="4.80133">
        <ele>514.522</ele>
        <time>2015-05-23T07:07:42Z</time>
      </trkpt>
      <trkpt lat="45.82814" lon="4.80137">
        <ele>513.521</ele>
        <time>2015-05-23T07:07:47Z</time>
      </trkpt>
      <trkpt lat="45.82798" lon="4.80132">
        <ele>512.313</ele>
        <time>2015-05-23T07:07:50Z</time>
      </trkpt>
      <trkpt lat="45.82771" lon="4.80138">
        <ele>510.39</ele>
        <time>2015-05-23T07:07:54Z</time>
      </trkpt>
      <trkpt lat="45.82756" lon="4.80151">
        <ele>508.917</ele>
        <time>2015-05-23T07:07:56Z</time>
      </trkpt>
      <trkpt lat="45.82743" lon="4.80159">
        <ele>504.677</ele>
        <time>2015-05-23T07:07:58Z</time>
      </trkpt>
      <trkpt lat="45.82736" lon="4.80162">
        <ele>501.282</ele>
        <time>2015-05-23T07:07:59Z</time>
      </trkpt>
      <trkpt lat="45.82722" lon="4.80169">
        <ele>499.152</ele>
        <time>2015-05-23T07:08:01Z</time>
      </trkpt>
      <trkpt lat="45.82708" lon="4.80182">
        <ele>496.782</ele>
        <time>2015-05-23T07:08:03Z</time>
      </trkpt>
      <trkpt lat="45.82704" lon="4.80186">
        <ele>493.298</ele>
        <time>2015-05-23T07:08:04Z</time>
      </trkpt>
      <trkpt lat="45.82694" lon="4.80193">
        <ele>489.213</ele>
        <time>2015-05-23T07:08:06Z</time>
      </trkpt>
      <trkpt lat="45.82684" lon="4.80199">
        <ele>487.55</ele>
        <time>2015-05-23T07:08:08Z</time>
      </trkpt>
      <trkpt lat="45.82679" lon="4.80202">
        <ele>486.498</ele>
        <time>2015-05-23T07:08:09Z</time>
      </trkpt>
      <trkpt lat="45.82661" lon="4.80214">
        <ele>484.077</ele>
        <time>2015-05-23T07:08:12Z</time>
      </trkpt>
      <trkpt lat="45.82646" lon="4.80224">
        <ele>480.355</ele>
        <time>2015-05-23T07:08:14Z</time>
      </trkpt>
      <trkpt lat="45.82633" lon="4.80239">
        <ele>476.988</ele>
        <time>2015-05-23T07:08:16Z</time>
      </trkpt>
      <trkpt lat="45.82627" lon="4.80245">
        <ele>476.991</ele>
        <time>2015-05-23T07:08:17Z</time>
      </trkpt>
      <trkpt lat="45.82616" lon="4.80256">
        <ele>475.095</ele>
        <time>2015-05-23T07:08:19Z</time>
      </trkpt>
      <trkpt lat="45.82612" lon="4.8026">
        <ele>471.505</ele>
        <time>2015-05-23T07:08:20Z</time>
      </trkpt>
      <trkpt lat="45.82601" lon="4.80269">
        <ele>469.749</ele>
        <time>2015-05-23T07:08:22Z</time>
      </trkpt>
      <trkpt lat="45.82592" lon="4.80277">
        <ele>468.422</ele>
        <time>2015-05-23T07:08:23Z</time>
      </trkpt>
      <trkpt lat="45.82578" lon="4.80293">
        <ele>466.127</ele>
        <time>2015-05-23T07:08:26Z</time>
      </trkpt>
      <trkpt lat="45.82576" lon="4.80295">
        <ele>463.537</ele>
        <time>2015-05-23T07:08:28Z</time>
      </trkpt>
      <trkpt lat="45.82576" lon="4.80295">
        <ele>462.062</ele>
        <time>2015-05-23T07:08:30Z</time>
      </trkpt>
      <trkpt lat="45.82576" lon="4.80295">
        <ele>461.199</ele>
        <time>2015-05-23T07:08:54Z</time>
      </trkpt>
      <trkpt lat="45.8256" lon="4.80315">
        <ele>460.293</ele>
        <time>2015-05-23T07:09:00Z</time>
      </trkpt>
      <trkpt lat="45.82542" lon="4.80347">
        <ele>457.169</ele>
        <time>2015-05-23T07:09:04Z</time>
      </trkpt>
      <trkpt lat="45.82535" lon="4.80358">
        <ele>455.707</ele>
        <time>2015-05-23T07:09:06Z</time>
      </trkpt>
      <trkpt lat="45.82525" lon="4.80367">
        <ele>452.782</ele>
        <time>2015-05-23T07:09:08Z</time>
      </trkpt>
      <trkpt lat="45.82518" lon="4.80372">
        <ele>450.543</ele>
        <time>2015-05-23T07:09:09Z</time>
      </trkpt>
      <trkpt lat="45.8249" lon="4.80384">
        <ele>448.675</ele>
        <time>2015-05-23T07:09:12Z</time>
      </trkpt>
      <trkpt lat="45.82474" lon="4.80391">
        <ele>443.427</ele>
        <time>2015-05-23T07:09:14Z</time>
      </trkpt>
      <trkpt lat="45.82464" lon="4.80399">
        <ele>443.429</ele>
        <time>2015-05-23T07:09:15Z</time>
      </trkpt>
      <trkpt lat="45.8245" lon="4.80413">
        <ele>441.788</ele>
        <time>2015-05-23T07:09:17Z</time>
      </trkpt>
      <trkpt lat="45.82445" lon="4.80414">
        <ele>439.106</ele>
        <time>2015-05-23T07:09:19Z</time>
      </trkpt>
      <trkpt lat="45.82433" lon="4.8041">
        <ele>435.217</ele>
        <time>2015-05-23T07:09:22Z</time>
      </trkpt>
      <trkpt lat="45.82421" lon="4.80406">
        <ele>434.338</ele>
        <time>2015-05-23T07:09:24Z</time>
      </trkpt>
      <trkpt lat="45.82392" lon="4.80436">
        <ele>427.775</ele>
        <time>2015-05-23T07:09:28Z</time>
      </trkpt>
      <trkpt lat="45.82392" lon="4.80436">
        <ele>427.778</ele>
        <time>2015-05-23T07:09:29Z</time>
      </trkpt>
      <trkpt lat="45.82392" lon="4.80436">
        <ele>428.235</ele>
        <time>2015-05-23T07:09:43Z</time>
      </trkpt>
      <trkpt lat="45.82392" lon="4.80436">
        <ele>426.739</ele>
        <time>2015-05-23T07:09:45Z</time>
      </trkpt>
      <trkpt lat="45.82392" lon="4.80436">
        <ele>427.664</ele>
        <time>2015-05-23T07:09:51Z</time>
      </trkpt>
      <trkpt lat="45.82396" lon="4.80418">
        <ele>429.936</ele>
        <time>2015-05-23T07:10:02Z</time>
      </trkpt>
      <trkpt lat="45.82401" lon="4.80396">
        <ele>431.609</ele>
        <time>2015-05-23T07:10:14Z</time>
      </trkpt>
      <trkpt lat="45.82402" lon="4.80391">
        <ele>431.758</ele>
        <time>2015-05-23T07:10:17Z</time>
      </trkpt>
      <trkpt lat="45.82372" lon="4.80396">
        <ele>430.164</ele>
        <time>2015-05-23T07:10:22Z</time>
      </trkpt>
      <trkpt lat="45.8236" lon="4.804">
        <ele>428.191</ele>
        <time>2015-05-23T07:10:24Z</time>
      </trkpt>
      <trkpt lat="45.82338" lon="4.80407">
        <ele>425.901</ele>
        <time>2015-05-23T07:10:27Z</time>
      </trkpt>
      <trkpt lat="45.82329" lon="4.80409">
        <ele>423.39</ele>
        <time>2015-05-23T07:10:28Z</time>
      </trkpt>
      <trkpt lat="45.82302" lon="4.80424">
        <ele>420.904</ele>
        <time>2015-05-23T07:10:31Z</time>
      </trkpt>
      <trkpt lat="45.82282" lon="4.80435">
        <ele>416.32</ele>
        <time>2015-05-23T07:10:33Z</time>
      </trkpt>
      <trkpt lat="45.8227" lon="4.80439">
        <ele>416.314</ele>
        <time>2015-05-23T07:10:34Z</time>
      </trkpt>
      <trkpt lat="45.82247" lon="4.80445">
        <ele>413.726</ele>
        <time>2015-05-23T07:10:36Z</time>
      </trkpt>
      <trkpt lat="45.82234" lon="4.80447">
        <ele>409.877</ele>
        <time>2015-05-23T07:10:37Z</time>
      </trkpt>
      <trkpt lat="45.8221" lon="4.80448">
        <ele>406.743</ele>
        <time>2015-05-23T07:10:39Z</time>
      </trkpt>
      <trkpt lat="45.82198" lon="4.80449">
        <ele>406.736</ele>
        <time>2015-05-23T07:10:40Z</time>
      </trkpt>
      <trkpt lat="45.82175" lon="4.80449">
        <ele>402.841</ele>
        <time>2015-05-23T07:10:42Z</time>
      </trkpt>
      <trkpt lat="45.82163" lon="4.8045">
        <ele>402.835</ele>
        <time>2015-05-23T07:10:43Z</time>
      </trkpt>
      <trkpt lat="45.82142" lon="4.80452">
        <ele>401.201</ele>
        <time>2015-05-23T07:10:45Z</time>
      </trkpt>
      <trkpt lat="45.82123" lon="4.80454">
        <ele>399.285</ele>
        <time>2015-05-23T07:10:47Z</time>
      </trkpt>
      <trkpt lat="45.82114" lon="4.80455">
        <ele>393.037</ele>
        <time>2015-05-23T07:10:50Z</time>
      </trkpt>
      <trkpt lat="45.82114" lon="4.80455">
        <ele>392.037</ele>
        <time>2015-05-23T07:11:02Z</time>
      </trkpt>
      <trkpt lat="45.82114" lon="4.80455">
        <ele>391.663</ele>
        <time>2015-05-23T07:11:07Z</time>
      </trkpt>
      <trkpt lat="45.82122" lon="4.80434">
        <ele>390.837</ele>
        <time>2015-05-23T07:11:11Z</time>
      </trkpt>
      <trkpt lat="45.82141" lon="4.80409">
        <ele>390.115</ele>
        <time>2015-05-23T07:11:15Z</time>
      </trkpt>
      <trkpt lat="45.82153" lon="4.80395">
        <ele>387.787</ele>
        <time>2015-05-23T07:11:17Z</time>
      </trkpt>
      <trkpt lat="45.82173" lon="4.80377">
        <ele>385.015</ele>
        <time>2015-05-23T07:11:20Z</time>
      </trkpt>
      <trkpt lat="45.82185" lon="4.80367">
        <ele>384.088</ele>
        <time>2015-05-23T07:11:22Z</time>
      </trkpt>
      <trkpt lat="45.82237" lon="4.80345">
        <ele>383.414</ele>
        <time>2015-05-23T07:11:33Z</time>
      </trkpt>
      <trkpt lat="45.82271" lon="4.80328">
        <ele>384.991</ele>
        <time>2015-05-23T07:11:50Z</time>
      </trkpt>
      <trkpt lat="45.82291" lon="4.80316">
        <ele>388.02</ele>
        <time>2015-05-23T07:12:00Z</time>
      </trkpt>
      <trkpt lat="45.82316" lon="4.80284">
        <ele>389.241</ele>
        <time>2015-05-23T07:12:14Z</time>
      </trkpt>
      <trkpt lat="45.82348" lon="4.80202">
        <ele>387.073</ele>
        <time>2015-05-23T07:12:29Z</time>
      </trkpt>
      <trkpt lat="45.82369" lon="4.80148">
        <ele>386.132</ele>
        <time>2015-05-23T07:12:41Z</time>
      </trkpt>
      <trkpt lat="45.82398" lon="4.80081">
        <ele>389.214</ele>
        <time>2015-05-23T07:13:00Z</time>
      </trkpt>
      <trkpt lat="45.82427" lon="4.80021">
        <ele>392.478</ele>
        <time>2015-05-23T07:13:19Z</time>
      </trkpt>
      <trkpt lat="45.82441" lon="4.79989">
        <ele>395.71</ele>
        <time>2015-05-23T07:13:31Z</time>
      </trkpt>
      <trkpt lat="45.82457" lon="4.79945">
        <ele>399.555</ele>
        <time>2015-05-23T07:13:47Z</time>
      </trkpt>
      <trkpt lat="45.82467" lon="4.79931">
        <ele>401.521</ele>
        <time>2015-05-23T07:13:53Z</time>
      </trkpt>
      <trkpt lat="45.8249" lon="4.79897">
        <ele>404.521</ele>
        <time>2015-05-23T07:14:08Z</time>
      </trkpt>
      <trkpt lat="45.82498" lon="4.79883">
        <ele>404.898</ele>
        <time>2015-05-23T07:14:14Z</time>
      </trkpt>
      <trkpt lat="45.82498" lon="4.79878">
        <ele>405.739</ele>
        <time>2015-05-23T07:14:18Z</time>
      </trkpt>
      <trkpt lat="45.82484" lon="4.79852">
        <ele>402.373</ele>
        <time>2015-05-23T07:14:31Z</time>
      </trkpt>
      <trkpt lat="45.82477" lon="4.79837">
        <ele>402.359</ele>
        <time>2015-05-23T07:14:36Z</time>
      </trkpt>
      <trkpt lat="45.82463" lon="4.79811">
        <ele>399.962</ele>
        <time>2015-05-23T07:14:41Z</time>
      </trkpt>
      <trkpt lat="45.82461" lon="4.79808">
        <ele>397.717</ele>
        <time>2015-05-23T07:14:43Z</time>
      </trkpt>
      <trkpt lat="45.82467" lon="4.79796">
        <ele>397.71</ele>
        <time>2015-05-23T07:14:45Z</time>
      </trkpt>
      <trkpt lat="45.82493" lon="4.79772">
        <ele>400.478</ele>
        <time>2015-05-23T07:14:58Z</time>
      </trkpt>
      <trkpt lat="45.82517" lon="4.79758">
        <ele>403.497</ele>
        <time>2015-05-23T07:15:10Z</time>
      </trkpt>
      <trkpt lat="45.82551" lon="4.79746">
        <ele>406.681</ele>
        <time>2015-05-23T07:15:26Z</time>
      </trkpt>
      <trkpt lat="45.82582" lon="4.79731">
        <ele>410.558</ele>
        <time>2015-05-23T07:15:43Z</time>
      </trkpt>
      <trkpt lat="45.82608" lon="4.79715">
        <ele>414.23</ele>
        <time>2015-05-23T07:15:57Z</time>
      </trkpt>
      <trkpt lat="45.8261" lon="4.79714">
        <ele>414.224</ele>
        <time>2015-05-23T07:15:58Z</time>
      </trkpt>
      <trkpt lat="45.82634" lon="4.79697">
        <ele>418.076</ele>
        <time>2015-05-23T07:16:11Z</time>
      </trkpt>
      <trkpt lat="45.82654" lon="4.79685">
        <ele>420.497</ele>
        <time>2015-05-23T07:16:21Z</time>
      </trkpt>
      <trkpt lat="45.82689" lon="4.79667">
        <ele>423.737</ele>
        <time>2015-05-23T07:16:38Z</time>
      </trkpt>
      <trkpt lat="45.82713" lon="4.79656">
        <ele>426.775</ele>
        <time>2015-05-23T07:16:50Z</time>
      </trkpt>
      <trkpt lat="45.82741" lon="4.79644">
        <ele>430.067</ele>
        <time>2015-05-23T07:17:03Z</time>
      </trkpt>
      <trkpt lat="45.82745" lon="4.79641">
        <ele>430.918</ele>
        <time>2015-05-23T07:17:05Z</time>
      </trkpt>
      <trkpt lat="45.82757" lon="4.79635">
        <ele>432.187</ele>
        <time>2015-05-23T07:17:11Z</time>
      </trkpt>
      <trkpt lat="45.82751" lon="4.79629">
        <ele>432.822</ele>
        <time>2015-05-23T07:17:16Z</time>
      </trkpt>
      <trkpt lat="45.82736" lon="4.79634">
        <ele>432.726</ele>
        <time>2015-05-23T07:17:22Z</time>
      </trkpt>
      <trkpt lat="45.8273" lon="4.79635">
        <ele>434.58</ele>
        <time>2015-05-23T07:17:34Z</time>
      </trkpt>
      <trkpt lat="45.8273" lon="4.79635">
        <ele>435.905</ele>
        <time>2015-05-23T07:17:48Z</time>
      </trkpt>
      <trkpt lat="45.8273" lon="4.79635">
        <ele>437.268</ele>
        <time>2015-05-23T07:17:59Z</time>
      </trkpt>
      <trkpt lat="45.82722" lon="4.79595">
        <ele>438.713</ele>
        <time>2015-05-23T07:18:03Z</time>
      </trkpt>
      <trkpt lat="45.8272" lon="4.79577">
        <ele>440.43</ele>
        <time>2015-05-23T07:18:10Z</time>
      </trkpt>
      <trkpt lat="45.82714" lon="4.79542">
        <ele>443.77</ele>
        <time>2015-05-23T07:18:27Z</time>
      </trkpt>
      <trkpt lat="45.82709" lon="4.79511">
        <ele>447.128</ele>
        <time>2015-05-23T07:18:43Z</time>
      </trkpt>
      <trkpt lat="45.82709" lon="4.79509">
        <ele>446.933</ele>
        <time>2015-05-23T07:18:58Z</time>
      </trkpt>
      <trkpt lat="45.82711" lon="4.79501">
        <ele>448.621</ele>
        <time>2015-05-23T07:19:01Z</time>
      </trkpt>
      <trkpt lat="45.82711" lon="4.79491">
        <ele>448.114</ele>
        <time>2015-05-23T07:19:06Z</time>
      </trkpt>
      <trkpt lat="45.82711" lon="4.79491">
        <ele>446.619</ele>
        <time>2015-05-23T07:19:08Z</time>
      </trkpt>
      <trkpt lat="45.82711" lon="4.79491">
        <ele>445.683</ele>
        <time>2015-05-23T07:19:10Z</time>
      </trkpt>
      <trkpt lat="45.82711" lon="4.79491">
        <ele>442.072</ele>
        <time>2015-05-23T07:19:16Z</time>
      </trkpt>
      <trkpt lat="45.82711" lon="4.79491">
        <ele>442.07</ele>
        <time>2015-05-23T07:19:17Z</time>
      </trkpt>
      <trkpt lat="45.8271" lon="4.7946">
        <ele>442.73</ele>
        <time>2015-05-23T07:19:34Z</time>
      </trkpt>
      <trkpt lat="45.82708" lon="4.7944">
        <ele>441.157</ele>
        <time>2015-05-23T07:19:37Z</time>
      </trkpt>
      <trkpt lat="45.82705" lon="4.79424">
        <ele>441.544</ele>
        <time>2015-05-23T07:19:42Z</time>
      </trkpt>
      <trkpt lat="45.82702" lon="4.7941">
        <ele>443.651</ele>
        <time>2015-05-23T07:19:49Z</time>
      </trkpt>
      <trkpt lat="45.82693" lon="4.79381">
        <ele>446.242</ele>
        <time>2015-05-23T07:20:02Z</time>
      </trkpt>
      <trkpt lat="45.82694" lon="4.79376">
        <ele>447.509</ele>
        <time>2015-05-23T07:20:15Z</time>
      </trkpt>
      <trkpt lat="45.82698" lon="4.79366">
        <ele>450.828</ele>
        <time>2015-05-23T07:20:28Z</time>
      </trkpt>
      <trkpt lat="45.82698" lon="4.79366">
        <ele>450.922</ele>
        <time>2015-05-23T07:20:33Z</time>
      </trkpt>
      <trkpt lat="45.82709" lon="4.79357">
        <ele>451.1</ele>
        <time>2015-05-23T07:20:38Z</time>
      </trkpt>
      <trkpt lat="45.82711" lon="4.79356">
        <ele>451.788</ele>
        <time>2015-05-23T07:20:40Z</time>
      </trkpt>
      <trkpt lat="45.82711" lon="4.79356">
        <ele>452.423</ele>
        <time>2015-05-23T07:20:44Z</time>
      </trkpt>
      <trkpt lat="45.82711" lon="4.79356">
        <ele>453.275</ele>
        <time>2015-05-23T07:20:49Z</time>
      </trkpt>
      <trkpt lat="45.82719" lon="4.79336">
        <ele>453.393</ele>
        <time>2015-05-23T07:20:54Z</time>
      </trkpt>
      <trkpt lat="45.8272" lon="4.79337">
        <ele>453.84</ele>
        <time>2015-05-23T07:20:58Z</time>
      </trkpt>
      <trkpt lat="45.82723" lon="4.7934">
        <ele>453.915</ele>
        <time>2015-05-23T07:21:03Z</time>
      </trkpt>
      <trkpt lat="45.82728" lon="4.79345">
        <ele>454.968</ele>
        <time>2015-05-23T07:21:07Z</time>
      </trkpt>
      <trkpt lat="45.82759" lon="4.79358">
        <ele>457.384</ele>
        <time>2015-05-23T07:21:27Z</time>
      </trkpt>
      <trkpt lat="45.82773" lon="4.79361">
        <ele>458.824</ele>
        <time>2015-05-23T07:21:35Z</time>
      </trkpt>
      <trkpt lat="45.82794" lon="4.79364">
        <ele>461.73</ele>
        <time>2015-05-23T07:21:47Z</time>
      </trkpt>
      <trkpt lat="45.82833" lon="4.79369">
        <ele>464.378</ele>
        <time>2015-05-23T07:22:08Z</time>
      </trkpt>
      <trkpt lat="45.82867" lon="4.79369">
        <ele>466.31</ele>
        <time>2015-05-23T07:22:22Z</time>
      </trkpt>
      <trkpt lat="45.82883" lon="4.79348">
        <ele>468.589</ele>
        <time>2015-05-23T07:22:33Z</time>
      </trkpt>
      <trkpt lat="45.82892" lon="4.79317">
        <ele>472.532</ele>
        <time>2015-05-23T07:22:48Z</time>
      </trkpt>
      <trkpt lat="45.82878" lon="4.79278">
        <ele>474.302</ele>
        <time>2015-05-23T07:23:03Z</time>
      </trkpt>
      <trkpt lat="45.82874" lon="4.79264">
        <ele>475.106</ele>
        <time>2015-05-23T07:23:08Z</time>
      </trkpt>
      <trkpt lat="45.82847" lon="4.79173">
        <ele>472.004</ele>
        <time>2015-05-23T07:23:23Z</time>
      </trkpt>
      <trkpt lat="45.82844" lon="4.79166">
        <ele>471.611</ele>
        <time>2015-05-23T07:23:24Z</time>
      </trkpt>
      <trkpt lat="45.82824" lon="4.79091">
        <ele>472.226</ele>
        <time>2015-05-23T07:23:37Z</time>
      </trkpt>
      <trkpt lat="45.82812" lon="4.79035">
        <ele>474.175</ele>
        <time>2015-05-23T07:23:51Z</time>
      </trkpt>
      <trkpt lat="45.82835" lon="4.79018">
        <ele>476.43</ele>
        <time>2015-05-23T07:24:02Z</time>
      </trkpt>
      <trkpt lat="45.82864" lon="4.79002">
        <ele>479.779</ele>
        <time>2015-05-23T07:24:17Z</time>
      </trkpt>
      <trkpt lat="45.82879" lon="4.78993">
        <ele>481.868</ele>
        <time>2015-05-23T07:24:25Z</time>
      </trkpt>
      <trkpt lat="45.82908" lon="4.78979">
        <ele>485.052</ele>
        <time>2015-05-23T07:24:40Z</time>
      </trkpt>
      <trkpt lat="45.8292" lon="4.78974">
        <ele>486.311</ele>
        <time>2015-05-23T07:24:47Z</time>
      </trkpt>
      <trkpt lat="45.82926" lon="4.78972">
        <ele>486.837</ele>
        <time>2015-05-23T07:24:51Z</time>
      </trkpt>
      <trkpt lat="45.82929" lon="4.78971">
        <ele>487.438</ele>
        <time>2015-05-23T07:24:53Z</time>
      </trkpt>
      <trkpt lat="45.8295" lon="4.7896">
        <ele>490.799</ele>
        <time>2015-05-23T07:25:08Z</time>
      </trkpt>
      <trkpt lat="45.82971" lon="4.78951">
        <ele>494.748</ele>
        <time>2015-05-23T07:25:24Z</time>
      </trkpt>
      <trkpt lat="45.82972" lon="4.7895">
        <ele>494.75</ele>
        <time>2015-05-23T07:25:25Z</time>
      </trkpt>
      <trkpt lat="45.82996" lon="4.78941">
        <ele>498.13</ele>
        <time>2015-05-23T07:25:44Z</time>
      </trkpt>
      <trkpt lat="45.83004" lon="4.78941">
        <ele>499.301</ele>
        <time>2015-05-23T07:25:50Z</time>
      </trkpt>
      <trkpt lat="45.83016" lon="4.78966">
        <ele>502.744</ele>
        <time>2015-05-23T07:26:06Z</time>
      </trkpt>
      <trkpt lat="45.83024" lon="4.78997">
        <ele>504.354</ele>
        <time>2015-05-23T07:26:21Z</time>
      </trkpt>
      <trkpt lat="45.83044" lon="4.78994">
        <ele>506.323</ele>
        <time>2015-05-23T07:26:34Z</time>
      </trkpt>
      <trkpt lat="45.83056" lon="4.78989">
        <ele>509.388</ele>
        <time>2015-05-23T07:26:45Z</time>
      </trkpt>
      <trkpt lat="45.83059" lon="4.78987">
        <ele>509.392</ele>
        <time>2015-05-23T07:26:46Z</time>
      </trkpt>
      <trkpt lat="45.83076" lon="4.78976">
        <ele>512.662</ele>
        <time>2015-05-23T07:26:59Z</time>
      </trkpt>
      <trkpt lat="45.83079" lon="4.78974">
        <ele>513.174</ele>
        <time>2015-05-23T07:27:01Z</time>
      </trkpt>
      <trkpt lat="45.83082" lon="4.78972">
        <ele>513.401</ele>
        <time>2015-05-23T07:27:04Z</time>
      </trkpt>
      <trkpt lat="45.83091" lon="4.78966">
        <ele>515.605</ele>
        <time>2015-05-23T07:27:11Z</time>
      </trkpt>
      <trkpt lat="45.83112" lon="4.78951">
        <ele>519.649</ele>
        <time>2015-05-23T07:27:26Z</time>
      </trkpt>
      <trkpt lat="45.83132" lon="4.78932">
        <ele>522.3</ele>
        <time>2015-05-23T07:27:41Z</time>
      </trkpt>
      <trkpt lat="45.83148" lon="4.78917">
        <ele>524.297</ele>
        <time>2015-05-23T07:27:55Z</time>
      </trkpt>
      <trkpt lat="45.8317" lon="4.78897">
        <ele>526.902</ele>
        <time>2015-05-23T07:28:15Z</time>
      </trkpt>
      <trkpt lat="45.83181" lon="4.78889">
        <ele>527.625</ele>
        <time>2015-05-23T07:28:25Z</time>
      </trkpt>
      <trkpt lat="45.83185" lon="4.78888">
        <ele>527.987</ele>
        <time>2015-05-23T07:28:28Z</time>
      </trkpt>
      <trkpt lat="45.83186" lon="4.78867">
        <ele>528.404</ele>
        <time>2015-05-23T07:28:32Z</time>
      </trkpt>
      <trkpt lat="45.83216" lon="4.78808">
        <ele>530.414</ele>
        <time>2015-05-23T07:28:49Z</time>
      </trkpt>
      <trkpt lat="45.83255" lon="4.78769">
        <ele>531.84</ele>
        <time>2015-05-23T07:29:06Z</time>
      </trkpt>
      <trkpt lat="45.83267" lon="4.78759">
        <ele>534.071</ele>
        <time>2015-05-23T07:29:14Z</time>
      </trkpt>
      <trkpt lat="45.83295" lon="4.78737">
        <ele>536.478</ele>
        <time>2015-05-23T07:29:30Z</time>
      </trkpt>
      <trkpt lat="45.83319" lon="4.78726">
        <ele>538.831</ele>
        <time>2015-05-23T07:29:43Z</time>
      </trkpt>
      <trkpt lat="45.83324" lon="4.78726">
        <ele>540.138</ele>
        <time>2015-05-23T07:29:46Z</time>
      </trkpt>
      <trkpt lat="45.83337" lon="4.78723">
        <ele>541.356</ele>
        <time>2015-05-23T07:29:55Z</time>
      </trkpt>
      <trkpt lat="45.83353" lon="4.78716">
        <ele>543.25</ele>
        <time>2015-05-23T07:30:06Z</time>
      </trkpt>
      <trkpt lat="45.83359" lon="4.78714">
        <ele>544.828</ele>
        <time>2015-05-23T07:30:10Z</time>
      </trkpt>
      <trkpt lat="45.83367" lon="4.78711">
        <ele>545.58</ele>
        <time>2015-05-23T07:30:15Z</time>
      </trkpt>
      <trkpt lat="45.83367" lon="4.78711">
        <ele>546.233</ele>
        <time>2015-05-23T07:30:17Z</time>
      </trkpt>
      <trkpt lat="45.83374" lon="4.7871">
        <ele>547.053</ele>
        <time>2015-05-23T07:30:21Z</time>
      </trkpt>
      <trkpt lat="45.8338" lon="4.78709">
        <ele>548.307</ele>
        <time>2015-05-23T07:30:25Z</time>
      </trkpt>
      <trkpt lat="45.83393" lon="4.78705">
        <ele>549.93</ele>
        <time>2015-05-23T07:30:30Z</time>
      </trkpt>
      <trkpt lat="45.83423" lon="4.78677">
        <ele>553.168</ele>
        <time>2015-05-23T07:30:50Z</time>
      </trkpt>
      <trkpt lat="45.8343" lon="4.78672">
        <ele>553.418</ele>
        <time>2015-05-23T07:30:53Z</time>
      </trkpt>
      <trkpt lat="45.83443" lon="4.78654">
        <ele>554.366</ele>
        <time>2015-05-23T07:31:04Z</time>
      </trkpt>
      <trkpt lat="45.83452" lon="4.78642">
        <ele>554.787</ele>
        <time>2015-05-23T07:31:10Z</time>
      </trkpt>
      <trkpt lat="45.8346" lon="4.78633">
        <ele>555.912</ele>
        <time>2015-05-23T07:31:16Z</time>
      </trkpt>
      <trkpt lat="45.83469" lon="4.78624">
        <ele>556.56</ele>
        <time>2015-05-23T07:31:21Z</time>
      </trkpt>
      <trkpt lat="45.83481" lon="4.78611">
        <ele>558.691</ele>
        <time>2015-05-23T07:31:30Z</time>
      </trkpt>
      <trkpt lat="45.83485" lon="4.78607">
        <ele>558.762</ele>
        <time>2015-05-23T07:31:33Z</time>
      </trkpt>
      <trkpt lat="45.83513" lon="4.78578">
        <ele>561.917</ele>
        <time>2015-05-23T07:31:49Z</time>
      </trkpt>
      <trkpt lat="45.83525" lon="4.78565">
        <ele>563.199</ele>
        <time>2015-05-23T07:31:56Z</time>
      </trkpt>
      <trkpt lat="45.83553" lon="4.78527">
        <ele>565.893</ele>
        <time>2015-05-23T07:32:10Z</time>
      </trkpt>
      <trkpt lat="45.83559" lon="4.78516">
        <ele>565.785</ele>
        <time>2015-05-23T07:32:13Z</time>
      </trkpt>
      <trkpt lat="45.8358" lon="4.78476">
        <ele>565.406</ele>
        <time>2015-05-23T07:32:24Z</time>
      </trkpt>
      <trkpt lat="45.83592" lon="4.78457">
        <ele>565.253</ele>
        <time>2015-05-23T07:32:28Z</time>
      </trkpt>
      <trkpt lat="45.83629" lon="4.78413">
        <ele>563.49</ele>
        <time>2015-05-23T07:32:35Z</time>
      </trkpt>
      <trkpt lat="45.83672" lon="4.78385">
        <ele>560.066</ele>
        <time>2015-05-23T07:32:42Z</time>
      </trkpt>
      <trkpt lat="45.83684" lon="4.78384">
        <ele>559.084</ele>
        <time>2015-05-23T07:32:44Z</time>
      </trkpt>
      <trkpt lat="45.83702" lon="4.78388">
        <ele>558.548</ele>
        <time>2015-05-23T07:32:47Z</time>
      </trkpt>
      <trkpt lat="45.83712" lon="4.7839">
        <ele>556.753</ele>
        <time>2015-05-23T07:32:49Z</time>
      </trkpt>
      <trkpt lat="45.83739" lon="4.78396">
        <ele>556.191</ele>
        <time>2015-05-23T07:32:54Z</time>
      </trkpt>
      <trkpt lat="45.83755" lon="4.784">
        <ele>556.576</ele>
        <time>2015-05-23T07:32:58Z</time>
      </trkpt>
      <trkpt lat="45.83801" lon="4.78401">
        <ele>555.878</ele>
        <time>2015-05-23T07:33:06Z</time>
      </trkpt>
      <trkpt lat="45.83831" lon="4.78392">
        <ele>558.512</ele>
        <time>2015-05-23T07:33:13Z</time>
      </trkpt>
      <trkpt lat="45.83834" lon="4.78392">
        <ele>559.285</ele>
        <time>2015-05-23T07:33:14Z</time>
      </trkpt>
      <trkpt lat="45.83878" lon="4.78389">
        <ele>559.39</ele>
        <time>2015-05-23T07:33:24Z</time>
      </trkpt>
      <trkpt lat="45.83898" lon="4.784">
        <ele>559.091</ele>
        <time>2015-05-23T07:33:32Z</time>
      </trkpt>
      <trkpt lat="45.83944" lon="4.78406">
        <ele>562.291</ele>
        <time>2015-05-23T07:33:41Z</time>
      </trkpt>
      <trkpt lat="45.83961" lon="4.78403">
        <ele>560.838</ele>
        <time>2015-05-23T07:33:49Z</time>
      </trkpt>
      <trkpt lat="45.83981" lon="4.78403">
        <ele>560.256</ele>
        <time>2015-05-23T07:33:53Z</time>
      </trkpt>
      <trkpt lat="45.84003" lon="4.78403">
        <ele>559.047</ele>
        <time>2015-05-23T07:33:58Z</time>
      </trkpt>
      <trkpt lat="45.84035" lon="4.7841">
        <ele>557.21</ele>
        <time>2015-05-23T07:34:07Z</time>
      </trkpt>
      <trkpt lat="45.84077" lon="4.78424">
        <ele>557.815</ele>
        <time>2015-05-23T07:34:16Z</time>
      </trkpt>
      <trkpt lat="45.8408" lon="4.78424">
        <ele>557.825</ele>
        <time>2015-05-23T07:34:17Z</time>
      </trkpt>
      <trkpt lat="45.84088" lon="4.78424">
        <ele>559.422</ele>
        <time>2015-05-23T07:34:20Z</time>
      </trkpt>
      <trkpt lat="45.84119" lon="4.78412">
        <ele>558.866</ele>
        <time>2015-05-23T07:34:28Z</time>
      </trkpt>
      <trkpt lat="45.84144" lon="4.78365">
        <ele>560.025</ele>
        <time>2015-05-23T07:34:38Z</time>
      </trkpt>
      <trkpt lat="45.84153" lon="4.78363">
        <ele>558.919</ele>
        <time>2015-05-23T07:34:41Z</time>
      </trkpt>
      <trkpt lat="45.84182" lon="4.78323">
        <ele>556.189</ele>
        <time>2015-05-23T07:34:48Z</time>
      </trkpt>
      <trkpt lat="45.84196" lon="4.78287">
        <ele>557.917</ele>
        <time>2015-05-23T07:35:00Z</time>
      </trkpt>
      <trkpt lat="45.84205" lon="4.78273">
        <ele>559.085</ele>
        <time>2015-05-23T07:35:08Z</time>
      </trkpt>
      <trkpt lat="45.84219" lon="4.78267">
        <ele>559.364</ele>
        <time>2015-05-23T07:35:12Z</time>
      </trkpt>
      <trkpt lat="45.84273" lon="4.78256">
        <ele>562.301</ele>
        <time>2015-05-23T07:35:34Z</time>
      </trkpt>
      <trkpt lat="45.84319" lon="4.78245">
        <ele>565.308</ele>
        <time>2015-05-23T07:35:54Z</time>
      </trkpt>
      <trkpt lat="45.84337" lon="4.78239">
        <ele>567.185</ele>
        <time>2015-05-23T07:36:02Z</time>
      </trkpt>
      <trkpt lat="45.84394" lon="4.78234">
        <ele>570.431</ele>
        <time>2015-05-23T07:36:24Z</time>
      </trkpt>
      <trkpt lat="45.84413" lon="4.78242">
        <ele>572.447</ele>
        <time>2015-05-23T07:36:32Z</time>
      </trkpt>
      <trkpt lat="45.84448" lon="4.78253">
        <ele>575.88</ele>
        <time>2015-05-23T07:36:49Z</time>
      </trkpt>
      <trkpt lat="45.84462" lon="4.78255">
        <ele>577.333</ele>
        <time>2015-05-23T07:36:57Z</time>
      </trkpt>
      <trkpt lat="45.84513" lon="4.78263">
        <ele>580.38</ele>
        <time>2015-05-23T07:37:17Z</time>
      </trkpt>
      <trkpt lat="45.84553" lon="4.78265">
        <ele>582.889</ele>
        <time>2015-05-23T07:37:34Z</time>
      </trkpt>
      <trkpt lat="45.84595" lon="4.78261">
        <ele>586.018</ele>
        <time>2015-05-23T07:37:52Z</time>
      </trkpt>
      <trkpt lat="45.84625" lon="4.78223">
        <ele>588.303</ele>
        <time>2015-05-23T07:38:11Z</time>
      </trkpt>
      <trkpt lat="45.84644" lon="4.7817">
        <ele>591.633</ele>
        <time>2015-05-23T07:38:29Z</time>
      </trkpt>
      <trkpt lat="45.84656" lon="4.78112">
        <ele>594.958</ele>
        <time>2015-05-23T07:38:47Z</time>
      </trkpt>
      <trkpt lat="45.84671" lon="4.78041">
        <ele>598.009</ele>
        <time>2015-05-23T07:39:08Z</time>
      </trkpt>
      <trkpt lat="45.84672" lon="4.78038">
        <ele>598.568</ele>
        <time>2015-05-23T07:39:21Z</time>
      </trkpt>
      <trkpt lat="45.84672" lon="4.78038">
        <ele>597.625</ele>
        <time>2015-05-23T07:39:30Z</time>
      </trkpt>
      <trkpt lat="45.84674" lon="4.78027">
        <ele>598.778</ele>
        <time>2015-05-23T07:39:34Z</time>
      </trkpt>
      <trkpt lat="45.84674" lon="4.78025">
        <ele>599.33</ele>
        <time>2015-05-23T07:39:41Z</time>
      </trkpt>
      <trkpt lat="45.84684" lon="4.78017">
        <ele>599.603</ele>
        <time>2015-05-23T07:39:43Z</time>
      </trkpt>
      <trkpt lat="45.84682" lon="4.78014">
        <ele>598.882</ele>
        <time>2015-05-23T07:39:46Z</time>
      </trkpt>
      <trkpt lat="45.84678" lon="4.78005">
        <ele>599.126</ele>
        <time>2015-05-23T07:40:00Z</time>
      </trkpt>
      <trkpt lat="45.84678" lon="4.78005">
        <ele>597.462</ele>
        <time>2015-05-23T07:40:11Z</time>
      </trkpt>
      <trkpt lat="45.84678" lon="4.78005">
        <ele>597.305</ele>
        <time>2015-05-23T07:40:24Z</time>
      </trkpt>
      <trkpt lat="45.84678" lon="4.78005">
        <ele>596.989</ele>
        <time>2015-05-23T07:40:36Z</time>
      </trkpt>
      <trkpt lat="45.84678" lon="4.78005">
        <ele>595.588</ele>
        <time>2015-05-23T07:43:51Z</time>
      </trkpt>
      <trkpt lat="45.84678" lon="4.78005">
        <ele>596.984</ele>
        <time>2015-05-23T07:43:56Z</time>
      </trkpt>
      <trkpt lat="45.84678" lon="4.78005">
        <ele>596.244</ele>
        <time>2015-05-23T07:44:01Z</time>
      </trkpt>
      <trkpt lat="45.84684" lon="4.77977">
        <ele>595.848</ele>
        <time>2015-05-23T07:44:03Z</time>
      </trkpt>
      <trkpt lat="45.84687" lon="4.77971">
        <ele>597.571</ele>
        <time>2015-05-23T07:44:06Z</time>
      </trkpt>
      <trkpt lat="45.84693" lon="4.77957">
        <ele>595.575</ele>
        <time>2015-05-23T07:44:10Z</time>
      </trkpt>
      <trkpt lat="45.84703" lon="4.77933">
        <ele>594.993</ele>
        <time>2015-05-23T07:44:14Z</time>
      </trkpt>
      <trkpt lat="45.84733" lon="4.77871">
        <ele>592.542</ele>
        <time>2015-05-23T07:44:22Z</time>
      </trkpt>
      <trkpt lat="45.84727" lon="4.77824">
        <ele>591.078</ele>
        <time>2015-05-23T07:44:27Z</time>
      </trkpt>
      <trkpt lat="45.84712" lon="4.77826">
        <ele>589.516</ele>
        <time>2015-05-23T07:44:29Z</time>
      </trkpt>
      <trkpt lat="45.84699" lon="4.77852">
        <ele>587.962</ele>
        <time>2015-05-23T07:44:32Z</time>
      </trkpt>
      <trkpt lat="45.84677" lon="4.77904">
        <ele>585.443</ele>
        <time>2015-05-23T07:44:37Z</time>
      </trkpt>
      <trkpt lat="45.84643" lon="4.77909">
        <ele>584.031</ele>
        <time>2015-05-23T07:44:42Z</time>
      </trkpt>
      <trkpt lat="45.84656" lon="4.7787">
        <ele>581.959</ele>
        <time>2015-05-23T07:44:46Z</time>
      </trkpt>
      <trkpt lat="45.84669" lon="4.77854">
        <ele>580.227</ele>
        <time>2015-05-23T07:44:48Z</time>
      </trkpt>
      <trkpt lat="45.84705" lon="4.77768">
        <ele>576.333</ele>
        <time>2015-05-23T07:44:56Z</time>
      </trkpt>
      <trkpt lat="45.8471" lon="4.77756">
        <ele>576.327</ele>
        <time>2015-05-23T07:44:57Z</time>
      </trkpt>
      <trkpt lat="45.84719" lon="4.77732">
        <ele>574.848</ele>
        <time>2015-05-23T07:44:59Z</time>
      </trkpt>
      <trkpt lat="45.84723" lon="4.7772">
        <ele>573.191</ele>
        <time>2015-05-23T07:45:00Z</time>
      </trkpt>
      <trkpt lat="45.84719" lon="4.77643">
        <ele>570.263</ele>
        <time>2015-05-23T07:45:06Z</time>
      </trkpt>
      <trkpt lat="45.84711" lon="4.77618">
        <ele>568.786</ele>
        <time>2015-05-23T07:45:08Z</time>
      </trkpt>
      <trkpt lat="45.84701" lon="4.77593">
        <ele>566.614</ele>
        <time>2015-05-23T07:45:10Z</time>
      </trkpt>
      <trkpt lat="45.84696" lon="4.77582">
        <ele>565.298</ele>
        <time>2015-05-23T07:45:11Z</time>
      </trkpt>
      <trkpt lat="45.84696" lon="4.77569">
        <ele>563.738</ele>
        <time>2015-05-23T07:45:13Z</time>
      </trkpt>
      <trkpt lat="45.84701" lon="4.77569">
        <ele>562.129</ele>
        <time>2015-05-23T07:45:15Z</time>
      </trkpt>
      <trkpt lat="45.84704" lon="4.77574">
        <ele>561.705</ele>
        <time>2015-05-23T07:45:16Z</time>
      </trkpt>
      <trkpt lat="45.84715" lon="4.7759">
        <ele>561.239</ele>
        <time>2015-05-23T07:45:20Z</time>
      </trkpt>
      <trkpt lat="45.84767" lon="4.77618">
        <ele>561.274</ele>
        <time>2015-05-23T07:45:31Z</time>
      </trkpt>
      <trkpt lat="45.84793" lon="4.77621">
        <ele>561.433</ele>
        <time>2015-05-23T07:45:36Z</time>
      </trkpt>
      <trkpt lat="45.84825" lon="4.77622">
        <ele>562.322</ele>
        <time>2015-05-23T07:45:42Z</time>
      </trkpt>
      <trkpt lat="45.84861" lon="4.77619">
        <ele>563.127</ele>
        <time>2015-05-23T07:45:51Z</time>
      </trkpt>
      <trkpt lat="45.84892" lon="4.77616">
        <ele>565.396</ele>
        <time>2015-05-23T07:45:59Z</time>
      </trkpt>
      <trkpt lat="45.84925" lon="4.77616">
        <ele>566.682</ele>
        <time>2015-05-23T07:46:08Z</time>
      </trkpt>
      <trkpt lat="45.84979" lon="4.77619">
        <ele>567.811</ele>
        <time>2015-05-23T07:46:19Z</time>
      </trkpt>
      <trkpt lat="45.85003" lon="4.77624">
        <ele>567.61</ele>
        <time>2015-05-23T07:46:24Z</time>
      </trkpt>
      <trkpt lat="45.85027" lon="4.77629">
        <ele>568.137</ele>
        <time>2015-05-23T07:46:28Z</time>
      </trkpt>
      <trkpt lat="45.85063" lon="4.77662">
        <ele>568.518</ele>
        <time>2015-05-23T07:46:38Z</time>
      </trkpt>
      <trkpt lat="45.85087" lon="4.7771">
        <ele>569.581</ele>
        <time>2015-05-23T07:46:51Z</time>
      </trkpt>
      <trkpt lat="45.85088" lon="4.77713">
        <ele>569.211</ele>
        <time>2015-05-23T07:46:59Z</time>
      </trkpt>
      <trkpt lat="45.85088" lon="4.77713">
        <ele>569.251</ele>
        <time>2015-05-23T07:47:06Z</time>
      </trkpt>
      <trkpt lat="45.85098" lon="4.77745">
        <ele>571.277</ele>
        <time>2015-05-23T07:47:21Z</time>
      </trkpt>
      <trkpt lat="45.85099" lon="4.77749">
        <ele>572.03</ele>
        <time>2015-05-23T07:47:25Z</time>
      </trkpt>
      <trkpt lat="45.85102" lon="4.77765">
        <ele>573.389</ele>
        <time>2015-05-23T07:47:31Z</time>
      </trkpt>
      <trkpt lat="45.85104" lon="4.77791">
        <ele>574.544</ele>
        <time>2015-05-23T07:47:42Z</time>
      </trkpt>
      <trkpt lat="45.85105" lon="4.77808">
        <ele>576.281</ele>
        <time>2015-05-23T07:47:49Z</time>
      </trkpt>
      <trkpt lat="45.85104" lon="4.7784">
        <ele>578.413</ele>
        <time>2015-05-23T07:48:01Z</time>
      </trkpt>
      <trkpt lat="45.85098" lon="4.77871">
        <ele>581.724</ele>
        <time>2015-05-23T07:48:14Z</time>
      </trkpt>
      <trkpt lat="45.85098" lon="4.77874">
        <ele>581.6</ele>
        <time>2015-05-23T07:48:15Z</time>
      </trkpt>
      <trkpt lat="45.85098" lon="4.77889">
        <ele>582.197</ele>
        <time>2015-05-23T07:48:20Z</time>
      </trkpt>
      <trkpt lat="45.85115" lon="4.77922">
        <ele>581.36</ele>
        <time>2015-05-23T07:48:28Z</time>
      </trkpt>
      <trkpt lat="45.85119" lon="4.77938">
        <ele>580.034</ele>
        <time>2015-05-23T07:48:30Z</time>
      </trkpt>
      <trkpt lat="45.85123" lon="4.77956">
        <ele>578.334</ele>
        <time>2015-05-23T07:48:32Z</time>
      </trkpt>
      <trkpt lat="45.85125" lon="4.77964">
        <ele>577.324</ele>
        <time>2015-05-23T07:48:33Z</time>
      </trkpt>
      <trkpt lat="45.85137" lon="4.78007">
        <ele>575.631</ele>
        <time>2015-05-23T07:48:39Z</time>
      </trkpt>
      <trkpt lat="45.85151" lon="4.7805">
        <ele>574.449</ele>
        <time>2015-05-23T07:48:46Z</time>
      </trkpt>
      <trkpt lat="45.85173" lon="4.78102">
        <ele>569.917</ele>
        <time>2015-05-23T07:48:52Z</time>
      </trkpt>
      <trkpt lat="45.85177" lon="4.78109">
        <ele>569.916</ele>
        <time>2015-05-23T07:48:53Z</time>
      </trkpt>
      <trkpt lat="45.85219" lon="4.78185">
        <ele>569.605</ele>
        <time>2015-05-23T07:49:02Z</time>
      </trkpt>
      <trkpt lat="45.85282" lon="4.78281">
        <ele>567.698</ele>
        <time>2015-05-23T07:49:14Z</time>
      </trkpt>
      <trkpt lat="45.8534" lon="4.78352">
        <ele>566.422</ele>
        <time>2015-05-23T07:49:25Z</time>
      </trkpt>
      <trkpt lat="45.85351" lon="4.78369">
        <ele>565.376</ele>
        <time>2015-05-23T07:49:28Z</time>
      </trkpt>
      <trkpt lat="45.85364" lon="4.78389">
        <ele>564.831</ele>
        <time>2015-05-23T07:49:32Z</time>
      </trkpt>
      <trkpt lat="45.85371" lon="4.78398">
        <ele>565.209</ele>
        <time>2015-05-23T07:49:34Z</time>
      </trkpt>
      <trkpt lat="45.85381" lon="4.78413">
        <ele>564.014</ele>
        <time>2015-05-23T07:49:37Z</time>
      </trkpt>
      <trkpt lat="45.8545" lon="4.78498">
        <ele>560.829</ele>
        <time>2015-05-23T07:49:53Z</time>
      </trkpt>
      <trkpt lat="45.85455" lon="4.78504">
        <ele>561.09</ele>
        <time>2015-05-23T07:49:54Z</time>
      </trkpt>
      <trkpt lat="45.85468" lon="4.7852">
        <ele>560.164</ele>
        <time>2015-05-23T07:49:58Z</time>
      </trkpt>
      <trkpt lat="45.85509" lon="4.78567">
        <ele>557.551</ele>
        <time>2015-05-23T07:50:09Z</time>
      </trkpt>
      <trkpt lat="45.85511" lon="4.78569">
        <ele>557.494</ele>
        <time>2015-05-23T07:50:12Z</time>
      </trkpt>
      <trkpt lat="45.85581" lon="4.78639">
        <ele>554.44</ele>
        <time>2015-05-23T07:50:26Z</time>
      </trkpt>
      <trkpt lat="45.85637" lon="4.78694">
        <ele>551.568</ele>
        <time>2015-05-23T07:50:40Z</time>
      </trkpt>
      <trkpt lat="45.85687" lon="4.78757">
        <ele>548.743</ele>
        <time>2015-05-23T07:50:50Z</time>
      </trkpt>
      <trkpt lat="45.85693" lon="4.78764">
        <ele>548.741</ele>
        <time>2015-05-23T07:50:51Z</time>
      </trkpt>
      <trkpt lat="45.8574" lon="4.78821">
        <ele>544.412</ele>
        <time>2015-05-23T07:50:59Z</time>
      </trkpt>
      <trkpt lat="45.85745" lon="4.78828">
        <ele>544.408</ele>
        <time>2015-05-23T07:51:00Z</time>
      </trkpt>
      <trkpt lat="45.85757" lon="4.78841">
        <ele>542.81</ele>
        <time>2015-05-23T07:51:02Z</time>
      </trkpt>
      <trkpt lat="45.85767" lon="4.78858">
        <ele>539.631</ele>
        <time>2015-05-23T07:51:04Z</time>
      </trkpt>
      <trkpt lat="45.85771" lon="4.78866">
        <ele>539.628</ele>
        <time>2015-05-23T07:51:05Z</time>
      </trkpt>
      <trkpt lat="45.8578" lon="4.78884">
        <ele>535.784</ele>
        <time>2015-05-23T07:51:10Z</time>
      </trkpt>
      <trkpt lat="45.85789" lon="4.78907">
        <ele>533.854</ele>
        <time>2015-05-23T07:51:13Z</time>
      </trkpt>
      <trkpt lat="45.8579" lon="4.78909">
        <ele>534.099</ele>
        <time>2015-05-23T07:52:31Z</time>
      </trkpt>
      <trkpt lat="45.85784" lon="4.78893">
        <ele>535.034</ele>
        <time>2015-05-23T07:52:39Z</time>
      </trkpt>
      <trkpt lat="45.85783" lon="4.78891">
        <ele>535.032</ele>
        <time>2015-05-23T07:52:40Z</time>
      </trkpt>
      <trkpt lat="45.85799" lon="4.78855">
        <ele>539.158</ele>
        <time>2015-05-23T07:52:46Z</time>
      </trkpt>
      <trkpt lat="45.858" lon="4.7885">
        <ele>539.157</ele>
        <time>2015-05-23T07:52:47Z</time>
      </trkpt>
      <trkpt lat="45.85802" lon="4.7884">
        <ele>540.739</ele>
        <time>2015-05-23T07:52:49Z</time>
      </trkpt>
      <trkpt lat="45.8581" lon="4.78815">
        <ele>542.975</ele>
        <time>2015-05-23T07:52:54Z</time>
      </trkpt>
      <trkpt lat="45.85818" lon="4.78805">
        <ele>544.602</ele>
        <time>2015-05-23T07:53:02Z</time>
      </trkpt>
      <trkpt lat="45.85837" lon="4.78819">
        <ele>545.474</ele>
        <time>2015-05-23T07:53:14Z</time>
      </trkpt>
      <trkpt lat="45.85842" lon="4.78825">
        <ele>546.448</ele>
        <time>2015-05-23T07:53:17Z</time>
      </trkpt>
      <trkpt lat="45.85846" lon="4.78825">
        <ele>547.221</ele>
        <time>2015-05-23T07:53:21Z</time>
      </trkpt>
      <trkpt lat="45.85853" lon="4.78821">
        <ele>548.5</ele>
        <time>2015-05-23T07:53:24Z</time>
      </trkpt>
      <trkpt lat="45.85866" lon="4.78819">
        <ele>548.096</ele>
        <time>2015-05-23T07:53:28Z</time>
      </trkpt>
      <trkpt lat="45.85903" lon="4.78821">
        <ele>545.882</ele>
        <time>2015-05-23T07:53:35Z</time>
      </trkpt>
      <trkpt lat="45.85916" lon="4.78823">
        <ele>543.425</ele>
        <time>2015-05-23T07:53:38Z</time>
      </trkpt>
      <trkpt lat="45.85919" lon="4.78824">
        <ele>542.01</ele>
        <time>2015-05-23T07:53:39Z</time>
      </trkpt>
      <trkpt lat="45.8592" lon="4.78824">
        <ele>541.025</ele>
        <time>2015-05-23T07:53:42Z</time>
      </trkpt>
      <trkpt lat="45.85934" lon="4.78826">
        <ele>540.169</ele>
        <time>2015-05-23T07:53:47Z</time>
      </trkpt>
      <trkpt lat="45.85956" lon="4.78829">
        <ele>538.227</ele>
        <time>2015-05-23T07:53:52Z</time>
      </trkpt>
      <trkpt lat="45.85964" lon="4.78832">
        <ele>537.171</ele>
        <time>2015-05-23T07:53:54Z</time>
      </trkpt>
      <trkpt lat="45.85989" lon="4.78845">
        <ele>533.513</ele>
        <time>2015-05-23T07:54:00Z</time>
      </trkpt>
      <trkpt lat="45.85991" lon="4.78847">
        <ele>533.514</ele>
        <time>2015-05-23T07:54:01Z</time>
      </trkpt>
      <trkpt lat="45.86009" lon="4.78857">
        <ele>532.129</ele>
        <time>2015-05-23T07:54:06Z</time>
      </trkpt>
      <trkpt lat="45.8603" lon="4.78869">
        <ele>532.659</ele>
        <time>2015-05-23T07:54:10Z</time>
      </trkpt>
      <trkpt lat="45.86047" lon="4.78879">
        <ele>532.592</ele>
        <time>2015-05-23T07:54:13Z</time>
      </trkpt>
      <trkpt lat="45.8609" lon="4.78902">
        <ele>530.286</ele>
        <time>2015-05-23T07:54:19Z</time>
      </trkpt>
      <trkpt lat="45.86096" lon="4.78908">
        <ele>529.269</ele>
        <time>2015-05-23T07:54:20Z</time>
      </trkpt>
      <trkpt lat="45.86121" lon="4.78932">
        <ele>527.507</ele>
        <time>2015-05-23T07:54:24Z</time>
      </trkpt>
      <trkpt lat="45.86163" lon="4.7898">
        <ele>526.473</ele>
        <time>2015-05-23T07:54:34Z</time>
      </trkpt>
      <trkpt lat="45.86175" lon="4.78996">
        <ele>527.182</ele>
        <time>2015-05-23T07:54:37Z</time>
      </trkpt>
      <trkpt lat="45.86196" lon="4.79031">
        <ele>525.215</ele>
        <time>2015-05-23T07:54:42Z</time>
      </trkpt>
      <trkpt lat="45.86205" lon="4.79045">
        <ele>522.994</ele>
        <time>2015-05-23T07:54:44Z</time>
      </trkpt>
      <trkpt lat="45.86222" lon="4.79069">
        <ele>520.689</ele>
        <time>2015-05-23T07:54:47Z</time>
      </trkpt>
      <trkpt lat="45.86231" lon="4.79087">
        <ele>519.007</ele>
        <time>2015-05-23T07:54:49Z</time>
      </trkpt>
      <trkpt lat="45.86245" lon="4.79111">
        <ele>516.548</ele>
        <time>2015-05-23T07:54:52Z</time>
      </trkpt>
      <trkpt lat="45.86257" lon="4.79131">
        <ele>515.991</ele>
        <time>2015-05-23T07:54:54Z</time>
      </trkpt>
      <trkpt lat="45.8628" lon="4.79163">
        <ele>514.184</ele>
        <time>2015-05-23T07:54:58Z</time>
      </trkpt>
      <trkpt lat="45.86341" lon="4.79227">
        <ele>510.748</ele>
        <time>2015-05-23T07:55:07Z</time>
      </trkpt>
      <trkpt lat="45.86349" lon="4.79235">
        <ele>510.753</ele>
        <time>2015-05-23T07:55:08Z</time>
      </trkpt>
      <trkpt lat="45.86365" lon="4.79252">
        <ele>508.834</ele>
        <time>2015-05-23T07:55:10Z</time>
      </trkpt>
      <trkpt lat="45.86381" lon="4.79269">
        <ele>507.312</ele>
        <time>2015-05-23T07:55:12Z</time>
      </trkpt>
      <trkpt lat="45.86397" lon="4.79288">
        <ele>503.157</ele>
        <time>2015-05-23T07:55:14Z</time>
      </trkpt>
      <trkpt lat="45.8642" lon="4.79319">
        <ele>501.012</ele>
        <time>2015-05-23T07:55:17Z</time>
      </trkpt>
      <trkpt lat="45.86428" lon="4.79327">
        <ele>499.43</ele>
        <time>2015-05-23T07:55:18Z</time>
      </trkpt>
      <trkpt lat="45.86453" lon="4.79357">
        <ele>495.245</ele>
        <time>2015-05-23T07:55:21Z</time>
      </trkpt>
      <trkpt lat="45.86478" lon="4.79387">
        <ele>493.754</ele>
        <time>2015-05-23T07:55:24Z</time>
      </trkpt>
      <trkpt lat="45.86482" lon="4.79392">
        <ele>491.484</ele>
        <time>2015-05-23T07:55:25Z</time>
      </trkpt>
      <trkpt lat="45.86482" lon="4.79392">
        <ele>488.447</ele>
        <time>2015-05-23T07:55:27Z</time>
      </trkpt>
      <trkpt lat="45.86482" lon="4.79392">
        <ele>487.833</ele>
        <time>2015-05-23T07:55:29Z</time>
      </trkpt>
      <trkpt lat="45.86482" lon="4.79392">
        <ele>488.746</ele>
        <time>2015-05-23T07:55:36Z</time>
      </trkpt>
      <trkpt lat="45.86482" lon="4.79392">
        <ele>489.981</ele>
        <time>2015-05-23T07:55:40Z</time>
      </trkpt>
      <trkpt lat="45.8648" lon="4.7939">
        <ele>488.745</ele>
        <time>2015-05-23T07:55:41Z</time>
      </trkpt>
      <trkpt lat="45.86476" lon="4.79385">
        <ele>490.134</ele>
        <time>2015-05-23T07:55:44Z</time>
      </trkpt>
      <trkpt lat="45.86468" lon="4.79375">
        <ele>491.154</ele>
        <time>2015-05-23T07:55:55Z</time>
      </trkpt>
      <trkpt lat="45.86468" lon="4.79375">
        <ele>491.082</ele>
        <time>2015-05-23T07:56:18Z</time>
      </trkpt>
      <trkpt lat="45.86468" lon="4.79375">
        <ele>492.029</ele>
        <time>2015-05-23T07:56:31Z</time>
      </trkpt>
      <trkpt lat="45.86477" lon="4.79386">
        <ele>490.433</ele>
        <time>2015-05-23T07:56:36Z</time>
      </trkpt>
      <trkpt lat="45.86527" lon="4.79435">
        <ele>487.689</ele>
        <time>2015-05-23T07:56:47Z</time>
      </trkpt>
      <trkpt lat="45.86532" lon="4.7944">
        <ele>487.118</ele>
        <time>2015-05-23T07:56:48Z</time>
      </trkpt>
      <trkpt lat="45.86541" lon="4.79449">
        <ele>486.027</ele>
        <time>2015-05-23T07:56:50Z</time>
      </trkpt>
      <trkpt lat="45.86568" lon="4.7948">
        <ele>481.925</ele>
        <time>2015-05-23T07:56:56Z</time>
      </trkpt>
      <trkpt lat="45.8657" lon="4.79482">
        <ele>481.932</ele>
        <time>2015-05-23T07:56:57Z</time>
      </trkpt>
      <trkpt lat="45.86573" lon="4.79486">
        <ele>480.001</ele>
        <time>2015-05-23T07:57:08Z</time>
      </trkpt>
      <trkpt lat="45.86577" lon="4.7949">
        <ele>479.783</ele>
        <time>2015-05-23T07:57:17Z</time>
      </trkpt>
      <trkpt lat="45.86602" lon="4.79514">
        <ele>477.401</ele>
        <time>2015-05-23T07:57:24Z</time>
      </trkpt>
      <trkpt lat="45.86615" lon="4.79536">
        <ele>475.928</ele>
        <time>2015-05-23T07:57:27Z</time>
      </trkpt>
      <trkpt lat="45.86628" lon="4.79569">
        <ele>473.301</ele>
        <time>2015-05-23T07:57:29Z</time>
      </trkpt>
      <trkpt lat="45.86637" lon="4.79594">
        <ele>471.221</ele>
        <time>2015-05-23T07:57:30Z</time>
      </trkpt>
      <trkpt lat="45.86646" lon="4.79622">
        <ele>466.669</ele>
        <time>2015-05-23T07:57:33Z</time>
      </trkpt>
      <trkpt lat="45.8665" lon="4.79632">
        <ele>466.675</ele>
        <time>2015-05-23T07:57:34Z</time>
      </trkpt>
      <trkpt lat="45.86655" lon="4.79643">
        <ele>463.721</ele>
        <time>2015-05-23T07:57:36Z</time>
      </trkpt>
      <trkpt lat="45.86657" lon="4.79647">
        <ele>461.445</ele>
        <time>2015-05-23T07:57:38Z</time>
      </trkpt>
      <trkpt lat="45.86657" lon="4.79647">
        <ele>458.967</ele>
        <time>2015-05-23T07:57:41Z</time>
      </trkpt>
      <trkpt lat="45.86657" lon="4.79647">
        <ele>457.098</ele>
        <time>2015-05-23T07:57:43Z</time>
      </trkpt>
      <trkpt lat="45.86665" lon="4.79673">
        <ele>457.202</ele>
        <time>2015-05-23T07:57:46Z</time>
      </trkpt>
      <trkpt lat="45.86672" lon="4.79703">
        <ele>456.141</ele>
        <time>2015-05-23T07:57:54Z</time>
      </trkpt>
      <trkpt lat="45.86674" lon="4.79721">
        <ele>454.997</ele>
        <time>2015-05-23T07:57:57Z</time>
      </trkpt>
      <trkpt lat="45.86662" lon="4.79749">
        <ele>455.658</ele>
        <time>2015-05-23T07:58:03Z</time>
      </trkpt>
      <trkpt lat="45.86651" lon="4.7978">
        <ele>457.453</ele>
        <time>2015-05-23T07:58:11Z</time>
      </trkpt>
      <trkpt lat="45.86633" lon="4.79819">
        <ele>461.206</ele>
        <time>2015-05-23T07:58:21Z</time>
      </trkpt>
      <trkpt lat="45.86628" lon="4.79831">
        <ele>462.053</ele>
        <time>2015-05-23T07:58:24Z</time>
      </trkpt>
      <trkpt lat="45.86615" lon="4.79859">
        <ele>465.15</ele>
        <time>2015-05-23T07:58:33Z</time>
      </trkpt>
      <trkpt lat="45.86584" lon="4.79898">
        <ele>466.296</ele>
        <time>2015-05-23T07:58:44Z</time>
      </trkpt>
      <trkpt lat="45.86545" lon="4.79911">
        <ele>466.227</ele>
        <time>2015-05-23T07:58:56Z</time>
      </trkpt>
      <trkpt lat="45.86476" lon="4.79898">
        <ele>462.563</ele>
        <time>2015-05-23T07:59:08Z</time>
      </trkpt>
      <trkpt lat="45.8647" lon="4.79896">
        <ele>462.556</ele>
        <time>2015-05-23T07:59:09Z</time>
      </trkpt>
      <trkpt lat="45.86387" lon="4.79858">
        <ele>459.55</ele>
        <time>2015-05-23T07:59:23Z</time>
      </trkpt>
      <trkpt lat="45.86327" lon="4.79854">
        <ele>458.24</ele>
        <time>2015-05-23T07:59:33Z</time>
      </trkpt>
      <trkpt lat="45.86275" lon="4.79876">
        <ele>458.694</ele>
        <time>2015-05-23T07:59:46Z</time>
      </trkpt>
      <trkpt lat="45.86259" lon="4.7989">
        <ele>456.521</ele>
        <time>2015-05-23T07:59:50Z</time>
      </trkpt>
      <trkpt lat="45.86219" lon="4.79914">
        <ele>454.17</ele>
        <time>2015-05-23T08:00:00Z</time>
      </trkpt>
      <trkpt lat="45.86218" lon="4.79925">
        <ele>452.901</ele>
        <time>2015-05-23T08:00:02Z</time>
      </trkpt>
      <trkpt lat="45.86212" lon="4.79961">
        <ele>450.184</ele>
        <time>2015-05-23T08:00:08Z</time>
      </trkpt>
      <trkpt lat="45.86198" lon="4.79974">
        <ele>447.433</ele>
        <time>2015-05-23T08:00:12Z</time>
      </trkpt>
      <trkpt lat="45.86179" lon="4.7998">
        <ele>445.696</ele>
        <time>2015-05-23T08:00:16Z</time>
      </trkpt>
      <trkpt lat="45.8617" lon="4.79981">
        <ele>445.381</ele>
        <time>2015-05-23T08:00:18Z</time>
      </trkpt>
      <trkpt lat="45.86155" lon="4.79979">
        <ele>445.383</ele>
        <time>2015-05-23T08:00:21Z</time>
      </trkpt>
      <trkpt lat="45.86144" lon="4.79982">
        <ele>444.533</ele>
        <time>2015-05-23T08:00:23Z</time>
      </trkpt>
      <trkpt lat="45.86118" lon="4.8">
        <ele>442.013</ele>
        <time>2015-05-23T08:00:29Z</time>
      </trkpt>
      <trkpt lat="45.86103" lon="4.80008">
        <ele>440.628</ele>
        <time>2015-05-23T08:00:32Z</time>
      </trkpt>
      <trkpt lat="45.86063" lon="4.80031">
        <ele>438.248</ele>
        <time>2015-05-23T08:00:40Z</time>
      </trkpt>
      <trkpt lat="45.86037" lon="4.80036">
        <ele>436.929</ele>
        <time>2015-05-23T08:00:44Z</time>
      </trkpt>
      <trkpt lat="45.85982" lon="4.80046">
        <ele>434.185</ele>
        <time>2015-05-23T08:00:53Z</time>
      </trkpt>
      <trkpt lat="45.8597" lon="4.80048">
        <ele>432.935</ele>
        <time>2015-05-23T08:00:55Z</time>
      </trkpt>
      <trkpt lat="45.85939" lon="4.80053">
        <ele>430.76</ele>
        <time>2015-05-23T08:01:00Z</time>
      </trkpt>
      <trkpt lat="45.85925" lon="4.80068">
        <ele>429.631</ele>
        <time>2015-05-23T08:01:09Z</time>
      </trkpt>
      <trkpt lat="45.85925" lon="4.80068">
        <ele>429.1</ele>
        <time>2015-05-23T08:01:11Z</time>
      </trkpt>
      <trkpt lat="45.85916" lon="4.8006">
        <ele>429.485</ele>
        <time>2015-05-23T08:01:15Z</time>
      </trkpt>
      <trkpt lat="45.85909" lon="4.80056">
        <ele>429.259</ele>
        <time>2015-05-23T08:01:19Z</time>
      </trkpt>
      <trkpt lat="45.85866" lon="4.80068">
        <ele>427.5</ele>
        <time>2015-05-23T08:01:23Z</time>
      </trkpt>
      <trkpt lat="45.85866" lon="4.80068">
        <ele>425.82</ele>
        <time>2015-05-23T08:01:25Z</time>
      </trkpt>
      <trkpt lat="45.8585" lon="4.80074">
        <ele>424.016</ele>
        <time>2015-05-23T08:01:28Z</time>
      </trkpt>
      <trkpt lat="45.85836" lon="4.80103">
        <ele>421.244</ele>
        <time>2015-05-23T08:01:32Z</time>
      </trkpt>
      <trkpt lat="45.85832" lon="4.8011">
        <ele>419.673</ele>
        <time>2015-05-23T08:01:33Z</time>
      </trkpt>
      <trkpt lat="45.85817" lon="4.80127">
        <ele>416.101</ele>
        <time>2015-05-23T08:01:36Z</time>
      </trkpt>
      <trkpt lat="45.85812" lon="4.80132">
        <ele>416.094</ele>
        <time>2015-05-23T08:01:37Z</time>
      </trkpt>
      <trkpt lat="45.85801" lon="4.80141">
        <ele>414.393</ele>
        <time>2015-05-23T08:01:39Z</time>
      </trkpt>
      <trkpt lat="45.85783" lon="4.80156">
        <ele>410.208</ele>
        <time>2015-05-23T08:01:43Z</time>
      </trkpt>
      <trkpt lat="45.85779" lon="4.80161">
        <ele>410.202</ele>
        <time>2015-05-23T08:01:44Z</time>
      </trkpt>
      <trkpt lat="45.8576" lon="4.80179">
        <ele>407.655</ele>
        <time>2015-05-23T08:01:48Z</time>
      </trkpt>
      <trkpt lat="45.85747" lon="4.80193">
        <ele>405.38</ele>
        <time>2015-05-23T08:01:51Z</time>
      </trkpt>
      <trkpt lat="45.85738" lon="4.80204">
        <ele>402.836</ele>
        <time>2015-05-23T08:01:55Z</time>
      </trkpt>
      <trkpt lat="45.85736" lon="4.80206">
        <ele>401.044</ele>
        <time>2015-05-23T08:02:06Z</time>
      </trkpt>
      <trkpt lat="45.85736" lon="4.80206">
        <ele>399.585</ele>
        <time>2015-05-23T08:02:09Z</time>
      </trkpt>
      <trkpt lat="45.85735" lon="4.8021">
        <ele>400.968</ele>
        <time>2015-05-23T08:02:18Z</time>
      </trkpt>
      <trkpt lat="45.85715" lon="4.802">
        <ele>397.902</ele>
        <time>2015-05-23T08:02:23Z</time>
      </trkpt>
      <trkpt lat="45.85715" lon="4.80203">
        <ele>397.578</ele>
        <time>2015-05-23T08:02:24Z</time>
      </trkpt>
      <trkpt lat="45.85715" lon="4.80245">
        <ele>393.707</ele>
        <time>2015-05-23T08:02:34Z</time>
      </trkpt>
      <trkpt lat="45.85715" lon="4.80245">
        <ele>393.702</ele>
        <time>2015-05-23T08:02:35Z</time>
      </trkpt>
      <trkpt lat="45.85697" lon="4.80278">
        <ele>391.923</ele>
        <time>2015-05-23T08:02:39Z</time>
      </trkpt>
      <trkpt lat="45.85691" lon="4.80288">
        <ele>386.013</ele>
        <time>2015-05-23T08:02:41Z</time>
      </trkpt>
      <trkpt lat="45.85689" lon="4.80291">
        <ele>386.008</ele>
        <time>2015-05-23T08:02:42Z</time>
      </trkpt>
      <trkpt lat="45.85688" lon="4.80294">
        <ele>384.362</ele>
        <time>2015-05-23T08:02:44Z</time>
      </trkpt>
      <trkpt lat="45.85688" lon="4.80294">
        <ele>382.655</ele>
        <time>2015-05-23T08:02:46Z</time>
      </trkpt>
      <trkpt lat="45.85688" lon="4.80294">
        <ele>381.56</ele>
        <time>2015-05-23T08:03:10Z</time>
      </trkpt>
      <trkpt lat="45.85688" lon="4.80294">
        <ele>380.451</ele>
        <time>2015-05-23T08:03:26Z</time>
      </trkpt>
      <trkpt lat="45.85687" lon="4.80295">
        <ele>382.205</ele>
        <time>2015-05-23T08:03:28Z</time>
      </trkpt>
      <trkpt lat="45.85682" lon="4.80303">
        <ele>379.774</ele>
        <time>2015-05-23T08:03:33Z</time>
      </trkpt>
      <trkpt lat="45.85678" lon="4.80307">
        <ele>377.456</ele>
        <time>2015-05-23T08:03:37Z</time>
      </trkpt>
      <trkpt lat="45.85675" lon="4.80311">
        <ele>375.403</ele>
        <time>2015-05-23T08:03:40Z</time>
      </trkpt>
      <trkpt lat="45.85672" lon="4.80314">
        <ele>374.061</ele>
        <time>2015-05-23T08:03:42Z</time>
      </trkpt>
      <trkpt lat="45.85667" lon="4.80319">
        <ele>372.033</ele>
        <time>2015-05-23T08:03:46Z</time>
      </trkpt>
      <trkpt lat="45.85667" lon="4.80319">
        <ele>368.947</ele>
        <time>2015-05-23T08:03:50Z</time>
      </trkpt>
      <trkpt lat="45.85667" lon="4.80319">
        <ele>369.396</ele>
        <time>2015-05-23T08:04:28Z</time>
      </trkpt>
      <trkpt lat="45.85667" lon="4.80319">
        <ele>366.393</ele>
        <time>2015-05-23T08:04:45Z</time>
      </trkpt>
      <trkpt lat="45.85667" lon="4.80319">
        <ele>363.273</ele>
        <time>2015-05-23T08:05:00Z</time>
      </trkpt>
      <trkpt lat="45.85667" lon="4.80319">
        <ele>360.165</ele>
        <time>2015-05-23T08:05:16Z</time>
      </trkpt>
      <trkpt lat="45.85667" lon="4.80319">
        <ele>360.159</ele>
        <time>2015-05-23T08:05:17Z</time>
      </trkpt>
      <trkpt lat="45.85651" lon="4.80343">
        <ele>360.79</ele>
        <time>2015-05-23T08:05:21Z</time>
      </trkpt>
      <trkpt lat="45.8565" lon="4.80348">
        <ele>360.336</ele>
        <time>2015-05-23T08:05:24Z</time>
      </trkpt>
      <trkpt lat="45.85649" lon="4.80371">
        <ele>359.392</ele>
        <time>2015-05-23T08:05:29Z</time>
      </trkpt>
      <trkpt lat="45.85653" lon="4.80421">
        <ele>355.932</ele>
        <time>2015-05-23T08:05:38Z</time>
      </trkpt>
      <trkpt lat="45.85649" lon="4.80432">
        <ele>352.959</ele>
        <time>2015-05-23T08:05:42Z</time>
      </trkpt>
      <trkpt lat="45.85646" lon="4.80439">
        <ele>350.017</ele>
        <time>2015-05-23T08:05:45Z</time>
      </trkpt>
      <trkpt lat="45.85644" lon="4.80444">
        <ele>348.489</ele>
        <time>2015-05-23T08:05:47Z</time>
      </trkpt>
      <trkpt lat="45.85641" lon="4.80455">
        <ele>345.52</ele>
        <time>2015-05-23T08:05:52Z</time>
      </trkpt>
      <trkpt lat="45.8564" lon="4.8046">
        <ele>344.183</ele>
        <time>2015-05-23T08:05:54Z</time>
      </trkpt>
      <trkpt lat="45.85639" lon="4.80466">
        <ele>342.745</ele>
        <time>2015-05-23T08:05:56Z</time>
      </trkpt>
      <trkpt lat="45.85639" lon="4.80473">
        <ele>339.701</ele>
        <time>2015-05-23T08:06:00Z</time>
      </trkpt>
      <trkpt lat="45.85639" lon="4.80473">
        <ele>339.695</ele>
        <time>2015-05-23T08:06:01Z</time>
      </trkpt>
      <trkpt lat="45.85639" lon="4.80473">
        <ele>338.19</ele>
        <time>2015-05-23T08:06:42Z</time>
      </trkpt>
      <trkpt lat="45.85639" lon="4.80473">
        <ele>338.33</ele>
        <time>2015-05-23T08:07:17Z</time>
      </trkpt>
      <trkpt lat="45.85639" lon="4.80473">
        <ele>335.257</ele>
        <time>2015-05-23T08:07:35Z</time>
      </trkpt>
      <trkpt lat="45.85639" lon="4.80473">
        <ele>335.251</ele>
        <time>2015-05-23T08:07:36Z</time>
      </trkpt>
      <trkpt lat="45.85641" lon="4.805">
        <ele>334.101</ele>
        <time>2015-05-23T08:07:43Z</time>
      </trkpt>
      <trkpt lat="45.85642" lon="4.80509">
        <ele>332.639</ele>
        <time>2015-05-23T08:07:47Z</time>
      </trkpt>
      <trkpt lat="45.85642" lon="4.80509">
        <ele>330.609</ele>
        <time>2015-05-23T08:07:50Z</time>
      </trkpt>
      <trkpt lat="45.8564" lon="4.80537">
        <ele>326.967</ele>
        <time>2015-05-23T08:07:56Z</time>
      </trkpt>
      <trkpt lat="45.85639" lon="4.8054">
        <ele>326.962</ele>
        <time>2015-05-23T08:07:57Z</time>
      </trkpt>
      <trkpt lat="45.85635" lon="4.80549">
        <ele>324.678</ele>
        <time>2015-05-23T08:08:01Z</time>
      </trkpt>
      <trkpt lat="45.85634" lon="4.80551">
        <ele>321.424</ele>
        <time>2015-05-23T08:08:05Z</time>
      </trkpt>
      <trkpt lat="45.85634" lon="4.80551">
        <ele>320.998</ele>
        <time>2015-05-23T08:08:09Z</time>
      </trkpt>
      <trkpt lat="45.85626" lon="4.80554">
        <ele>319.629</ele>
        <time>2015-05-23T08:08:20Z</time>
      </trkpt>
      <trkpt lat="45.85626" lon="4.80554">
        <ele>320.426</ele>
        <time>2015-05-23T08:08:59Z</time>
      </trkpt>
      <trkpt lat="45.85619" lon="4.8055">
        <ele>320.449</ele>
        <time>2015-05-23T08:09:02Z</time>
      </trkpt>
      <trkpt lat="45.85596" lon="4.80555">
        <ele>320.402</ele>
        <time>2015-05-23T08:09:06Z</time>
      </trkpt>
      <trkpt lat="45.85583" lon="4.80571">
        <ele>318.677</ele>
        <time>2015-05-23T08:09:08Z</time>
      </trkpt>
      <trkpt lat="45.85571" lon="4.80602">
        <ele>314.095</ele>
        <time>2015-05-23T08:09:12Z</time>
      </trkpt>
      <trkpt lat="45.8557" lon="4.8061">
        <ele>314.088</ele>
        <time>2015-05-23T08:09:13Z</time>
      </trkpt>
      <trkpt lat="45.8557" lon="4.80618">
        <ele>313.511</ele>
        <time>2015-05-23T08:09:14Z</time>
      </trkpt>
      <trkpt lat="45.85559" lon="4.80654">
        <ele>311.483</ele>
        <time>2015-05-23T08:09:21Z</time>
      </trkpt>
      <trkpt lat="45.85559" lon="4.80654">
        <ele>314.046</ele>
        <time>2015-05-23T08:09:34Z</time>
      </trkpt>
      <trkpt lat="45.85501" lon="4.80684">
        <ele>317.965</ele>
        <time>2015-05-23T08:09:49Z</time>
      </trkpt>
      <trkpt lat="45.85487" lon="4.80643">
        <ele>320.936</ele>
        <time>2015-05-23T08:10:06Z</time>
      </trkpt>
      <trkpt lat="45.85491" lon="4.80657">
        <ele>320.093</ele>
        <time>2015-05-23T08:10:12Z</time>
      </trkpt>
      <trkpt lat="45.85501" lon="4.80683">
        <ele>321.396</ele>
        <time>2015-05-23T08:10:22Z</time>
      </trkpt>
      <trkpt lat="45.85499" lon="4.80679">
        <ele>321.686</ele>
        <time>2015-05-23T08:10:26Z</time>
      </trkpt>
      <trkpt lat="45.85498" lon="4.80675">
        <ele>322.682</ele>
        <time>2015-05-23T08:10:28Z</time>
      </trkpt>
      <trkpt lat="45.85489" lon="4.80688">
        <ele>323.343</ele>
        <time>2015-05-23T08:10:33Z</time>
      </trkpt>
      <trkpt lat="45.85481" lon="4.8069">
        <ele>325.368</ele>
        <time>2015-05-23T08:10:41Z</time>
      </trkpt>
      <trkpt lat="45.85471" lon="4.80693">
        <ele>328.059</ele>
        <time>2015-05-23T08:10:48Z</time>
      </trkpt>
      <trkpt lat="45.85479" lon="4.80723">
        <ele>331.058</ele>
        <time>2015-05-23T08:11:01Z</time>
      </trkpt>
      <trkpt lat="45.85479" lon="4.80723">
        <ele>333.894</ele>
        <time>2015-05-23T08:11:12Z</time>
      </trkpt>
      <trkpt lat="45.85493" lon="4.80732">
        <ele>335.201</ele>
        <time>2015-05-23T08:11:18Z</time>
      </trkpt>
      <trkpt lat="45.85489" lon="4.80727">
        <ele>337.594</ele>
        <time>2015-05-23T08:11:23Z</time>
      </trkpt>
      <trkpt lat="45.85484" lon="4.80724">
        <ele>337.417</ele>
        <time>2015-05-23T08:11:37Z</time>
      </trkpt>
      <trkpt lat="45.8548" lon="4.80722">
        <ele>340.23</ele>
        <time>2015-05-23T08:11:51Z</time>
      </trkpt>
      <trkpt lat="45.8548" lon="4.80721">
        <ele>339.993</ele>
        <time>2015-05-23T08:11:52Z</time>
      </trkpt>
      <trkpt lat="45.85471" lon="4.80731">
        <ele>342.909</ele>
        <time>2015-05-23T08:12:03Z</time>
      </trkpt>
      <trkpt lat="45.85471" lon="4.80733">
        <ele>343.83</ele>
        <time>2015-05-23T08:12:09Z</time>
      </trkpt>
      <trkpt lat="45.85466" lon="4.80734">
        <ele>344.822</ele>
        <time>2015-05-23T08:12:16Z</time>
      </trkpt>
      <trkpt lat="45.8546" lon="4.80738">
        <ele>346.599</ele>
        <time>2015-05-23T08:12:21Z</time>
      </trkpt>
      <trkpt lat="45.85443" lon="4.8075">
        <ele>348.718</ele>
        <time>2015-05-23T08:12:35Z</time>
      </trkpt>
      <trkpt lat="45.85439" lon="4.80754">
        <ele>349.312</ele>
        <time>2015-05-23T08:12:42Z</time>
      </trkpt>
      <trkpt lat="45.85429" lon="4.80753">
        <ele>350.484</ele>
        <time>2015-05-23T08:12:53Z</time>
      </trkpt>
      <trkpt lat="45.85426" lon="4.80753">
        <ele>350.511</ele>
        <time>2015-05-23T08:12:56Z</time>
      </trkpt>
      <trkpt lat="45.85423" lon="4.8075">
        <ele>351.687</ele>
        <time>2015-05-23T08:12:59Z</time>
      </trkpt>
      <trkpt lat="45.8542" lon="4.80753">
        <ele>352.042</ele>
        <time>2015-05-23T08:13:03Z</time>
      </trkpt>
      <trkpt lat="45.85414" lon="4.80755">
        <ele>352.336</ele>
        <time>2015-05-23T08:13:08Z</time>
      </trkpt>
      <trkpt lat="45.85399" lon="4.8076">
        <ele>355.362</ele>
        <time>2015-05-23T08:13:19Z</time>
      </trkpt>
      <trkpt lat="45.85396" lon="4.80762">
        <ele>355.96</ele>
        <time>2015-05-23T08:13:21Z</time>
      </trkpt>
      <trkpt lat="45.85393" lon="4.8077">
        <ele>356.838</ele>
        <time>2015-05-23T08:13:27Z</time>
      </trkpt>
      <trkpt lat="45.85381" lon="4.80787">
        <ele>360.412</ele>
        <time>2015-05-23T08:13:41Z</time>
      </trkpt>
      <trkpt lat="45.85373" lon="4.80797">
        <ele>363.444</ele>
        <time>2015-05-23T08:13:50Z</time>
      </trkpt>
      <trkpt lat="45.85372" lon="4.80798">
        <ele>363.439</ele>
        <time>2015-05-23T08:13:51Z</time>
      </trkpt>
      <trkpt lat="45.8536" lon="4.80812">
        <ele>365.721</ele>
        <time>2015-05-23T08:14:02Z</time>
      </trkpt>
      <trkpt lat="45.85359" lon="4.80814">
        <ele>367.927</ele>
        <time>2015-05-23T08:14:04Z</time>
      </trkpt>
      <trkpt lat="45.85357" lon="4.80815">
        <ele>368.398</ele>
        <time>2015-05-23T08:14:17Z</time>
      </trkpt>
      <trkpt lat="45.85357" lon="4.80821">
        <ele>369.664</ele>
        <time>2015-05-23T08:14:31Z</time>
      </trkpt>
      <trkpt lat="45.85352" lon="4.80837">
        <ele>372.591</ele>
        <time>2015-05-23T08:14:52Z</time>
      </trkpt>
      <trkpt lat="45.8535" lon="4.80853">
        <ele>373.945</ele>
        <time>2015-05-23T08:15:10Z</time>
      </trkpt>
      <trkpt lat="45.85351" lon="4.80864">
        <ele>376.992</ele>
        <time>2015-05-23T08:15:25Z</time>
      </trkpt>
      <trkpt lat="45.85352" lon="4.80874">
        <ele>380.299</ele>
        <time>2015-05-23T08:15:38Z</time>
      </trkpt>
      <trkpt lat="45.85352" lon="4.80882">
        <ele>381.521</ele>
        <time>2015-05-23T08:15:53Z</time>
      </trkpt>
      <trkpt lat="45.85352" lon="4.80886">
        <ele>381.892</ele>
        <time>2015-05-23T08:15:57Z</time>
      </trkpt>
      <trkpt lat="45.85355" lon="4.80895">
        <ele>383.842</ele>
        <time>2015-05-23T08:16:15Z</time>
      </trkpt>
      <trkpt lat="45.85357" lon="4.80908">
        <ele>385.551</ele>
        <time>2015-05-23T08:16:30Z</time>
      </trkpt>
      <trkpt lat="45.85358" lon="4.80913">
        <ele>387.406</ele>
        <time>2015-05-23T08:16:38Z</time>
      </trkpt>
      <trkpt lat="45.85359" lon="4.80923">
        <ele>389.037</ele>
        <time>2015-05-23T08:16:51Z</time>
      </trkpt>
      <trkpt lat="45.85359" lon="4.80928">
        <ele>390.034</ele>
        <time>2015-05-23T08:17:03Z</time>
      </trkpt>
      <trkpt lat="45.85363" lon="4.8094">
        <ele>392.25</ele>
        <time>2015-05-23T08:17:21Z</time>
      </trkpt>
      <trkpt lat="45.85366" lon="4.80946">
        <ele>392.38</ele>
        <time>2015-05-23T08:17:27Z</time>
      </trkpt>
      <trkpt lat="45.85369" lon="4.80965">
        <ele>394.296</ele>
        <time>2015-05-23T08:17:39Z</time>
      </trkpt>
      <trkpt lat="45.85374" lon="4.80993">
        <ele>397.72</ele>
        <time>2015-05-23T08:17:53Z</time>
      </trkpt>
      <trkpt lat="45.85375" lon="4.81005">
        <ele>399.757</ele>
        <time>2015-05-23T08:17:59Z</time>
      </trkpt>
      <trkpt lat="45.85378" lon="4.81024">
        <ele>402.487</ele>
        <time>2015-05-23T08:18:10Z</time>
      </trkpt>
      <trkpt lat="45.85385" lon="4.81058">
        <ele>405.58</ele>
        <time>2015-05-23T08:18:25Z</time>
      </trkpt>
      <trkpt lat="45.85386" lon="4.8106">
        <ele>405.582</ele>
        <time>2015-05-23T08:18:26Z</time>
      </trkpt>
      <trkpt lat="45.85388" lon="4.81075">
        <ele>409.242</ele>
        <time>2015-05-23T08:18:35Z</time>
      </trkpt>
      <trkpt lat="45.85396" lon="4.81094">
        <ele>412.946</ele>
        <time>2015-05-23T08:18:48Z</time>
      </trkpt>
      <trkpt lat="45.854" lon="4.81099">
        <ele>414.546</ele>
        <time>2015-05-23T08:18:52Z</time>
      </trkpt>
      <trkpt lat="45.85404" lon="4.81101">
        <ele>415.814</ele>
        <time>2015-05-23T08:18:56Z</time>
      </trkpt>
      <trkpt lat="45.85418" lon="4.81121">
        <ele>418.653</ele>
        <time>2015-05-23T08:19:12Z</time>
      </trkpt>
      <trkpt lat="45.85419" lon="4.81123">
        <ele>418.655</ele>
        <time>2015-05-23T08:19:13Z</time>
      </trkpt>
      <trkpt lat="45.8542" lon="4.81126">
        <ele>419.404</ele>
        <time>2015-05-23T08:19:15Z</time>
      </trkpt>
      <trkpt lat="45.85428" lon="4.8114">
        <ele>423.12</ele>
        <time>2015-05-23T08:19:26Z</time>
      </trkpt>
      <trkpt lat="45.85433" lon="4.81149">
        <ele>425.232</ele>
        <time>2015-05-23T08:19:34Z</time>
      </trkpt>
      <trkpt lat="45.85435" lon="4.81154">
        <ele>426.129</ele>
        <time>2015-05-23T08:19:38Z</time>
      </trkpt>
      <trkpt lat="45.85439" lon="4.81163">
        <ele>428.33</ele>
        <time>2015-05-23T08:19:44Z</time>
      </trkpt>
      <trkpt lat="45.85442" lon="4.81169">
        <ele>429.543</ele>
        <time>2015-05-23T08:19:49Z</time>
      </trkpt>
      <trkpt lat="45.85454" lon="4.81188">
        <ele>433.104</ele>
        <time>2015-05-23T08:20:03Z</time>
      </trkpt>
      <trkpt lat="45.85462" lon="4.81199">
        <ele>434.842</ele>
        <time>2015-05-23T08:20:11Z</time>
      </trkpt>
      <trkpt lat="45.85473" lon="4.81214">
        <ele>437.762</ele>
        <time>2015-05-23T08:20:24Z</time>
      </trkpt>
      <trkpt lat="45.85481" lon="4.81229">
        <ele>442.652</ele>
        <time>2015-05-23T08:20:32Z</time>
      </trkpt>
      <trkpt lat="45.85481" lon="4.8123">
        <ele>442.847</ele>
        <time>2015-05-23T08:20:33Z</time>
      </trkpt>
      <trkpt lat="45.85481" lon="4.81229">
        <ele>441.392</ele>
        <time>2015-05-23T08:20:36Z</time>
      </trkpt>
      <trkpt lat="45.85485" lon="4.81236">
        <ele>442.375</ele>
        <time>2015-05-23T08:20:46Z</time>
      </trkpt>
      <trkpt lat="45.85485" lon="4.81237">
        <ele>443.078</ele>
        <time>2015-05-23T08:20:48Z</time>
      </trkpt>
      <trkpt lat="45.8549" lon="4.81252">
        <ele>446.653</ele>
        <time>2015-05-23T08:21:03Z</time>
      </trkpt>
      <trkpt lat="45.8549" lon="4.81252">
        <ele>446.656</ele>
        <time>2015-05-23T08:21:04Z</time>
      </trkpt>
      <trkpt lat="45.8549" lon="4.81252">
        <ele>444.344</ele>
        <time>2015-05-23T08:21:25Z</time>
      </trkpt>
      <trkpt lat="45.85494" lon="4.81255">
        <ele>448.294</ele>
        <time>2015-05-23T08:21:30Z</time>
      </trkpt>
      <trkpt lat="45.85495" lon="4.81255">
        <ele>448.452</ele>
        <time>2015-05-23T08:21:31Z</time>
      </trkpt>
      <trkpt lat="45.85495" lon="4.81256">
        <ele>448.454</ele>
        <time>2015-05-23T08:21:32Z</time>
      </trkpt>
      <trkpt lat="45.85497" lon="4.81258">
        <ele>447.179</ele>
        <time>2015-05-23T08:21:34Z</time>
      </trkpt>
      <trkpt lat="45.85503" lon="4.81272">
        <ele>448.696</ele>
        <time>2015-05-23T08:21:44Z</time>
      </trkpt>
      <trkpt lat="45.85501" lon="4.81279">
        <ele>450.052</ele>
        <time>2015-05-23T08:21:47Z</time>
      </trkpt>
      <trkpt lat="45.85497" lon="4.81276">
        <ele>449.59</ele>
        <time>2015-05-23T08:21:50Z</time>
      </trkpt>
      <trkpt lat="45.85495" lon="4.81274">
        <ele>449.539</ele>
        <time>2015-05-23T08:21:52Z</time>
      </trkpt>
      <trkpt lat="45.85485" lon="4.8127">
        <ele>448.072</ele>
        <time>2015-05-23T08:21:57Z</time>
      </trkpt>
      <trkpt lat="45.85481" lon="4.81263">
        <ele>449.318</ele>
        <time>2015-05-23T08:22:00Z</time>
      </trkpt>
      <trkpt lat="45.85469" lon="4.81253">
        <ele>452.136</ele>
        <time>2015-05-23T08:22:09Z</time>
      </trkpt>
      <trkpt lat="45.85452" lon="4.81244">
        <ele>452.079</ele>
        <time>2015-05-23T08:22:20Z</time>
      </trkpt>
      <trkpt lat="45.85441" lon="4.81238">
        <ele>453.102</ele>
        <time>2015-05-23T08:22:28Z</time>
      </trkpt>
      <trkpt lat="45.85428" lon="4.81228">
        <ele>455.887</ele>
        <time>2015-05-23T08:22:36Z</time>
      </trkpt>
      <trkpt lat="45.85407" lon="4.81215">
        <ele>457.142</ele>
        <time>2015-05-23T08:22:50Z</time>
      </trkpt>
      <trkpt lat="45.85384" lon="4.81198">
        <ele>460.58</ele>
        <time>2015-05-23T08:23:05Z</time>
      </trkpt>
      <trkpt lat="45.85376" lon="4.81194">
        <ele>462.094</ele>
        <time>2015-05-23T08:23:11Z</time>
      </trkpt>
      <trkpt lat="45.85355" lon="4.81179">
        <ele>462.985</ele>
        <time>2015-05-23T08:23:24Z</time>
      </trkpt>
      <trkpt lat="45.85342" lon="4.8117">
        <ele>466.103</ele>
        <time>2015-05-23T08:23:31Z</time>
      </trkpt>
      <trkpt lat="45.85314" lon="4.81146">
        <ele>468.383</ele>
        <time>2015-05-23T08:23:44Z</time>
      </trkpt>
      <trkpt lat="45.85301" lon="4.81132">
        <ele>470.436</ele>
        <time>2015-05-23T08:23:54Z</time>
      </trkpt>
      <trkpt lat="45.85296" lon="4.81126">
        <ele>471.591</ele>
        <time>2015-05-23T08:23:58Z</time>
      </trkpt>
      <trkpt lat="45.85279" lon="4.81106">
        <ele>473.726</ele>
        <time>2015-05-23T08:24:07Z</time>
      </trkpt>
      <trkpt lat="45.85269" lon="4.81091">
        <ele>475.561</ele>
        <time>2015-05-23T08:24:14Z</time>
      </trkpt>
      <trkpt lat="45.85249" lon="4.81061">
        <ele>479.067</ele>
        <time>2015-05-23T08:24:27Z</time>
      </trkpt>
      <trkpt lat="45.85248" lon="4.81059">
        <ele>479.081</ele>
        <time>2015-05-23T08:24:28Z</time>
      </trkpt>
      <trkpt lat="45.85218" lon="4.81023">
        <ele>480.582</ele>
        <time>2015-05-23T08:24:45Z</time>
      </trkpt>
      <trkpt lat="45.85201" lon="4.81004">
        <ele>483.313</ele>
        <time>2015-05-23T08:24:58Z</time>
      </trkpt>
      <trkpt lat="45.8518" lon="4.80987">
        <ele>485.193</ele>
        <time>2015-05-23T08:25:10Z</time>
      </trkpt>
      <trkpt lat="45.85165" lon="4.80977">
        <ele>486.835</ele>
        <time>2015-05-23T08:25:19Z</time>
      </trkpt>
      <trkpt lat="45.8515" lon="4.80962">
        <ele>490.456</ele>
        <time>2015-05-23T08:25:29Z</time>
      </trkpt>
      <trkpt lat="45.85149" lon="4.80962">
        <ele>490.468</ele>
        <time>2015-05-23T08:25:30Z</time>
      </trkpt>
      <trkpt lat="45.85143" lon="4.80955">
        <ele>491.07</ele>
        <time>2015-05-23T08:25:34Z</time>
      </trkpt>
      <trkpt lat="45.85131" lon="4.80946">
        <ele>493.704</ele>
        <time>2015-05-23T08:25:41Z</time>
      </trkpt>
      <trkpt lat="45.85127" lon="4.80941">
        <ele>493.82</ele>
        <time>2015-05-23T08:25:44Z</time>
      </trkpt>
      <trkpt lat="45.85122" lon="4.80935">
        <ele>492.629</ele>
        <time>2015-05-23T08:25:47Z</time>
      </trkpt>
      <trkpt lat="45.8512" lon="4.80931">
        <ele>493.32</ele>
        <time>2015-05-23T08:25:50Z</time>
      </trkpt>
      <trkpt lat="45.85112" lon="4.80924">
        <ele>494.213</ele>
        <time>2015-05-23T08:25:55Z</time>
      </trkpt>
      <trkpt lat="45.85107" lon="4.80916">
        <ele>494.843</ele>
        <time>2015-05-23T08:25:58Z</time>
      </trkpt>
      <trkpt lat="45.85097" lon="4.80901">
        <ele>497.409</ele>
        <time>2015-05-23T08:26:05Z</time>
      </trkpt>
      <trkpt lat="45.85076" lon="4.80873">
        <ele>499.925</ele>
        <time>2015-05-23T08:26:17Z</time>
      </trkpt>
      <trkpt lat="45.85051" lon="4.8084">
        <ele>501.907</ele>
        <time>2015-05-23T08:26:31Z</time>
      </trkpt>
      <trkpt lat="45.85048" lon="4.80835">
        <ele>503.981</ele>
        <time>2015-05-23T08:26:33Z</time>
      </trkpt>
      <trkpt lat="45.85036" lon="4.80819">
        <ele>505.778</ele>
        <time>2015-05-23T08:26:40Z</time>
      </trkpt>
      <trkpt lat="45.85011" lon="4.80787">
        <ele>507.207</ele>
        <time>2015-05-23T08:26:53Z</time>
      </trkpt>
      <trkpt lat="45.84973" lon="4.80733">
        <ele>507.714</ele>
        <time>2015-05-23T08:27:09Z</time>
      </trkpt>
      <trkpt lat="45.84966" lon="4.8072">
        <ele>508.27</ele>
        <time>2015-05-23T08:27:21Z</time>
      </trkpt>
      <trkpt lat="45.84965" lon="4.8072">
        <ele>507.025</ele>
        <time>2015-05-23T08:27:42Z</time>
      </trkpt>
      <trkpt lat="45.84966" lon="4.8071">
        <ele>507.293</ele>
        <time>2015-05-23T08:28:42Z</time>
      </trkpt>
      <trkpt lat="45.84964" lon="4.80706">
        <ele>508.597</ele>
        <time>2015-05-23T08:28:45Z</time>
      </trkpt>
      <trkpt lat="45.84963" lon="4.80705">
        <ele>508.827</ele>
        <time>2015-05-23T08:28:46Z</time>
      </trkpt>
      <trkpt lat="45.84951" lon="4.80682">
        <ele>509.634</ele>
        <time>2015-05-23T08:28:55Z</time>
      </trkpt>
      <trkpt lat="45.84942" lon="4.80676">
        <ele>510.584</ele>
        <time>2015-05-23T08:29:00Z</time>
      </trkpt>
      <trkpt lat="45.84906" lon="4.80667">
        <ele>508.618</ele>
        <time>2015-05-23T08:29:15Z</time>
      </trkpt>
      <trkpt lat="45.84866" lon="4.80648">
        <ele>509.11</ele>
        <time>2015-05-23T08:29:28Z</time>
      </trkpt>
      <trkpt lat="45.84797" lon="4.80628">
        <ele>510.102</ele>
        <time>2015-05-23T08:29:44Z</time>
      </trkpt>
      <trkpt lat="45.84788" lon="4.80627">
        <ele>508.737</ele>
        <time>2015-05-23T08:29:46Z</time>
      </trkpt>
      <trkpt lat="45.84775" lon="4.8063">
        <ele>510.213</ele>
        <time>2015-05-23T08:29:49Z</time>
      </trkpt>
      <trkpt lat="45.84755" lon="4.80636">
        <ele>509.654</ele>
        <time>2015-05-23T08:29:53Z</time>
      </trkpt>
      <trkpt lat="45.8471" lon="4.80645">
        <ele>509.496</ele>
        <time>2015-05-23T08:30:02Z</time>
      </trkpt>
      <trkpt lat="45.84684" lon="4.80646">
        <ele>508.647</ele>
        <time>2015-05-23T08:30:07Z</time>
      </trkpt>
      <trkpt lat="45.84636" lon="4.80638">
        <ele>507.709</ele>
        <time>2015-05-23T08:30:16Z</time>
      </trkpt>
      <trkpt lat="45.84613" lon="4.80634">
        <ele>506.526</ele>
        <time>2015-05-23T08:30:20Z</time>
      </trkpt>
      <trkpt lat="45.84599" lon="4.8063">
        <ele>505.818</ele>
        <time>2015-05-23T08:30:22Z</time>
      </trkpt>
      <trkpt lat="45.84583" lon="4.80596">
        <ele>505.001</ele>
        <time>2015-05-23T08:30:26Z</time>
      </trkpt>
      <trkpt lat="45.84571" lon="4.80566">
        <ele>502.03</ele>
        <time>2015-05-23T08:30:29Z</time>
      </trkpt>
      <trkpt lat="45.84551" lon="4.80557">
        <ele>500.312</ele>
        <time>2015-05-23T08:30:31Z</time>
      </trkpt>
      <trkpt lat="45.8453" lon="4.80567">
        <ele>498.905</ele>
        <time>2015-05-23T08:30:34Z</time>
      </trkpt>
      <trkpt lat="45.84487" lon="4.80589">
        <ele>501.12</ele>
        <time>2015-05-23T08:30:47Z</time>
      </trkpt>
      <trkpt lat="45.84477" lon="4.80591">
        <ele>502.798</ele>
        <time>2015-05-23T08:30:50Z</time>
      </trkpt>
      <trkpt lat="45.84459" lon="4.80592">
        <ele>504.334</ele>
        <time>2015-05-23T08:30:57Z</time>
      </trkpt>
      <trkpt lat="45.84432" lon="4.80584">
        <ele>505.489</ele>
        <time>2015-05-23T08:31:08Z</time>
      </trkpt>
      <trkpt lat="45.84432" lon="4.80584">
        <ele>504.509</ele>
        <time>2015-05-23T08:31:20Z</time>
      </trkpt>
      <trkpt lat="45.84432" lon="4.80584">
        <ele>505.782</ele>
        <time>2015-05-23T08:31:57Z</time>
      </trkpt>
      <trkpt lat="45.84417" lon="4.80599">
        <ele>506.007</ele>
        <time>2015-05-23T08:32:01Z</time>
      </trkpt>
      <trkpt lat="45.84414" lon="4.8062">
        <ele>503.353</ele>
        <time>2015-05-23T08:32:04Z</time>
      </trkpt>
      <trkpt lat="45.84412" lon="4.80628">
        <ele>502.866</ele>
        <time>2015-05-23T08:32:05Z</time>
      </trkpt>
      <trkpt lat="45.84409" lon="4.80647">
        <ele>500.54</ele>
        <time>2015-05-23T08:32:08Z</time>
      </trkpt>
      <trkpt lat="45.84408" lon="4.80653">
        <ele>496.333</ele>
        <time>2015-05-23T08:32:10Z</time>
      </trkpt>
      <trkpt lat="45.84408" lon="4.80655">
        <ele>496.333</ele>
        <time>2015-05-23T08:32:11Z</time>
      </trkpt>
      <trkpt lat="45.84407" lon="4.80664">
        <ele>495.55</ele>
        <time>2015-05-23T08:32:17Z</time>
      </trkpt>
      <trkpt lat="45.84408" lon="4.80686">
        <ele>495.354</ele>
        <time>2015-05-23T08:32:22Z</time>
      </trkpt>
      <trkpt lat="45.8441" lon="4.80714">
        <ele>493.371</ele>
        <time>2015-05-23T08:32:25Z</time>
      </trkpt>
      <trkpt lat="45.84411" lon="4.80732">
        <ele>491.916</ele>
        <time>2015-05-23T08:32:27Z</time>
      </trkpt>
      <trkpt lat="45.84412" lon="4.80742">
        <ele>489.509</ele>
        <time>2015-05-23T08:32:28Z</time>
      </trkpt>
      <trkpt lat="45.84415" lon="4.80768">
        <ele>487.42</ele>
        <time>2015-05-23T08:32:31Z</time>
      </trkpt>
      <trkpt lat="45.84417" lon="4.80783">
        <ele>483.392</ele>
        <time>2015-05-23T08:32:33Z</time>
      </trkpt>
      <trkpt lat="45.84418" lon="4.80814">
        <ele>480.782</ele>
        <time>2015-05-23T08:32:36Z</time>
      </trkpt>
      <trkpt lat="45.84418" lon="4.80832">
        <ele>478.906</ele>
        <time>2015-05-23T08:32:38Z</time>
      </trkpt>
      <trkpt lat="45.84412" lon="4.80864">
        <ele>476.289</ele>
        <time>2015-05-23T08:32:41Z</time>
      </trkpt>
      <trkpt lat="45.84406" lon="4.80884">
        <ele>474.085</ele>
        <time>2015-05-23T08:32:43Z</time>
      </trkpt>
      <trkpt lat="45.844" lon="4.80905">
        <ele>472.228</ele>
        <time>2015-05-23T08:32:45Z</time>
      </trkpt>
      <trkpt lat="45.8439" lon="4.80937">
        <ele>469.261</ele>
        <time>2015-05-23T08:32:48Z</time>
      </trkpt>
      <trkpt lat="45.84384" lon="4.80959">
        <ele>467.455</ele>
        <time>2015-05-23T08:32:50Z</time>
      </trkpt>
      <trkpt lat="45.84378" lon="4.80984">
        <ele>465.984</ele>
        <time>2015-05-23T08:32:52Z</time>
      </trkpt>
      <trkpt lat="45.8437" lon="4.8102">
        <ele>464.002</ele>
        <time>2015-05-23T08:32:55Z</time>
      </trkpt>
      <trkpt lat="45.84365" lon="4.81045">
        <ele>462.427</ele>
        <time>2015-05-23T08:32:57Z</time>
      </trkpt>
      <trkpt lat="45.8436" lon="4.81069">
        <ele>459.161</ele>
        <time>2015-05-23T08:32:59Z</time>
      </trkpt>
      <trkpt lat="45.84355" lon="4.81103">
        <ele>453.803</ele>
        <time>2015-05-23T08:33:01Z</time>
      </trkpt>
      <trkpt lat="45.84349" lon="4.81147">
        <ele>451.883</ele>
        <time>2015-05-23T08:33:04Z</time>
      </trkpt>
      <trkpt lat="45.84348" lon="4.81161">
        <ele>449.438</ele>
        <time>2015-05-23T08:33:05Z</time>
      </trkpt>
      <trkpt lat="45.84343" lon="4.8119">
        <ele>446.276</ele>
        <time>2015-05-23T08:33:07Z</time>
      </trkpt>
      <trkpt lat="45.84337" lon="4.81218">
        <ele>444.135</ele>
        <time>2015-05-23T08:33:09Z</time>
      </trkpt>
      <trkpt lat="45.84333" lon="4.81231">
        <ele>441.735</ele>
        <time>2015-05-23T08:33:10Z</time>
      </trkpt>
      <trkpt lat="45.84321" lon="4.81264">
        <ele>437.961</ele>
        <time>2015-05-23T08:33:14Z</time>
      </trkpt>
      <trkpt lat="45.84319" lon="4.81267">
        <ele>437.965</ele>
        <time>2015-05-23T08:33:15Z</time>
      </trkpt>
      <trkpt lat="45.84315" lon="4.8127">
        <ele>435.274</ele>
        <time>2015-05-23T08:33:17Z</time>
      </trkpt>
      <trkpt lat="45.84306" lon="4.81268">
        <ele>435.128</ele>
        <time>2015-05-23T08:33:34Z</time>
      </trkpt>
      <trkpt lat="45.84306" lon="4.81268">
        <ele>433.974</ele>
        <time>2015-05-23T08:33:45Z</time>
      </trkpt>
      <trkpt lat="45.84306" lon="4.81268">
        <ele>435.275</ele>
        <time>2015-05-23T08:34:56Z</time>
      </trkpt>
      <trkpt lat="45.84306" lon="4.81268">
        <ele>435.595</ele>
        <time>2015-05-23T08:35:24Z</time>
      </trkpt>
      <trkpt lat="45.84289" lon="4.81261">
        <ele>436.617</ele>
        <time>2015-05-23T08:35:29Z</time>
      </trkpt>
      <trkpt lat="45.84248" lon="4.81243">
        <ele>437.413</ele>
        <time>2015-05-23T08:35:43Z</time>
      </trkpt>
      <trkpt lat="45.8423" lon="4.81235">
        <ele>436.802</ele>
        <time>2015-05-23T08:35:47Z</time>
      </trkpt>
      <trkpt lat="45.8421" lon="4.81232">
        <ele>435.611</ele>
        <time>2015-05-23T08:35:51Z</time>
      </trkpt>
      <trkpt lat="45.84188" lon="4.81238">
        <ele>436.482</ele>
        <time>2015-05-23T08:35:56Z</time>
      </trkpt>
      <trkpt lat="45.8417" lon="4.81244">
        <ele>437.967</ele>
        <time>2015-05-23T08:36:00Z</time>
      </trkpt>
      <trkpt lat="45.84134" lon="4.8125">
        <ele>439.973</ele>
        <time>2015-05-23T08:36:10Z</time>
      </trkpt>
      <trkpt lat="45.84111" lon="4.8125">
        <ele>440.835</ele>
        <time>2015-05-23T08:36:17Z</time>
      </trkpt>
      <trkpt lat="45.8408" lon="4.81246">
        <ele>442.826</ele>
        <time>2015-05-23T08:36:27Z</time>
      </trkpt>
      <trkpt lat="45.84033" lon="4.81236">
        <ele>444.156</ele>
        <time>2015-05-23T08:36:41Z</time>
      </trkpt>
      <trkpt lat="45.84013" lon="4.81222">
        <ele>444.092</ele>
        <time>2015-05-23T08:36:47Z</time>
      </trkpt>
      <trkpt lat="45.83986" lon="4.81179">
        <ele>444.34</ele>
        <time>2015-05-23T08:36:59Z</time>
      </trkpt>
      <trkpt lat="45.83965" lon="4.81124">
        <ele>444.616</ele>
        <time>2015-05-23T08:37:10Z</time>
      </trkpt>
      <trkpt lat="45.83963" lon="4.81117">
        <ele>444.175</ele>
        <time>2015-05-23T08:37:11Z</time>
      </trkpt>
      <trkpt lat="45.83942" lon="4.81049">
        <ele>443.621</ele>
        <time>2015-05-23T08:37:24Z</time>
      </trkpt>
      <trkpt lat="45.83942" lon="4.81045">
        <ele>443.891</ele>
        <time>2015-05-23T08:37:25Z</time>
      </trkpt>
      <trkpt lat="45.83943" lon="4.80989">
        <ele>443.04</ele>
        <time>2015-05-23T08:37:39Z</time>
      </trkpt>
      <trkpt lat="45.83943" lon="4.80989">
        <ele>441.303</ele>
        <time>2015-05-23T08:37:52Z</time>
      </trkpt>
      <trkpt lat="45.83943" lon="4.80989">
        <ele>441.011</ele>
        <time>2015-05-23T08:38:05Z</time>
      </trkpt>
      <trkpt lat="45.83943" lon="4.80989">
        <ele>440.778</ele>
        <time>2015-05-23T08:38:48Z</time>
      </trkpt>
      <trkpt lat="45.83946" lon="4.80954">
        <ele>441.167</ele>
        <time>2015-05-23T08:39:01Z</time>
      </trkpt>
      <trkpt lat="45.83946" lon="4.80954">
        <ele>440.995</ele>
        <time>2015-05-23T08:39:06Z</time>
      </trkpt>
      <trkpt lat="45.83935" lon="4.8096">
        <ele>437.917</ele>
        <time>2015-05-23T08:39:11Z</time>
      </trkpt>
      <trkpt lat="45.83931" lon="4.80962">
        <ele>437.906</ele>
        <time>2015-05-23T08:39:12Z</time>
      </trkpt>
      <trkpt lat="45.83928" lon="4.80964">
        <ele>435.954</ele>
        <time>2015-05-23T08:39:13Z</time>
      </trkpt>
      <trkpt lat="45.83926" lon="4.80965">
        <ele>434.725</ele>
        <time>2015-05-23T08:39:15Z</time>
      </trkpt>
      <trkpt lat="45.83923" lon="4.80966">
        <ele>433.142</ele>
        <time>2015-05-23T08:39:17Z</time>
      </trkpt>
      <trkpt lat="45.8392" lon="4.80967">
        <ele>432.759</ele>
        <time>2015-05-23T08:39:18Z</time>
      </trkpt>
      <trkpt lat="45.83908" lon="4.80971">
        <ele>429.094</ele>
        <time>2015-05-23T08:39:23Z</time>
      </trkpt>
      <trkpt lat="45.83904" lon="4.80972">
        <ele>429.087</ele>
        <time>2015-05-23T08:39:24Z</time>
      </trkpt>
      <trkpt lat="45.83893" lon="4.80976">
        <ele>427.044</ele>
        <time>2015-05-23T08:39:26Z</time>
      </trkpt>
      <trkpt lat="45.83883" lon="4.8098">
        <ele>424.608</ele>
        <time>2015-05-23T08:39:28Z</time>
      </trkpt>
      <trkpt lat="45.8388" lon="4.80981">
        <ele>421.585</ele>
        <time>2015-05-23T08:39:29Z</time>
      </trkpt>
      <trkpt lat="45.83874" lon="4.80983">
        <ele>419.604</ele>
        <time>2015-05-23T08:39:31Z</time>
      </trkpt>
      <trkpt lat="45.8387" lon="4.80984">
        <ele>416.771</ele>
        <time>2015-05-23T08:39:32Z</time>
      </trkpt>
      <trkpt lat="45.8386" lon="4.80988">
        <ele>414.362</ele>
        <time>2015-05-23T08:39:35Z</time>
      </trkpt>
      <trkpt lat="45.83854" lon="4.80995">
        <ele>409.811</ele>
        <time>2015-05-23T08:39:38Z</time>
      </trkpt>
      <trkpt lat="45.83851" lon="4.80992">
        <ele>408.302</ele>
        <time>2015-05-23T08:39:40Z</time>
      </trkpt>
      <trkpt lat="45.8385" lon="4.80991">
        <ele>406.467</ele>
        <time>2015-05-23T08:39:42Z</time>
      </trkpt>
      <trkpt lat="45.83851" lon="4.80991">
        <ele>406.969</ele>
        <time>2015-05-23T08:40:54Z</time>
      </trkpt>
      <trkpt lat="45.8385" lon="4.80991">
        <ele>405.301</ele>
        <time>2015-05-23T08:40:58Z</time>
      </trkpt>
      <trkpt lat="45.83851" lon="4.80986">
        <ele>405.502</ele>
        <time>2015-05-23T08:41:06Z</time>
      </trkpt>
      <trkpt lat="45.83851" lon="4.80977">
        <ele>406.549</ele>
        <time>2015-05-23T08:41:10Z</time>
      </trkpt>
      <trkpt lat="45.83853" lon="4.80959">
        <ele>405.393</ele>
        <time>2015-05-23T08:41:14Z</time>
      </trkpt>
      <trkpt lat="45.83857" lon="4.8094">
        <ele>403.871</ele>
        <time>2015-05-23T08:41:17Z</time>
      </trkpt>
      <trkpt lat="45.83856" lon="4.80928">
        <ele>400.882</ele>
        <time>2015-05-23T08:41:22Z</time>
      </trkpt>
      <trkpt lat="45.8383" lon="4.80969">
        <ele>399.099</ele>
        <time>2015-05-23T08:41:26Z</time>
      </trkpt>
      <trkpt lat="45.83823" lon="4.80962">
        <ele>395.803</ele>
        <time>2015-05-23T08:41:29Z</time>
      </trkpt>
      <trkpt lat="45.83821" lon="4.8096">
        <ele>392.94</ele>
        <time>2015-05-23T08:41:30Z</time>
      </trkpt>
      <trkpt lat="45.83819" lon="4.80963">
        <ele>389.504</ele>
        <time>2015-05-23T08:41:32Z</time>
      </trkpt>
      <trkpt lat="45.83805" lon="4.80964">
        <ele>389.51</ele>
        <time>2015-05-23T08:41:33Z</time>
      </trkpt>
      <trkpt lat="45.83799" lon="4.80974">
        <ele>386.264</ele>
        <time>2015-05-23T08:41:35Z</time>
      </trkpt>
      <trkpt lat="45.83797" lon="4.80977">
        <ele>382.832</ele>
        <time>2015-05-23T08:41:36Z</time>
      </trkpt>
      <trkpt lat="45.83793" lon="4.80988">
        <ele>380.567</ele>
        <time>2015-05-23T08:41:38Z</time>
      </trkpt>
      <trkpt lat="45.83792" lon="4.80993">
        <ele>378.328</ele>
        <time>2015-05-23T08:41:39Z</time>
      </trkpt>
      <trkpt lat="45.83791" lon="4.81002">
        <ele>374.235</ele>
        <time>2015-05-23T08:41:42Z</time>
      </trkpt>
      <trkpt lat="45.83791" lon="4.81006">
        <ele>374.247</ele>
        <time>2015-05-23T08:41:43Z</time>
      </trkpt>
      <trkpt lat="45.83781" lon="4.81029">
        <ele>371.735</ele>
        <time>2015-05-23T08:41:47Z</time>
      </trkpt>
      <trkpt lat="45.83778" lon="4.81034">
        <ele>369.575</ele>
        <time>2015-05-23T08:41:49Z</time>
      </trkpt>
      <trkpt lat="45.83778" lon="4.81034">
        <ele>367.369</ele>
        <time>2015-05-23T08:41:50Z</time>
      </trkpt>
      <trkpt lat="45.83773" lon="4.81055">
        <ele>365.192</ele>
        <time>2015-05-23T08:41:52Z</time>
      </trkpt>
      <trkpt lat="45.83774" lon="4.81064">
        <ele>362.994</ele>
        <time>2015-05-23T08:41:54Z</time>
      </trkpt>
      <trkpt lat="45.83774" lon="4.8107">
        <ele>362.182</ele>
        <time>2015-05-23T08:41:55Z</time>
      </trkpt>
      <trkpt lat="45.83775" lon="4.81086">
        <ele>357.946</ele>
        <time>2015-05-23T08:41:58Z</time>
      </trkpt>
      <trkpt lat="45.83773" lon="4.81108">
        <ele>355.236</ele>
        <time>2015-05-23T08:42:01Z</time>
      </trkpt>
      <trkpt lat="45.83771" lon="4.81128">
        <ele>352.253</ele>
        <time>2015-05-23T08:42:03Z</time>
      </trkpt>
      <trkpt lat="45.83773" lon="4.81148">
        <ele>347.29</ele>
        <time>2015-05-23T08:42:06Z</time>
      </trkpt>
      <trkpt lat="45.83773" lon="4.81151">
        <ele>345.769</ele>
        <time>2015-05-23T08:42:08Z</time>
      </trkpt>
      <trkpt lat="45.83773" lon="4.81151">
        <ele>345.356</ele>
        <time>2015-05-23T08:42:18Z</time>
      </trkpt>
      <trkpt lat="45.83773" lon="4.81151">
        <ele>345.332</ele>
        <time>2015-05-23T08:42:51Z</time>
      </trkpt>
      <trkpt lat="45.83773" lon="4.81151">
        <ele>345.58</ele>
        <time>2015-05-23T08:43:07Z</time>
      </trkpt>
      <trkpt lat="45.83773" lon="4.81151">
        <ele>345.515</ele>
        <time>2015-05-23T08:43:36Z</time>
      </trkpt>
      <trkpt lat="45.83773" lon="4.81151">
        <ele>346.525</ele>
        <time>2015-05-23T08:43:41Z</time>
      </trkpt>
      <trkpt lat="45.83773" lon="4.81151">
        <ele>346.211</ele>
        <time>2015-05-23T08:44:10Z</time>
      </trkpt>
      <trkpt lat="45.83773" lon="4.81151">
        <ele>347.522</ele>
        <time>2015-05-23T08:44:31Z</time>
      </trkpt>
      <trkpt lat="45.83773" lon="4.81151">
        <ele>348.355</ele>
        <time>2015-05-23T08:44:59Z</time>
      </trkpt>
      <trkpt lat="45.83773" lon="4.81151">
        <ele>348.09</ele>
        <time>2015-05-23T08:45:37Z</time>
      </trkpt>
      <trkpt lat="45.83773" lon="4.81151">
        <ele>348.394</ele>
        <time>2015-05-23T08:45:50Z</time>
      </trkpt>
      <trkpt lat="45.83774" lon="4.81152">
        <ele>346.523</ele>
        <time>2015-05-23T08:45:54Z</time>
      </trkpt>
      <trkpt lat="45.83773" lon="4.8118">
        <ele>343.942</ele>
        <time>2015-05-23T08:45:58Z</time>
      </trkpt>
      <trkpt lat="45.83775" lon="4.81207">
        <ele>341.854</ele>
        <time>2015-05-23T08:46:02Z</time>
      </trkpt>
      <trkpt lat="45.83774" lon="4.81217">
        <ele>338.79</ele>
        <time>2015-05-23T08:46:03Z</time>
      </trkpt>
      <trkpt lat="45.83774" lon="4.81224">
        <ele>338.797</ele>
        <time>2015-05-23T08:46:04Z</time>
      </trkpt>
      <trkpt lat="45.83772" lon="4.81249">
        <ele>335.934</ele>
        <time>2015-05-23T08:46:07Z</time>
      </trkpt>
      <trkpt lat="45.83771" lon="4.81263">
        <ele>333.657</ele>
        <time>2015-05-23T08:46:09Z</time>
      </trkpt>
      <trkpt lat="45.83771" lon="4.81286">
        <ele>331.119</ele>
        <time>2015-05-23T08:46:11Z</time>
      </trkpt>
      <trkpt lat="45.83772" lon="4.81306">
        <ele>330.262</ele>
        <time>2015-05-23T08:46:13Z</time>
      </trkpt>
      <trkpt lat="45.83773" lon="4.81327">
        <ele>324.258</ele>
        <time>2015-05-23T08:46:15Z</time>
      </trkpt>
      <trkpt lat="45.83775" lon="4.8134">
        <ele>324.269</ele>
        <time>2015-05-23T08:46:16Z</time>
      </trkpt>
      <trkpt lat="45.83776" lon="4.8135">
        <ele>321.14</ele>
        <time>2015-05-23T08:46:17Z</time>
      </trkpt>
      <trkpt lat="45.83776" lon="4.8136">
        <ele>321.151</ele>
        <time>2015-05-23T08:46:18Z</time>
      </trkpt>
      <trkpt lat="45.83778" lon="4.8138">
        <ele>318.01</ele>
        <time>2015-05-23T08:46:20Z</time>
      </trkpt>
      <trkpt lat="45.83779" lon="4.81399">
        <ele>311.63</ele>
        <time>2015-05-23T08:46:22Z</time>
      </trkpt>
      <trkpt lat="45.83779" lon="4.8141">
        <ele>311.644</ele>
        <time>2015-05-23T08:46:23Z</time>
      </trkpt>
      <trkpt lat="45.83781" lon="4.81432">
        <ele>308.928</ele>
        <time>2015-05-23T08:46:25Z</time>
      </trkpt>
      <trkpt lat="45.83782" lon="4.81452">
        <ele>305.294</ele>
        <time>2015-05-23T08:46:26Z</time>
      </trkpt>
      <trkpt lat="45.83782" lon="4.81462">
        <ele>305.309</ele>
        <time>2015-05-23T08:46:27Z</time>
      </trkpt>
      <trkpt lat="45.83783" lon="4.81472">
        <ele>302.143</ele>
        <time>2015-05-23T08:46:28Z</time>
      </trkpt>
      <trkpt lat="45.83783" lon="4.81483">
        <ele>297.936</ele>
        <time>2015-05-23T08:46:29Z</time>
      </trkpt>
      <trkpt lat="45.83784" lon="4.81495">
        <ele>297.953</ele>
        <time>2015-05-23T08:46:30Z</time>
      </trkpt>
      <trkpt lat="45.83785" lon="4.81536">
        <ele>291.855</ele>
        <time>2015-05-23T08:46:33Z</time>
      </trkpt>
      <trkpt lat="45.83786" lon="4.81547">
        <ele>291.873</ele>
        <time>2015-05-23T08:46:34Z</time>
      </trkpt>
      <trkpt lat="45.83787" lon="4.81556">
        <ele>288.603</ele>
        <time>2015-05-23T08:46:35Z</time>
      </trkpt>
      <trkpt lat="45.83788" lon="4.81575">
        <ele>285.944</ele>
        <time>2015-05-23T08:46:37Z</time>
      </trkpt>
      <trkpt lat="45.83789" lon="4.81593">
        <ele>283.778</ele>
        <time>2015-05-23T08:46:39Z</time>
      </trkpt>
      <trkpt lat="45.83794" lon="4.81616">
        <ele>282.279</ele>
        <time>2015-05-23T08:46:41Z</time>
      </trkpt>
      <trkpt lat="45.83799" lon="4.81643">
        <ele>277.515</ele>
        <time>2015-05-23T08:46:43Z</time>
      </trkpt>
      <trkpt lat="45.83814" lon="4.81684">
        <ele>275.069</ele>
        <time>2015-05-23T08:46:46Z</time>
      </trkpt>
      <trkpt lat="45.83823" lon="4.81713">
        <ele>272.709</ele>
        <time>2015-05-23T08:46:48Z</time>
      </trkpt>
      <trkpt lat="45.83827" lon="4.81728">
        <ele>269.11</ele>
        <time>2015-05-23T08:46:49Z</time>
      </trkpt>
      <trkpt lat="45.83833" lon="4.81751">
        <ele>269.11</ele>
        <time>2015-05-23T08:46:51Z</time>
      </trkpt>
      <trkpt lat="45.83836" lon="4.81765">
        <ele>263.392</ele>
        <time>2015-05-23T08:46:52Z</time>
      </trkpt>
      <trkpt lat="45.83838" lon="4.81779">
        <ele>263.392</ele>
        <time>2015-05-23T08:46:53Z</time>
      </trkpt>
      <trkpt lat="45.83842" lon="4.81808">
        <ele>261.355</ele>
        <time>2015-05-23T08:46:55Z</time>
      </trkpt>
      <trkpt lat="45.83845" lon="4.81816">
        <ele>259.344</ele>
        <time>2015-05-23T08:46:56Z</time>
      </trkpt>
      <trkpt lat="45.83851" lon="4.81835">
        <ele>253.943</ele>
        <time>2015-05-23T08:46:59Z</time>
      </trkpt>
      <trkpt lat="45.83851" lon="4.81835">
        <ele>253.943</ele>
        <time>2015-05-23T08:47:00Z</time>
      </trkpt>
      <trkpt lat="45.83851" lon="4.81835">
        <ele>253.013</ele>
        <time>2015-05-23T08:47:02Z</time>
      </trkpt>
      <trkpt lat="45.83852" lon="4.81836">
        <ele>253.431</ele>
        <time>2015-05-23T08:47:09Z</time>
      </trkpt>
      <trkpt lat="45.83852" lon="4.81836">
        <ele>252.107</ele>
        <time>2015-05-23T08:47:11Z</time>
      </trkpt>
      <trkpt lat="45.83853" lon="4.81839">
        <ele>252.362</ele>
        <time>2015-05-23T08:47:12Z</time>
      </trkpt>
      <trkpt lat="45.83865" lon="4.81862">
        <ele>249.366</ele>
        <time>2015-05-23T08:47:24Z</time>
      </trkpt>
      <trkpt lat="45.83865" lon="4.81862">
        <ele>250.228</ele>
        <time>2015-05-23T08:48:12Z</time>
      </trkpt>
      <trkpt lat="45.83868" lon="4.81896">
        <ele>249.681</ele>
        <time>2015-05-23T08:48:19Z</time>
      </trkpt>
      <trkpt lat="45.83868" lon="4.81926">
        <ele>249.101</ele>
        <time>2015-05-23T08:48:23Z</time>
      </trkpt>
      <trkpt lat="45.83869" lon="4.81961">
        <ele>246.424</ele>
        <time>2015-05-23T08:48:28Z</time>
      </trkpt>
      <trkpt lat="45.8387" lon="4.81975">
        <ele>244.686</ele>
        <time>2015-05-23T08:48:30Z</time>
      </trkpt>
      <trkpt lat="45.83874" lon="4.82">
        <ele>243.956</ele>
        <time>2015-05-23T08:48:33Z</time>
      </trkpt>
      <trkpt lat="45.83876" lon="4.8202">
        <ele>242.515</ele>
        <time>2015-05-23T08:48:35Z</time>
      </trkpt>
      <trkpt lat="45.83875" lon="4.82037">
        <ele>240.921</ele>
        <time>2015-05-23T08:48:37Z</time>
      </trkpt>
      <trkpt lat="45.83873" lon="4.82053">
        <ele>240.623</ele>
        <time>2015-05-23T08:48:39Z</time>
      </trkpt>
      <trkpt lat="45.83873" lon="4.82055">
        <ele>238.591</ele>
        <time>2015-05-23T08:48:43Z</time>
      </trkpt>
      <trkpt lat="45.83869" lon="4.82118">
        <ele>236.287</ele>
        <time>2015-05-23T08:48:47Z</time>
      </trkpt>
      <trkpt lat="45.83867" lon="4.82135">
        <ele>234.488</ele>
        <time>2015-05-23T08:48:49Z</time>
      </trkpt>
      <trkpt lat="45.83866" lon="4.82144">
        <ele>233.983</ele>
        <time>2015-05-23T08:48:50Z</time>
      </trkpt>
      <trkpt lat="45.83859" lon="4.82194">
        <ele>232.087</ele>
        <time>2015-05-23T08:48:56Z</time>
      </trkpt>
      <trkpt lat="45.83858" lon="4.82216">
        <ele>230.488</ele>
        <time>2015-05-23T08:48:59Z</time>
      </trkpt>
      <trkpt lat="45.83858" lon="4.82235">
        <ele>228.958</ele>
        <time>2015-05-23T08:49:02Z</time>
      </trkpt>
      <trkpt lat="45.83858" lon="4.82244">
        <ele>227.733</ele>
        <time>2015-05-23T08:49:04Z</time>
      </trkpt>
      <trkpt lat="45.83856" lon="4.8228">
        <ele>227.378</ele>
        <time>2015-05-23T08:49:10Z</time>
      </trkpt>
      <trkpt lat="45.8385" lon="4.82337">
        <ele>224.451</ele>
        <time>2015-05-23T08:49:17Z</time>
      </trkpt>
      <trkpt lat="45.8384" lon="4.82386">
        <ele>222.197</ele>
        <time>2015-05-23T08:49:22Z</time>
      </trkpt>
      <trkpt lat="45.83835" lon="4.82429">
        <ele>220.873</ele>
        <time>2015-05-23T08:49:26Z</time>
      </trkpt>
      <trkpt lat="45.83833" lon="4.8245">
        <ele>219.628</ele>
        <time>2015-05-23T08:49:28Z</time>
      </trkpt>
      <trkpt lat="45.83828" lon="4.82492">
        <ele>217.436</ele>
        <time>2015-05-23T08:49:33Z</time>
      </trkpt>
      <trkpt lat="45.83828" lon="4.82498">
        <ele>216.444</ele>
        <time>2015-05-23T08:49:35Z</time>
      </trkpt>
      <trkpt lat="45.83783" lon="4.825">
        <ele>215.126</ele>
        <time>2015-05-23T08:49:46Z</time>
      </trkpt>
      <trkpt lat="45.83774" lon="4.82537">
        <ele>214.893</ele>
        <time>2015-05-23T08:49:53Z</time>
      </trkpt>
      <trkpt lat="45.83764" lon="4.82571">
        <ele>214.597</ele>
        <time>2015-05-23T08:50:00Z</time>
      </trkpt>
      <trkpt lat="45.83766" lon="4.82628">
        <ele>214.078</ele>
        <time>2015-05-23T08:50:14Z</time>
      </trkpt>
      <trkpt lat="45.83766" lon="4.82628">
        <ele>211.674</ele>
        <time>2015-05-23T08:50:17Z</time>
      </trkpt>
      <trkpt lat="45.83766" lon="4.82628">
        <ele>211.216</ele>
        <time>2015-05-23T08:50:39Z</time>
      </trkpt>
      <trkpt lat="45.83766" lon="4.82628">
        <ele>212.133</ele>
        <time>2015-05-23T08:50:43Z</time>
      </trkpt>
      <trkpt lat="45.8377" lon="4.82678">
        <ele>210.633</ele>
        <time>2015-05-23T08:50:55Z</time>
      </trkpt>
      <trkpt lat="45.8377" lon="4.82678">
        <ele>210.631</ele>
        <time>2015-05-23T08:50:56Z</time>
      </trkpt>
      <trkpt lat="45.8377" lon="4.82713">
        <ele>209.784</ele>
        <time>2015-05-23T08:51:00Z</time>
      </trkpt>
      <trkpt lat="45.83771" lon="4.82765">
        <ele>208.908</ele>
        <time>2015-05-23T08:51:08Z</time>
      </trkpt>
      <trkpt lat="45.83771" lon="4.82777">
        <ele>209.592</ele>
        <time>2015-05-23T08:51:10Z</time>
      </trkpt>
      <trkpt lat="45.83769" lon="4.82795">
        <ele>210.872</ele>
        <time>2015-05-23T08:51:13Z</time>
      </trkpt>
      <trkpt lat="45.83754" lon="4.82851">
        <ele>207.761</ele>
        <time>2015-05-23T08:51:22Z</time>
      </trkpt>
      <trkpt lat="45.8375" lon="4.82867">
        <ele>207.089</ele>
        <time>2015-05-23T08:51:24Z</time>
      </trkpt>
      <trkpt lat="45.83752" lon="4.82917">
        <ele>204.768</ele>
        <time>2015-05-23T08:51:30Z</time>
      </trkpt>
      <trkpt lat="45.83755" lon="4.82931">
        <ele>203.918</ele>
        <time>2015-05-23T08:51:33Z</time>
      </trkpt>
      <trkpt lat="45.83777" lon="4.82953">
        <ele>201.868</ele>
        <time>2015-05-23T08:51:38Z</time>
      </trkpt>
      <trkpt lat="45.83798" lon="4.82942">
        <ele>201.043</ele>
        <time>2015-05-23T08:51:42Z</time>
      </trkpt>
      <trkpt lat="45.83813" lon="4.82923">
        <ele>199.419</ele>
        <time>2015-05-23T08:51:45Z</time>
      </trkpt>
      <trkpt lat="45.83826" lon="4.82911">
        <ele>198.339</ele>
        <time>2015-05-23T08:51:47Z</time>
      </trkpt>
      <trkpt lat="45.83838" lon="4.82902">
        <ele>196.915</ele>
        <time>2015-05-23T08:51:49Z</time>
      </trkpt>
      <trkpt lat="45.83854" lon="4.82892">
        <ele>195.072</ele>
        <time>2015-05-23T08:51:52Z</time>
      </trkpt>
      <trkpt lat="45.83871" lon="4.82921">
        <ele>193.984</ele>
        <time>2015-05-23T08:51:55Z</time>
      </trkpt>
      <trkpt lat="45.83877" lon="4.82939">
        <ele>192.688</ele>
        <time>2015-05-23T08:51:57Z</time>
      </trkpt>
      <trkpt lat="45.83887" lon="4.82975">
        <ele>192.775</ele>
        <time>2015-05-23T08:52:01Z</time>
      </trkpt>
      <trkpt lat="45.83889" lon="4.82993">
        <ele>193.298</ele>
        <time>2015-05-23T08:52:03Z</time>
      </trkpt>
      <trkpt lat="45.83897" lon="4.83095">
        <ele>190.677</ele>
        <time>2015-05-23T08:52:16Z</time>
      </trkpt>
      <trkpt lat="45.8388" lon="4.83111">
        <ele>190.91</ele>
        <time>2015-05-23T08:52:20Z</time>
      </trkpt>
      <trkpt lat="45.83858" lon="4.83117">
        <ele>191.179</ele>
        <time>2015-05-23T08:52:25Z</time>
      </trkpt>
      <trkpt lat="45.83792" lon="4.8314">
        <ele>190.786</ele>
        <time>2015-05-23T08:52:39Z</time>
      </trkpt>
      <trkpt lat="45.83759" lon="4.83159">
        <ele>191.894</ele>
        <time>2015-05-23T08:52:46Z</time>
      </trkpt>
      <trkpt lat="45.83747" lon="4.83167">
        <ele>190.975</ele>
        <time>2015-05-23T08:52:49Z</time>
      </trkpt>
      <trkpt lat="45.83739" lon="4.83173">
        <ele>191.463</ele>
        <time>2015-05-23T08:52:51Z</time>
      </trkpt>
      <trkpt lat="45.83723" lon="4.83184">
        <ele>190.92</ele>
        <time>2015-05-23T08:52:55Z</time>
      </trkpt>
      <trkpt lat="45.83641" lon="4.83253">
        <ele>192.251</ele>
        <time>2015-05-23T08:53:11Z</time>
      </trkpt>
      <trkpt lat="45.83554" lon="4.83325">
        <ele>192.512</ele>
        <time>2015-05-23T08:53:27Z</time>
      </trkpt>
      <trkpt lat="45.83483" lon="4.83427">
        <ele>193.21</ele>
        <time>2015-05-23T08:53:41Z</time>
      </trkpt>
      <trkpt lat="45.83415" lon="4.83593">
        <ele>192.968</ele>
        <time>2015-05-23T08:53:59Z</time>
      </trkpt>
      <trkpt lat="45.83363" lon="4.83763">
        <ele>194.084</ele>
        <time>2015-05-23T08:54:15Z</time>
      </trkpt>
      <trkpt lat="45.83311" lon="4.83957">
        <ele>193.522</ele>
        <time>2015-05-23T08:54:29Z</time>
      </trkpt>
      <trkpt lat="45.83268" lon="4.84145">
        <ele>193.357</ele>
        <time>2015-05-23T08:54:43Z</time>
      </trkpt>
      <trkpt lat="45.83242" lon="4.84264">
        <ele>190.24</ele>
        <time>2015-05-23T08:54:56Z</time>
      </trkpt>
      <trkpt lat="45.83197" lon="4.84486">
        <ele>191.415</ele>
        <time>2015-05-23T08:55:19Z</time>
      </trkpt>
      <trkpt lat="45.83156" lon="4.84629">
        <ele>191.522</ele>
        <time>2015-05-23T08:55:35Z</time>
      </trkpt>
      <trkpt lat="45.83118" lon="4.8469">
        <ele>191.915</ele>
        <time>2015-05-23T08:55:45Z</time>
      </trkpt>
      <trkpt lat="45.83099" lon="4.84705">
        <ele>192.363</ele>
        <time>2015-05-23T08:55:49Z</time>
      </trkpt>
      <trkpt lat="45.83099" lon="4.84746">
        <ele>194.493</ele>
        <time>2015-05-23T08:55:56Z</time>
      </trkpt>
      <trkpt lat="45.83102" lon="4.84743">
        <ele>194.486</ele>
        <time>2015-05-23T08:55:57Z</time>
      </trkpt>
      <trkpt lat="45.83185" lon="4.84819">
        <ele>196.609</ele>
        <time>2015-05-23T08:56:14Z</time>
      </trkpt>
      <trkpt lat="45.83229" lon="4.84862">
        <ele>194.117</ele>
        <time>2015-05-23T08:56:25Z</time>
      </trkpt>
      <trkpt lat="45.83234" lon="4.84867">
        <ele>193.506</ele>
        <time>2015-05-23T08:56:31Z</time>
      </trkpt>
      <trkpt lat="45.83241" lon="4.8488">
        <ele>192</ele>
        <time>2015-05-23T08:56:34Z</time>
      </trkpt>
      <trkpt lat="45.83243" lon="4.84875">
        <ele>193.146</ele>
        <time>2015-05-23T08:56:35Z</time>
      </trkpt>
      <trkpt lat="45.83277" lon="4.84772">
        <ele>191.903</ele>
        <time>2015-05-23T08:56:48Z</time>
      </trkpt>
      <trkpt lat="45.83297" lon="4.84754">
        <ele>192.175</ele>
        <time>2015-05-23T08:56:52Z</time>
      </trkpt>
      <trkpt lat="45.83394" lon="4.84759">
        <ele>191.033</ele>
        <time>2015-05-23T08:57:11Z</time>
      </trkpt>
      <trkpt lat="45.83415" lon="4.8476">
        <ele>193.08</ele>
        <time>2015-05-23T08:57:16Z</time>
      </trkpt>
      <trkpt lat="45.83428" lon="4.84761">
        <ele>193.77</ele>
        <time>2015-05-23T08:57:19Z</time>
      </trkpt>
      <trkpt lat="45.83445" lon="4.84763">
        <ele>194.347</ele>
        <time>2015-05-23T08:57:23Z</time>
      </trkpt>
      <trkpt lat="45.83483" lon="4.84766">
        <ele>196.742</ele>
        <time>2015-05-23T08:57:34Z</time>
      </trkpt>
      <trkpt lat="45.83486" lon="4.84766">
        <ele>196.341</ele>
        <time>2015-05-23T08:57:35Z</time>
      </trkpt>
      <trkpt lat="45.83545" lon="4.8473">
        <ele>199.92</ele>
        <time>2015-05-23T08:57:51Z</time>
      </trkpt>
      <trkpt lat="45.83614" lon="4.84698">
        <ele>203.049</ele>
        <time>2015-05-23T08:58:10Z</time>
      </trkpt>
      <trkpt lat="45.83646" lon="4.84684">
        <ele>206.387</ele>
        <time>2015-05-23T08:58:19Z</time>
      </trkpt>
      <trkpt lat="45.8369" lon="4.84671">
        <ele>209.69</ele>
        <time>2015-05-23T08:58:31Z</time>
      </trkpt>
      <trkpt lat="45.8374" lon="4.8467">
        <ele>213.048</ele>
        <time>2015-05-23T08:58:43Z</time>
      </trkpt>
      <trkpt lat="45.838" lon="4.84686">
        <ele>216.62</ele>
        <time>2015-05-23T08:58:57Z</time>
      </trkpt>
      <trkpt lat="45.83812" lon="4.84691">
        <ele>217.849</ele>
        <time>2015-05-23T08:59:02Z</time>
      </trkpt>
      <trkpt lat="45.83885" lon="4.84742">
        <ele>216.13</ele>
        <time>2015-05-23T08:59:14Z</time>
      </trkpt>
      <trkpt lat="45.83912" lon="4.84762">
        <ele>213.335</ele>
        <time>2015-05-23T08:59:18Z</time>
      </trkpt>
      <trkpt lat="45.83997" lon="4.84821">
        <ele>209.89</ele>
        <time>2015-05-23T08:59:31Z</time>
      </trkpt>
      <trkpt lat="45.84003" lon="4.84825">
        <ele>209.892</ele>
        <time>2015-05-23T08:59:32Z</time>
      </trkpt>
      <trkpt lat="45.84029" lon="4.84845">
        <ele>209.381</ele>
        <time>2015-05-23T08:59:37Z</time>
      </trkpt>
      <trkpt lat="45.84036" lon="4.84848">
        <ele>207.998</ele>
        <time>2015-05-23T08:59:39Z</time>
      </trkpt>
      <trkpt lat="45.84038" lon="4.84882">
        <ele>207.635</ele>
        <time>2015-05-23T08:59:42Z</time>
      </trkpt>
      <trkpt lat="45.84039" lon="4.84939">
        <ele>206.779</ele>
        <time>2015-05-23T08:59:53Z</time>
      </trkpt>
      <trkpt lat="45.84038" lon="4.84942">
        <ele>204.904</ele>
        <time>2015-05-23T09:00:02Z</time>
      </trkpt>
      <trkpt lat="45.84038" lon="4.84942">
        <ele>206.448</ele>
        <time>2015-05-23T09:00:04Z</time>
      </trkpt>
      <trkpt lat="45.84038" lon="4.84942">
        <ele>207.051</ele>
        <time>2015-05-23T09:00:32Z</time>
      </trkpt>
      <trkpt lat="45.84038" lon="4.84942">
        <ele>208.632</ele>
        <time>2015-05-23T09:00:44Z</time>
      </trkpt>
      <trkpt lat="45.84038" lon="4.84942">
        <ele>208.227</ele>
        <time>2015-05-23T09:01:17Z</time>
      </trkpt>
      <trkpt lat="45.84038" lon="4.84942">
        <ele>207.948</ele>
        <time>2015-05-23T09:01:42Z</time>
      </trkpt>
      <trkpt lat="45.84038" lon="4.84942">
        <ele>204.331</ele>
        <time>2015-05-23T09:02:08Z</time>
      </trkpt>
      <trkpt lat="45.84038" lon="4.84942">
        <ele>211.383</ele>
        <time>2015-05-23T09:02:09Z</time>
      </trkpt>
      <trkpt lat="45.84038" lon="4.84942">
        <ele>211.385</ele>
        <time>2015-05-23T09:02:10Z</time>
      </trkpt>
      <trkpt lat="45.84038" lon="4.84942">
        <ele>208.699</ele>
        <time>2015-05-23T09:02:12Z</time>
      </trkpt>
    </trkseg>
  </trk>
</gpx>